<?xml version="1.0" encoding="UTF-8" standalone="no" ?>
<gpx xmlns="http://www.topografix.com/GPX/1/1" xmlns:xsi="http://www.w3.org/2001/XMLSchema-instance" xsi:schemaLocation="http://www.topografix.com/GPX/1/1 http://www.topografix.com/GPX/1/1/gpx.xsd" version="1.1" creator="VisuGPX - https://www.visugpx.com">
  <metadata>
    <name>Campan Soum de Hailla</name>
  </metadata>
  <trk>
    <name><![CDATA[Campan Soum de Hailla]]></name>
    <trkseg>
      <trkpt lat="42.98436" lon="0.22583">
        <ele>866.79998779297</ele>
        <time>2019-06-12T06:37:55.000Z</time>
      </trkpt>
      <trkpt lat="42.98436" lon="0.22583">
        <ele>866.79998779297</ele>
        <time>2019-06-12T06:38:34.000Z</time>
      </trkpt>
      <trkpt lat="42.98453" lon="0.22559">
        <ele>868.20001220703</ele>
        <time>2019-06-12T06:38:40.000Z</time>
      </trkpt>
      <trkpt lat="42.98461" lon="0.22551">
        <ele>868.40002441406</ele>
        <time>2019-06-12T06:39:04.000Z</time>
      </trkpt>
      <trkpt lat="42.98454" lon="0.22541">
        <ele>871.40002441406</ele>
        <time>2019-06-12T06:39:30.000Z</time>
      </trkpt>
      <trkpt lat="42.9846" lon="0.2253">
        <ele>875</ele>
        <time>2019-06-12T06:39:56.000Z</time>
      </trkpt>
      <trkpt lat="42.98469" lon="0.22533">
        <ele>873</ele>
        <time>2019-06-12T06:40:36.000Z</time>
      </trkpt>
      <trkpt lat="42.98478" lon="0.22524">
        <ele>875.59997558594</ele>
        <time>2019-06-12T06:40:42.000Z</time>
      </trkpt>
      <trkpt lat="42.98488" lon="0.22522">
        <ele>875.59997558594</ele>
        <time>2019-06-12T06:40:56.000Z</time>
      </trkpt>
      <trkpt lat="42.98493" lon="0.22508">
        <ele>882.79998779297</ele>
        <time>2019-06-12T06:41:04.000Z</time>
      </trkpt>
      <trkpt lat="42.98499" lon="0.22498">
        <ele>887.59997558594</ele>
        <time>2019-06-12T06:41:10.000Z</time>
      </trkpt>
      <trkpt lat="42.98505" lon="0.22487">
        <ele>893.20001220703</ele>
        <time>2019-06-12T06:41:22.000Z</time>
      </trkpt>
      <trkpt lat="42.98513" lon="0.22479">
        <ele>897.40002441406</ele>
        <time>2019-06-12T06:41:54.000Z</time>
      </trkpt>
      <trkpt lat="42.98524" lon="0.22477">
        <ele>897.40002441406</ele>
        <time>2019-06-12T06:42:10.000Z</time>
      </trkpt>
      <trkpt lat="42.98535" lon="0.2247">
        <ele>896.40002441406</ele>
        <time>2019-06-12T06:42:22.000Z</time>
      </trkpt>
      <trkpt lat="42.98544" lon="0.22467">
        <ele>895</ele>
        <time>2019-06-12T06:42:52.000Z</time>
      </trkpt>
      <trkpt lat="42.98551" lon="0.22458">
        <ele>895.79998779297</ele>
        <time>2019-06-12T06:43:06.000Z</time>
      </trkpt>
      <trkpt lat="42.9856" lon="0.22463">
        <ele>892</ele>
        <time>2019-06-12T06:43:34.000Z</time>
      </trkpt>
      <trkpt lat="42.98562" lon="0.2245">
        <ele>895.40002441406</ele>
        <time>2019-06-12T06:43:50.000Z</time>
      </trkpt>
      <trkpt lat="42.98554" lon="0.22439">
        <ele>900.59997558594</ele>
        <time>2019-06-12T06:44:06.000Z</time>
      </trkpt>
      <trkpt lat="42.98544" lon="0.22433">
        <ele>905</ele>
        <time>2019-06-12T06:44:14.000Z</time>
      </trkpt>
      <trkpt lat="42.98544" lon="0.22421">
        <ele>908.79998779297</ele>
        <time>2019-06-12T06:44:40.000Z</time>
      </trkpt>
      <trkpt lat="42.98542" lon="0.22408">
        <ele>913</ele>
        <time>2019-06-12T06:44:56.000Z</time>
      </trkpt>
      <trkpt lat="42.98533" lon="0.22405">
        <ele>916.79998779297</ele>
        <time>2019-06-12T06:45:12.000Z</time>
      </trkpt>
      <trkpt lat="42.98523" lon="0.22409">
        <ele>918</ele>
        <time>2019-06-12T06:45:22.000Z</time>
      </trkpt>
      <trkpt lat="42.98515" lon="0.22416">
        <ele>918</ele>
        <time>2019-06-12T06:45:54.000Z</time>
      </trkpt>
      <trkpt lat="42.98505" lon="0.22414">
        <ele>920.40002441406</ele>
        <time>2019-06-12T06:46:12.000Z</time>
      </trkpt>
      <trkpt lat="42.98497" lon="0.22411">
        <ele>922</ele>
        <time>2019-06-12T06:46:24.000Z</time>
      </trkpt>
      <trkpt lat="42.98487" lon="0.22406">
        <ele>923.59997558594</ele>
        <time>2019-06-12T06:46:36.000Z</time>
      </trkpt>
      <trkpt lat="42.98476" lon="0.22404">
        <ele>925</ele>
        <time>2019-06-12T06:46:48.000Z</time>
      </trkpt>
      <trkpt lat="42.98465" lon="0.22405">
        <ele>925</ele>
        <time>2019-06-12T06:47:00.000Z</time>
      </trkpt>
      <trkpt lat="42.98456" lon="0.2241">
        <ele>924.20001220703</ele>
        <time>2019-06-12T06:47:08.000Z</time>
      </trkpt>
      <trkpt lat="42.98446" lon="0.22411">
        <ele>923.59997558594</ele>
        <time>2019-06-12T06:47:18.000Z</time>
      </trkpt>
      <trkpt lat="42.98436" lon="0.22411">
        <ele>923.40002441406</ele>
        <time>2019-06-12T06:47:36.000Z</time>
      </trkpt>
      <trkpt lat="42.98427" lon="0.22412">
        <ele>923</ele>
        <time>2019-06-12T06:47:48.000Z</time>
      </trkpt>
      <trkpt lat="42.98418" lon="0.22413">
        <ele>922.40002441406</ele>
        <time>2019-06-12T06:47:56.000Z</time>
      </trkpt>
      <trkpt lat="42.98408" lon="0.22411">
        <ele>923.20001220703</ele>
        <time>2019-06-12T06:48:10.000Z</time>
      </trkpt>
      <trkpt lat="42.98398" lon="0.22414">
        <ele>921.59997558594</ele>
        <time>2019-06-12T06:48:22.000Z</time>
      </trkpt>
      <trkpt lat="42.98388" lon="0.22417">
        <ele>920.20001220703</ele>
        <time>2019-06-12T06:48:32.000Z</time>
      </trkpt>
      <trkpt lat="42.98376" lon="0.22418">
        <ele>920.20001220703</ele>
        <time>2019-06-12T06:48:42.000Z</time>
      </trkpt>
      <trkpt lat="42.98367" lon="0.22418">
        <ele>920.79998779297</ele>
        <time>2019-06-12T06:49:00.000Z</time>
      </trkpt>
      <trkpt lat="42.98358" lon="0.22418">
        <ele>921.59997558594</ele>
        <time>2019-06-12T06:49:10.000Z</time>
      </trkpt>
      <trkpt lat="42.98349" lon="0.2242">
        <ele>921.40002441406</ele>
        <time>2019-06-12T06:49:20.000Z</time>
      </trkpt>
      <trkpt lat="42.98339" lon="0.22423">
        <ele>921.40002441406</ele>
        <time>2019-06-12T06:49:32.000Z</time>
      </trkpt>
      <trkpt lat="42.98329" lon="0.22425">
        <ele>921.20001220703</ele>
        <time>2019-06-12T06:49:42.000Z</time>
      </trkpt>
      <trkpt lat="42.98317" lon="0.22424">
        <ele>922.20001220703</ele>
        <time>2019-06-12T06:49:52.000Z</time>
      </trkpt>
      <trkpt lat="42.98307" lon="0.22423">
        <ele>922.79998779297</ele>
        <time>2019-06-12T06:50:04.000Z</time>
      </trkpt>
      <trkpt lat="42.98297" lon="0.22427">
        <ele>924.40002441406</ele>
        <time>2019-06-12T06:50:14.000Z</time>
      </trkpt>
      <trkpt lat="42.98288" lon="0.22428">
        <ele>926.79998779297</ele>
        <time>2019-06-12T06:50:24.000Z</time>
      </trkpt>
      <trkpt lat="42.98278" lon="0.22427">
        <ele>929.40002441406</ele>
        <time>2019-06-12T06:50:34.000Z</time>
      </trkpt>
      <trkpt lat="42.98269" lon="0.22433">
        <ele>931.40002441406</ele>
        <time>2019-06-12T06:50:46.000Z</time>
      </trkpt>
      <trkpt lat="42.98261" lon="0.22438">
        <ele>933.40002441406</ele>
        <time>2019-06-12T06:50:58.000Z</time>
      </trkpt>
      <trkpt lat="42.98251" lon="0.22442">
        <ele>934.79998779297</ele>
        <time>2019-06-12T06:51:16.000Z</time>
      </trkpt>
      <trkpt lat="42.98242" lon="0.22443">
        <ele>935.79998779297</ele>
        <time>2019-06-12T06:51:28.000Z</time>
      </trkpt>
      <trkpt lat="42.98233" lon="0.22444">
        <ele>936.40002441406</ele>
        <time>2019-06-12T06:51:40.000Z</time>
      </trkpt>
      <trkpt lat="42.98222" lon="0.22447">
        <ele>936.79998779297</ele>
        <time>2019-06-12T06:51:50.000Z</time>
      </trkpt>
      <trkpt lat="42.98206" lon="0.2245">
        <ele>937.40002441406</ele>
        <time>2019-06-12T06:51:56.000Z</time>
      </trkpt>
      <trkpt lat="42.98198" lon="0.22456">
        <ele>937.20001220703</ele>
        <time>2019-06-12T06:52:04.000Z</time>
      </trkpt>
      <trkpt lat="42.9819" lon="0.22449">
        <ele>938.40002441406</ele>
        <time>2019-06-12T06:52:20.000Z</time>
      </trkpt>
      <trkpt lat="42.98181" lon="0.22448">
        <ele>939</ele>
        <time>2019-06-12T06:52:34.000Z</time>
      </trkpt>
      <trkpt lat="42.98172" lon="0.22452">
        <ele>939.20001220703</ele>
        <time>2019-06-12T06:52:46.000Z</time>
      </trkpt>
      <trkpt lat="42.98156" lon="0.22461">
        <ele>939.59997558594</ele>
        <time>2019-06-12T06:52:52.000Z</time>
      </trkpt>
      <trkpt lat="42.98144" lon="0.22459">
        <ele>940.79998779297</ele>
        <time>2019-06-12T06:52:58.000Z</time>
      </trkpt>
      <trkpt lat="42.98135" lon="0.22453">
        <ele>942</ele>
        <time>2019-06-12T06:53:18.000Z</time>
      </trkpt>
      <trkpt lat="42.98126" lon="0.22454">
        <ele>942.59997558594</ele>
        <time>2019-06-12T06:53:32.000Z</time>
      </trkpt>
      <trkpt lat="42.98116" lon="0.22451">
        <ele>943.79998779297</ele>
        <time>2019-06-12T06:53:50.000Z</time>
      </trkpt>
      <trkpt lat="42.98107" lon="0.22456">
        <ele>944.20001220703</ele>
        <time>2019-06-12T06:54:02.000Z</time>
      </trkpt>
      <trkpt lat="42.98097" lon="0.22458">
        <ele>944.79998779297</ele>
        <time>2019-06-12T06:54:08.000Z</time>
      </trkpt>
      <trkpt lat="42.98088" lon="0.22458">
        <ele>945.59997558594</ele>
        <time>2019-06-12T06:54:16.000Z</time>
      </trkpt>
      <trkpt lat="42.98079" lon="0.22455">
        <ele>946.79998779297</ele>
        <time>2019-06-12T06:54:32.000Z</time>
      </trkpt>
      <trkpt lat="42.98067" lon="0.22458">
        <ele>948.79998779297</ele>
        <time>2019-06-12T06:54:40.000Z</time>
      </trkpt>
      <trkpt lat="42.98058" lon="0.22462">
        <ele>950.20001220703</ele>
        <time>2019-06-12T06:54:46.000Z</time>
      </trkpt>
      <trkpt lat="42.9805" lon="0.22468">
        <ele>948.79998779297</ele>
        <time>2019-06-12T06:54:52.000Z</time>
      </trkpt>
      <trkpt lat="42.9804" lon="0.22467">
        <ele>951</ele>
        <time>2019-06-12T06:55:04.000Z</time>
      </trkpt>
      <trkpt lat="42.98031" lon="0.2247">
        <ele>950.79998779297</ele>
        <time>2019-06-12T06:55:12.000Z</time>
      </trkpt>
      <trkpt lat="42.98021" lon="0.22475">
        <ele>950.59997558594</ele>
        <time>2019-06-12T06:55:24.000Z</time>
      </trkpt>
      <trkpt lat="42.98012" lon="0.22479">
        <ele>950.40002441406</ele>
        <time>2019-06-12T06:55:36.000Z</time>
      </trkpt>
      <trkpt lat="42.98003" lon="0.22484">
        <ele>949.20001220703</ele>
        <time>2019-06-12T06:55:50.000Z</time>
      </trkpt>
      <trkpt lat="42.97993" lon="0.22484">
        <ele>949.79998779297</ele>
        <time>2019-06-12T06:56:02.000Z</time>
      </trkpt>
      <trkpt lat="42.97983" lon="0.22482">
        <ele>951</ele>
        <time>2019-06-12T06:56:14.000Z</time>
      </trkpt>
      <trkpt lat="42.97973" lon="0.22485">
        <ele>950.20001220703</ele>
        <time>2019-06-12T06:56:26.000Z</time>
      </trkpt>
      <trkpt lat="42.9796" lon="0.22483">
        <ele>951.59997558594</ele>
        <time>2019-06-12T06:56:36.000Z</time>
      </trkpt>
      <trkpt lat="42.97951" lon="0.22482">
        <ele>952</ele>
        <time>2019-06-12T06:56:50.000Z</time>
      </trkpt>
      <trkpt lat="42.97943" lon="0.22489">
        <ele>950</ele>
        <time>2019-06-12T06:57:00.000Z</time>
      </trkpt>
      <trkpt lat="42.97934" lon="0.22485">
        <ele>952</ele>
        <time>2019-06-12T06:57:08.000Z</time>
      </trkpt>
      <trkpt lat="42.97924" lon="0.22483">
        <ele>953.59997558594</ele>
        <time>2019-06-12T06:57:16.000Z</time>
      </trkpt>
      <trkpt lat="42.97915" lon="0.22484">
        <ele>954.79998779297</ele>
        <time>2019-06-12T06:57:28.000Z</time>
      </trkpt>
      <trkpt lat="42.97923" lon="0.2249">
        <ele>951.20001220703</ele>
        <time>2019-06-12T06:58:02.000Z</time>
      </trkpt>
      <trkpt lat="42.97914" lon="0.22494">
        <ele>951.40002441406</ele>
        <time>2019-06-12T06:58:46.000Z</time>
      </trkpt>
      <trkpt lat="42.97906" lon="0.22501">
        <ele>950.20001220703</ele>
        <time>2019-06-12T06:58:54.000Z</time>
      </trkpt>
      <trkpt lat="42.97897" lon="0.22504">
        <ele>950.59997558594</ele>
        <time>2019-06-12T06:59:06.000Z</time>
      </trkpt>
      <trkpt lat="42.97888" lon="0.22509">
        <ele>950.20001220703</ele>
        <time>2019-06-12T06:59:14.000Z</time>
      </trkpt>
      <trkpt lat="42.97878" lon="0.22517">
        <ele>950</ele>
        <time>2019-06-12T06:59:24.000Z</time>
      </trkpt>
      <trkpt lat="42.9787" lon="0.22523">
        <ele>950</ele>
        <time>2019-06-12T06:59:30.000Z</time>
      </trkpt>
      <trkpt lat="42.97862" lon="0.22528">
        <ele>950.40002441406</ele>
        <time>2019-06-12T06:59:36.000Z</time>
      </trkpt>
      <trkpt lat="42.97853" lon="0.22536">
        <ele>950.20001220703</ele>
        <time>2019-06-12T06:59:44.000Z</time>
      </trkpt>
      <trkpt lat="42.97846" lon="0.22544">
        <ele>949.20001220703</ele>
        <time>2019-06-12T06:59:50.000Z</time>
      </trkpt>
      <trkpt lat="42.97837" lon="0.22542">
        <ele>952.40002441406</ele>
        <time>2019-06-12T06:59:58.000Z</time>
      </trkpt>
      <trkpt lat="42.97827" lon="0.22554">
        <ele>949.40002441406</ele>
        <time>2019-06-12T07:00:06.000Z</time>
      </trkpt>
      <trkpt lat="42.97836" lon="0.22548">
        <ele>950.20001220703</ele>
        <time>2019-06-12T07:00:20.000Z</time>
      </trkpt>
      <trkpt lat="42.97824" lon="0.22563">
        <ele>946.20001220703</ele>
        <time>2019-06-12T07:00:26.000Z</time>
      </trkpt>
      <trkpt lat="42.97813" lon="0.22569">
        <ele>946.20001220703</ele>
        <time>2019-06-12T07:00:32.000Z</time>
      </trkpt>
      <trkpt lat="42.97803" lon="0.22565">
        <ele>949.79998779297</ele>
        <time>2019-06-12T07:00:48.000Z</time>
      </trkpt>
      <trkpt lat="42.9781" lon="0.22555">
        <ele>952.79998779297</ele>
        <time>2019-06-12T07:01:00.000Z</time>
      </trkpt>
      <trkpt lat="42.97816" lon="0.22542">
        <ele>957</ele>
        <time>2019-06-12T07:01:08.000Z</time>
      </trkpt>
      <trkpt lat="42.97824" lon="0.2253">
        <ele>959.40002441406</ele>
        <time>2019-06-12T07:01:18.000Z</time>
      </trkpt>
      <trkpt lat="42.9783" lon="0.2252">
        <ele>960.59997558594</ele>
        <time>2019-06-12T07:01:28.000Z</time>
      </trkpt>
      <trkpt lat="42.97838" lon="0.22511">
        <ele>961.20001220703</ele>
        <time>2019-06-12T07:01:50.000Z</time>
      </trkpt>
      <trkpt lat="42.97848" lon="0.22506">
        <ele>960.40002441406</ele>
        <time>2019-06-12T07:02:00.000Z</time>
      </trkpt>
      <trkpt lat="42.97856" lon="0.2251">
        <ele>957</ele>
        <time>2019-06-12T07:02:34.000Z</time>
      </trkpt>
      <trkpt lat="42.97847" lon="0.2251">
        <ele>959.40002441406</ele>
        <time>2019-06-12T07:02:44.000Z</time>
      </trkpt>
      <trkpt lat="42.97843" lon="0.22498">
        <ele>963.79998779297</ele>
        <time>2019-06-12T07:03:06.000Z</time>
      </trkpt>
      <trkpt lat="42.97836" lon="0.22489">
        <ele>968.59997558594</ele>
        <time>2019-06-12T07:03:38.000Z</time>
      </trkpt>
      <trkpt lat="42.97834" lon="0.22475">
        <ele>973.20001220703</ele>
        <time>2019-06-12T07:03:50.000Z</time>
      </trkpt>
      <trkpt lat="42.97824" lon="0.22468">
        <ele>978.20001220703</ele>
        <time>2019-06-12T07:03:58.000Z</time>
      </trkpt>
      <trkpt lat="42.97816" lon="0.22462">
        <ele>982.20001220703</ele>
        <time>2019-06-12T07:04:12.000Z</time>
      </trkpt>
      <trkpt lat="42.97807" lon="0.22455">
        <ele>984.40002441406</ele>
        <time>2019-06-12T07:04:22.000Z</time>
      </trkpt>
      <trkpt lat="42.97806" lon="0.22443">
        <ele>983.40002441406</ele>
        <time>2019-06-12T07:04:38.000Z</time>
      </trkpt>
      <trkpt lat="42.97794" lon="0.22445">
        <ele>987</ele>
        <time>2019-06-12T07:04:48.000Z</time>
      </trkpt>
      <trkpt lat="42.97784" lon="0.22446">
        <ele>990</ele>
        <time>2019-06-12T07:05:06.000Z</time>
      </trkpt>
      <trkpt lat="42.97775" lon="0.22447">
        <ele>992.59997558594</ele>
        <time>2019-06-12T07:05:12.000Z</time>
      </trkpt>
      <trkpt lat="42.97771" lon="0.22435">
        <ele>992.59997558594</ele>
        <time>2019-06-12T07:05:18.000Z</time>
      </trkpt>
      <trkpt lat="42.97761" lon="0.22433">
        <ele>995.40002441406</ele>
        <time>2019-06-12T07:05:24.000Z</time>
      </trkpt>
      <trkpt lat="42.9775" lon="0.22434">
        <ele>999.20001220703</ele>
        <time>2019-06-12T07:05:42.000Z</time>
      </trkpt>
      <trkpt lat="42.9774" lon="0.22433">
        <ele>1003</ele>
        <time>2019-06-12T07:05:48.000Z</time>
      </trkpt>
      <trkpt lat="42.97733" lon="0.22442">
        <ele>1006.5999755859</ele>
        <time>2019-06-12T07:06:04.000Z</time>
      </trkpt>
      <trkpt lat="42.97723" lon="0.22434">
        <ele>1009.5999755859</ele>
        <time>2019-06-12T07:06:10.000Z</time>
      </trkpt>
      <trkpt lat="42.97717" lon="0.22424">
        <ele>1011</ele>
        <time>2019-06-12T07:06:20.000Z</time>
      </trkpt>
      <trkpt lat="42.97719" lon="0.22411">
        <ele>1009.200012207</ele>
        <time>2019-06-12T07:06:32.000Z</time>
      </trkpt>
      <trkpt lat="42.97711" lon="0.22402">
        <ele>1011.4000244141</ele>
        <time>2019-06-12T07:06:44.000Z</time>
      </trkpt>
      <trkpt lat="42.9772" lon="0.22396">
        <ele>1007.200012207</ele>
        <time>2019-06-12T07:08:06.000Z</time>
      </trkpt>
      <trkpt lat="42.97709" lon="0.22403">
        <ele>1012</ele>
        <time>2019-06-12T07:08:30.000Z</time>
      </trkpt>
      <trkpt lat="42.97717" lon="0.22396">
        <ele>1008.5999755859</ele>
        <time>2019-06-12T07:09:16.000Z</time>
      </trkpt>
      <trkpt lat="42.97708" lon="0.22398">
        <ele>1012.200012207</ele>
        <time>2019-06-12T07:09:32.000Z</time>
      </trkpt>
      <trkpt lat="42.97701" lon="0.22387">
        <ele>1013.5999755859</ele>
        <time>2019-06-12T07:09:48.000Z</time>
      </trkpt>
      <trkpt lat="42.97691" lon="0.22385">
        <ele>1017.4000244141</ele>
        <time>2019-06-12T07:09:54.000Z</time>
      </trkpt>
      <trkpt lat="42.97681" lon="0.22386">
        <ele>1021.200012207</ele>
        <time>2019-06-12T07:10:14.000Z</time>
      </trkpt>
      <trkpt lat="42.97672" lon="0.22386">
        <ele>1025.1999511719</ele>
        <time>2019-06-12T07:10:30.000Z</time>
      </trkpt>
      <trkpt lat="42.97662" lon="0.22387">
        <ele>1030</ele>
        <time>2019-06-12T07:10:46.000Z</time>
      </trkpt>
      <trkpt lat="42.97654" lon="0.2238">
        <ele>1032.5999755859</ele>
        <time>2019-06-12T07:11:06.000Z</time>
      </trkpt>
      <trkpt lat="42.97645" lon="0.2238">
        <ele>1037</ele>
        <time>2019-06-12T07:11:28.000Z</time>
      </trkpt>
      <trkpt lat="42.97634" lon="0.22378">
        <ele>1041.8000488281</ele>
        <time>2019-06-12T07:11:40.000Z</time>
      </trkpt>
      <trkpt lat="42.97623" lon="0.22379">
        <ele>1047</ele>
        <time>2019-06-12T07:11:48.000Z</time>
      </trkpt>
      <trkpt lat="42.97618" lon="0.22367">
        <ele>1047</ele>
        <time>2019-06-12T07:12:10.000Z</time>
      </trkpt>
      <trkpt lat="42.97611" lon="0.22358">
        <ele>1048.4000244141</ele>
        <time>2019-06-12T07:12:28.000Z</time>
      </trkpt>
      <trkpt lat="42.97601" lon="0.22359">
        <ele>1052.8000488281</ele>
        <time>2019-06-12T07:12:34.000Z</time>
      </trkpt>
      <trkpt lat="42.97592" lon="0.22362">
        <ele>1058</ele>
        <time>2019-06-12T07:13:06.000Z</time>
      </trkpt>
      <trkpt lat="42.97579" lon="0.2236">
        <ele>1062.4000244141</ele>
        <time>2019-06-12T07:13:18.000Z</time>
      </trkpt>
      <trkpt lat="42.97569" lon="0.22359">
        <ele>1066.4000244141</ele>
        <time>2019-06-12T07:13:56.000Z</time>
      </trkpt>
      <trkpt lat="42.9756" lon="0.22363">
        <ele>1071.8000488281</ele>
        <time>2019-06-12T07:14:02.000Z</time>
      </trkpt>
      <trkpt lat="42.97552" lon="0.22358">
        <ele>1074.1999511719</ele>
        <time>2019-06-12T07:14:14.000Z</time>
      </trkpt>
      <trkpt lat="42.97541" lon="0.22356">
        <ele>1078.8000488281</ele>
        <time>2019-06-12T07:14:32.000Z</time>
      </trkpt>
      <trkpt lat="42.97531" lon="0.22355">
        <ele>1083.1999511719</ele>
        <time>2019-06-12T07:15:00.000Z</time>
      </trkpt>
      <trkpt lat="42.97521" lon="0.22355">
        <ele>1088</ele>
        <time>2019-06-12T07:15:06.000Z</time>
      </trkpt>
      <trkpt lat="42.97513" lon="0.22348">
        <ele>1089.5999755859</ele>
        <time>2019-06-12T07:15:24.000Z</time>
      </trkpt>
      <trkpt lat="42.97504" lon="0.22353">
        <ele>1094.5999755859</ele>
        <time>2019-06-12T07:15:40.000Z</time>
      </trkpt>
      <trkpt lat="42.97495" lon="0.22349">
        <ele>1096.4000244141</ele>
        <time>2019-06-12T07:15:58.000Z</time>
      </trkpt>
      <trkpt lat="42.97487" lon="0.22355">
        <ele>1100.8000488281</ele>
        <time>2019-06-12T07:16:06.000Z</time>
      </trkpt>
      <trkpt lat="42.97477" lon="0.22354">
        <ele>1103.1999511719</ele>
        <time>2019-06-12T07:16:32.000Z</time>
      </trkpt>
      <trkpt lat="42.97467" lon="0.22354">
        <ele>1105.5999755859</ele>
        <time>2019-06-12T07:16:56.000Z</time>
      </trkpt>
      <trkpt lat="42.97456" lon="0.22356">
        <ele>1108.1999511719</ele>
        <time>2019-06-12T07:17:12.000Z</time>
      </trkpt>
      <trkpt lat="42.97447" lon="0.22356">
        <ele>1110.5999755859</ele>
        <time>2019-06-12T07:17:26.000Z</time>
      </trkpt>
      <trkpt lat="42.97437" lon="0.22356">
        <ele>1112.5999755859</ele>
        <time>2019-06-12T07:17:46.000Z</time>
      </trkpt>
      <trkpt lat="42.97428" lon="0.22355">
        <ele>1114.5999755859</ele>
        <time>2019-06-12T07:18:08.000Z</time>
      </trkpt>
      <trkpt lat="42.97418" lon="0.22356">
        <ele>1117.5999755859</ele>
        <time>2019-06-12T07:18:20.000Z</time>
      </trkpt>
      <trkpt lat="42.97408" lon="0.2235">
        <ele>1119.4000244141</ele>
        <time>2019-06-12T07:18:44.000Z</time>
      </trkpt>
      <trkpt lat="42.97399" lon="0.22357">
        <ele>1123.5999755859</ele>
        <time>2019-06-12T07:18:54.000Z</time>
      </trkpt>
      <trkpt lat="42.97389" lon="0.22359">
        <ele>1126.5999755859</ele>
        <time>2019-06-12T07:19:12.000Z</time>
      </trkpt>
      <trkpt lat="42.97382" lon="0.22348">
        <ele>1126.4000244141</ele>
        <time>2019-06-12T07:19:28.000Z</time>
      </trkpt>
      <trkpt lat="42.97373" lon="0.22344">
        <ele>1128</ele>
        <time>2019-06-12T07:19:40.000Z</time>
      </trkpt>
      <trkpt lat="42.97364" lon="0.22338">
        <ele>1129.4000244141</ele>
        <time>2019-06-12T07:19:58.000Z</time>
      </trkpt>
      <trkpt lat="42.97355" lon="0.22336">
        <ele>1131.5999755859</ele>
        <time>2019-06-12T07:20:12.000Z</time>
      </trkpt>
      <trkpt lat="42.97345" lon="0.22341">
        <ele>1135.1999511719</ele>
        <time>2019-06-12T07:20:24.000Z</time>
      </trkpt>
      <trkpt lat="42.97337" lon="0.22333">
        <ele>1136.4000244141</ele>
        <time>2019-06-12T07:20:38.000Z</time>
      </trkpt>
      <trkpt lat="42.97326" lon="0.22332">
        <ele>1140.1999511719</ele>
        <time>2019-06-12T07:21:02.000Z</time>
      </trkpt>
      <trkpt lat="42.97318" lon="0.22327">
        <ele>1142.8000488281</ele>
        <time>2019-06-12T07:21:16.000Z</time>
      </trkpt>
      <trkpt lat="42.97309" lon="0.22326">
        <ele>1146</ele>
        <time>2019-06-12T07:21:30.000Z</time>
      </trkpt>
      <trkpt lat="42.97302" lon="0.22317">
        <ele>1146.5999755859</ele>
        <time>2019-06-12T07:21:44.000Z</time>
      </trkpt>
      <trkpt lat="42.97293" lon="0.2232">
        <ele>1151</ele>
        <time>2019-06-12T07:22:00.000Z</time>
      </trkpt>
      <trkpt lat="42.97286" lon="0.22312">
        <ele>1152.4000244141</ele>
        <time>2019-06-12T07:22:20.000Z</time>
      </trkpt>
      <trkpt lat="42.97277" lon="0.22314">
        <ele>1156.4000244141</ele>
        <time>2019-06-12T07:22:32.000Z</time>
      </trkpt>
      <trkpt lat="42.97268" lon="0.22314">
        <ele>1159.5999755859</ele>
        <time>2019-06-12T07:22:44.000Z</time>
      </trkpt>
      <trkpt lat="42.97259" lon="0.22308">
        <ele>1161.5999755859</ele>
        <time>2019-06-12T07:23:00.000Z</time>
      </trkpt>
      <trkpt lat="42.97251" lon="0.22302">
        <ele>1163.8000488281</ele>
        <time>2019-06-12T07:23:20.000Z</time>
      </trkpt>
      <trkpt lat="42.97242" lon="0.22306">
        <ele>1168.4000244141</ele>
        <time>2019-06-12T07:23:40.000Z</time>
      </trkpt>
      <trkpt lat="42.97233" lon="0.22301">
        <ele>1171.8000488281</ele>
        <time>2019-06-12T07:23:58.000Z</time>
      </trkpt>
      <trkpt lat="42.97223" lon="0.22297">
        <ele>1175.4000244141</ele>
        <time>2019-06-12T07:24:16.000Z</time>
      </trkpt>
      <trkpt lat="42.97214" lon="0.22295">
        <ele>1179.1999511719</ele>
        <time>2019-06-12T07:24:32.000Z</time>
      </trkpt>
      <trkpt lat="42.97205" lon="0.2229">
        <ele>1181.8000488281</ele>
        <time>2019-06-12T07:24:52.000Z</time>
      </trkpt>
      <trkpt lat="42.97204" lon="0.22304">
        <ele>1184.8000488281</ele>
        <time>2019-06-12T07:25:10.000Z</time>
      </trkpt>
      <trkpt lat="42.97209" lon="0.22315">
        <ele>1184.4000244141</ele>
        <time>2019-06-12T07:25:28.000Z</time>
      </trkpt>
      <trkpt lat="42.97214" lon="0.22325">
        <ele>1183.8000488281</ele>
        <time>2019-06-12T07:25:42.000Z</time>
      </trkpt>
      <trkpt lat="42.97213" lon="0.22337">
        <ele>1186.5999755859</ele>
        <time>2019-06-12T07:25:54.000Z</time>
      </trkpt>
      <trkpt lat="42.97201" lon="0.22342">
        <ele>1191.8000488281</ele>
        <time>2019-06-12T07:26:06.000Z</time>
      </trkpt>
      <trkpt lat="42.97211" lon="0.22341">
        <ele>1187.5999755859</ele>
        <time>2019-06-12T07:27:32.000Z</time>
      </trkpt>
      <trkpt lat="42.97204" lon="0.22349">
        <ele>1191.8000488281</ele>
        <time>2019-06-12T07:30:42.000Z</time>
      </trkpt>
      <trkpt lat="42.97194" lon="0.2235">
        <ele>1195.8000488281</ele>
        <time>2019-06-12T07:30:56.000Z</time>
      </trkpt>
      <trkpt lat="42.97184" lon="0.22352">
        <ele>1200.1999511719</ele>
        <time>2019-06-12T07:31:10.000Z</time>
      </trkpt>
      <trkpt lat="42.97174" lon="0.22353">
        <ele>1204.1999511719</ele>
        <time>2019-06-12T07:31:22.000Z</time>
      </trkpt>
      <trkpt lat="42.97166" lon="0.22361">
        <ele>1208.1999511719</ele>
        <time>2019-06-12T07:31:40.000Z</time>
      </trkpt>
      <trkpt lat="42.97156" lon="0.22358">
        <ele>1211</ele>
        <time>2019-06-12T07:31:50.000Z</time>
      </trkpt>
      <trkpt lat="42.9715" lon="0.22349">
        <ele>1211.8000488281</ele>
        <time>2019-06-12T07:32:10.000Z</time>
      </trkpt>
      <trkpt lat="42.97146" lon="0.22337">
        <ele>1211.1999511719</ele>
        <time>2019-06-12T07:32:28.000Z</time>
      </trkpt>
      <trkpt lat="42.97144" lon="0.22324">
        <ele>1210</ele>
        <time>2019-06-12T07:32:36.000Z</time>
      </trkpt>
      <trkpt lat="42.97135" lon="0.2232">
        <ele>1212.4000244141</ele>
        <time>2019-06-12T07:32:56.000Z</time>
      </trkpt>
      <trkpt lat="42.97126" lon="0.22322">
        <ele>1215.4000244141</ele>
        <time>2019-06-12T07:33:06.000Z</time>
      </trkpt>
      <trkpt lat="42.97117" lon="0.22319">
        <ele>1218</ele>
        <time>2019-06-12T07:33:24.000Z</time>
      </trkpt>
      <trkpt lat="42.97108" lon="0.22315">
        <ele>1220.4000244141</ele>
        <time>2019-06-12T07:33:38.000Z</time>
      </trkpt>
      <trkpt lat="42.97099" lon="0.22316">
        <ele>1223.4000244141</ele>
        <time>2019-06-12T07:33:48.000Z</time>
      </trkpt>
      <trkpt lat="42.97088" lon="0.22316">
        <ele>1226.1999511719</ele>
        <time>2019-06-12T07:34:00.000Z</time>
      </trkpt>
      <trkpt lat="42.97079" lon="0.22319">
        <ele>1228.1999511719</ele>
        <time>2019-06-12T07:34:14.000Z</time>
      </trkpt>
      <trkpt lat="42.97071" lon="0.22323">
        <ele>1230.4000244141</ele>
        <time>2019-06-12T07:34:36.000Z</time>
      </trkpt>
      <trkpt lat="42.97062" lon="0.22327">
        <ele>1232.4000244141</ele>
        <time>2019-06-12T07:34:48.000Z</time>
      </trkpt>
      <trkpt lat="42.97053" lon="0.22329">
        <ele>1234.4000244141</ele>
        <time>2019-06-12T07:35:02.000Z</time>
      </trkpt>
      <trkpt lat="42.97043" lon="0.22328">
        <ele>1236</ele>
        <time>2019-06-12T07:35:18.000Z</time>
      </trkpt>
      <trkpt lat="42.97032" lon="0.22332">
        <ele>1237</ele>
        <time>2019-06-12T07:35:34.000Z</time>
      </trkpt>
      <trkpt lat="42.97023" lon="0.22336">
        <ele>1237.5999755859</ele>
        <time>2019-06-12T07:35:48.000Z</time>
      </trkpt>
      <trkpt lat="42.97012" lon="0.22339">
        <ele>1238.1999511719</ele>
        <time>2019-06-12T07:36:04.000Z</time>
      </trkpt>
      <trkpt lat="42.97003" lon="0.22342">
        <ele>1239.8000488281</ele>
        <time>2019-06-12T07:36:16.000Z</time>
      </trkpt>
      <trkpt lat="42.96994" lon="0.22347">
        <ele>1242.1999511719</ele>
        <time>2019-06-12T07:36:30.000Z</time>
      </trkpt>
      <trkpt lat="42.96985" lon="0.22352">
        <ele>1244.4000244141</ele>
        <time>2019-06-12T07:36:44.000Z</time>
      </trkpt>
      <trkpt lat="42.96976" lon="0.22352">
        <ele>1246.5999755859</ele>
        <time>2019-06-12T07:36:58.000Z</time>
      </trkpt>
      <trkpt lat="42.96967" lon="0.22349">
        <ele>1248.8000488281</ele>
        <time>2019-06-12T07:37:14.000Z</time>
      </trkpt>
      <trkpt lat="42.96958" lon="0.22346">
        <ele>1251</ele>
        <time>2019-06-12T07:37:34.000Z</time>
      </trkpt>
      <trkpt lat="42.96948" lon="0.22344">
        <ele>1253.4000244141</ele>
        <time>2019-06-12T07:37:50.000Z</time>
      </trkpt>
      <trkpt lat="42.96937" lon="0.22344">
        <ele>1255.8000488281</ele>
        <time>2019-06-12T07:38:06.000Z</time>
      </trkpt>
      <trkpt lat="42.96929" lon="0.22339">
        <ele>1258</ele>
        <time>2019-06-12T07:38:22.000Z</time>
      </trkpt>
      <trkpt lat="42.9692" lon="0.22335">
        <ele>1260.5999755859</ele>
        <time>2019-06-12T07:38:36.000Z</time>
      </trkpt>
      <trkpt lat="42.96911" lon="0.22329">
        <ele>1263.5999755859</ele>
        <time>2019-06-12T07:38:46.000Z</time>
      </trkpt>
      <trkpt lat="42.96902" lon="0.22327">
        <ele>1266.8000488281</ele>
        <time>2019-06-12T07:39:00.000Z</time>
      </trkpt>
      <trkpt lat="42.96892" lon="0.22328">
        <ele>1270.4000244141</ele>
        <time>2019-06-12T07:39:30.000Z</time>
      </trkpt>
      <trkpt lat="42.96878" lon="0.22324">
        <ele>1275</ele>
        <time>2019-06-12T07:39:36.000Z</time>
      </trkpt>
      <trkpt lat="42.96869" lon="0.2232">
        <ele>1278.1999511719</ele>
        <time>2019-06-12T07:39:52.000Z</time>
      </trkpt>
      <trkpt lat="42.9686" lon="0.2233">
        <ele>1280.5999755859</ele>
        <time>2019-06-12T07:40:10.000Z</time>
      </trkpt>
      <trkpt lat="42.96851" lon="0.22322">
        <ele>1283.8000488281</ele>
        <time>2019-06-12T07:40:32.000Z</time>
      </trkpt>
      <trkpt lat="42.96841" lon="0.2232">
        <ele>1286.8000488281</ele>
        <time>2019-06-12T07:40:38.000Z</time>
      </trkpt>
      <trkpt lat="42.96833" lon="0.22312">
        <ele>1289</ele>
        <time>2019-06-12T07:40:52.000Z</time>
      </trkpt>
      <trkpt lat="42.96828" lon="0.22323">
        <ele>1289.8000488281</ele>
        <time>2019-06-12T07:41:04.000Z</time>
      </trkpt>
      <trkpt lat="42.96819" lon="0.22319">
        <ele>1292</ele>
        <time>2019-06-12T07:41:16.000Z</time>
      </trkpt>
      <trkpt lat="42.96809" lon="0.22314">
        <ele>1294.4000244141</ele>
        <time>2019-06-12T07:41:34.000Z</time>
      </trkpt>
      <trkpt lat="42.968" lon="0.22311">
        <ele>1296.8000488281</ele>
        <time>2019-06-12T07:41:44.000Z</time>
      </trkpt>
      <trkpt lat="42.96791" lon="0.22308">
        <ele>1298.8000488281</ele>
        <time>2019-06-12T07:41:54.000Z</time>
      </trkpt>
      <trkpt lat="42.9678" lon="0.22303">
        <ele>1301.5999755859</ele>
        <time>2019-06-12T07:42:14.000Z</time>
      </trkpt>
      <trkpt lat="42.9677" lon="0.22302">
        <ele>1303.8000488281</ele>
        <time>2019-06-12T07:42:30.000Z</time>
      </trkpt>
      <trkpt lat="42.96779" lon="0.22302">
        <ele>1301.8000488281</ele>
        <time>2019-06-12T07:42:38.000Z</time>
      </trkpt>
      <trkpt lat="42.9677" lon="0.22296">
        <ele>1304.1999511719</ele>
        <time>2019-06-12T07:42:54.000Z</time>
      </trkpt>
      <trkpt lat="42.96759" lon="0.22297">
        <ele>1306.4000244141</ele>
        <time>2019-06-12T07:43:00.000Z</time>
      </trkpt>
      <trkpt lat="42.96751" lon="0.22289">
        <ele>1308.4000244141</ele>
        <time>2019-06-12T07:43:16.000Z</time>
      </trkpt>
      <trkpt lat="42.96743" lon="0.22286">
        <ele>1310.5999755859</ele>
        <time>2019-06-12T07:43:38.000Z</time>
      </trkpt>
      <trkpt lat="42.96733" lon="0.22281">
        <ele>1312.8000488281</ele>
        <time>2019-06-12T07:43:50.000Z</time>
      </trkpt>
      <trkpt lat="42.96724" lon="0.22277">
        <ele>1315</ele>
        <time>2019-06-12T07:44:14.000Z</time>
      </trkpt>
      <trkpt lat="42.96714" lon="0.22285">
        <ele>1318.1999511719</ele>
        <time>2019-06-12T07:44:28.000Z</time>
      </trkpt>
      <trkpt lat="42.96705" lon="0.22288">
        <ele>1320.5999755859</ele>
        <time>2019-06-12T07:44:34.000Z</time>
      </trkpt>
      <trkpt lat="42.96712" lon="0.22279">
        <ele>1318.4000244141</ele>
        <time>2019-06-12T07:44:40.000Z</time>
      </trkpt>
      <trkpt lat="42.96704" lon="0.22273">
        <ele>1320.1999511719</ele>
        <time>2019-06-12T07:44:50.000Z</time>
      </trkpt>
      <trkpt lat="42.96696" lon="0.22266">
        <ele>1321.8000488281</ele>
        <time>2019-06-12T07:45:08.000Z</time>
      </trkpt>
      <trkpt lat="42.96686" lon="0.22265">
        <ele>1324.5999755859</ele>
        <time>2019-06-12T07:45:18.000Z</time>
      </trkpt>
      <trkpt lat="42.96677" lon="0.2226">
        <ele>1326.8000488281</ele>
        <time>2019-06-12T07:45:32.000Z</time>
      </trkpt>
      <trkpt lat="42.96668" lon="0.22254">
        <ele>1328.5999755859</ele>
        <time>2019-06-12T07:45:50.000Z</time>
      </trkpt>
      <trkpt lat="42.9666" lon="0.22249">
        <ele>1330.8000488281</ele>
        <time>2019-06-12T07:46:06.000Z</time>
      </trkpt>
      <trkpt lat="42.96651" lon="0.22246">
        <ele>1333.1999511719</ele>
        <time>2019-06-12T07:46:24.000Z</time>
      </trkpt>
      <trkpt lat="42.96642" lon="0.22242">
        <ele>1335.4000244141</ele>
        <time>2019-06-12T07:46:38.000Z</time>
      </trkpt>
      <trkpt lat="42.96633" lon="0.22237">
        <ele>1337.5999755859</ele>
        <time>2019-06-12T07:46:54.000Z</time>
      </trkpt>
      <trkpt lat="42.96623" lon="0.22237">
        <ele>1340.1999511719</ele>
        <time>2019-06-12T07:47:10.000Z</time>
      </trkpt>
      <trkpt lat="42.96614" lon="0.22237">
        <ele>1342.5999755859</ele>
        <time>2019-06-12T07:47:24.000Z</time>
      </trkpt>
      <trkpt lat="42.96604" lon="0.22239">
        <ele>1343.8000488281</ele>
        <time>2019-06-12T07:47:40.000Z</time>
      </trkpt>
      <trkpt lat="42.96595" lon="0.22239">
        <ele>1345</ele>
        <time>2019-06-12T07:47:52.000Z</time>
      </trkpt>
      <trkpt lat="42.96585" lon="0.22236">
        <ele>1347.1999511719</ele>
        <time>2019-06-12T07:48:16.000Z</time>
      </trkpt>
      <trkpt lat="42.96576" lon="0.22236">
        <ele>1349.5999755859</ele>
        <time>2019-06-12T07:48:34.000Z</time>
      </trkpt>
      <trkpt lat="42.96566" lon="0.22231">
        <ele>1352.5999755859</ele>
        <time>2019-06-12T07:48:40.000Z</time>
      </trkpt>
      <trkpt lat="42.96556" lon="0.22231">
        <ele>1355</ele>
        <time>2019-06-12T07:49:02.000Z</time>
      </trkpt>
      <trkpt lat="42.96546" lon="0.22232">
        <ele>1357.4000244141</ele>
        <time>2019-06-12T07:49:16.000Z</time>
      </trkpt>
      <trkpt lat="42.96539" lon="0.22223">
        <ele>1360</ele>
        <time>2019-06-12T07:49:24.000Z</time>
      </trkpt>
      <trkpt lat="42.9653" lon="0.2222">
        <ele>1362.5999755859</ele>
        <time>2019-06-12T07:49:42.000Z</time>
      </trkpt>
      <trkpt lat="42.96521" lon="0.22226">
        <ele>1364.4000244141</ele>
        <time>2019-06-12T07:50:06.000Z</time>
      </trkpt>
      <trkpt lat="42.9651" lon="0.22226">
        <ele>1367.1999511719</ele>
        <time>2019-06-12T07:50:18.000Z</time>
      </trkpt>
      <trkpt lat="42.965" lon="0.22221">
        <ele>1371</ele>
        <time>2019-06-12T07:50:28.000Z</time>
      </trkpt>
      <trkpt lat="42.96491" lon="0.22218">
        <ele>1374.1999511719</ele>
        <time>2019-06-12T07:50:54.000Z</time>
      </trkpt>
      <trkpt lat="42.96481" lon="0.22218">
        <ele>1377.5999755859</ele>
        <time>2019-06-12T07:51:02.000Z</time>
      </trkpt>
      <trkpt lat="42.96474" lon="0.22212">
        <ele>1380.8000488281</ele>
        <time>2019-06-12T07:51:14.000Z</time>
      </trkpt>
      <trkpt lat="42.96464" lon="0.22209">
        <ele>1383.8000488281</ele>
        <time>2019-06-12T07:51:36.000Z</time>
      </trkpt>
      <trkpt lat="42.96455" lon="0.22207">
        <ele>1386.5999755859</ele>
        <time>2019-06-12T07:51:50.000Z</time>
      </trkpt>
      <trkpt lat="42.96446" lon="0.22198">
        <ele>1388.1999511719</ele>
        <time>2019-06-12T07:52:06.000Z</time>
      </trkpt>
      <trkpt lat="42.96436" lon="0.22193">
        <ele>1390.5999755859</ele>
        <time>2019-06-12T07:52:20.000Z</time>
      </trkpt>
      <trkpt lat="42.96429" lon="0.22187">
        <ele>1392.1999511719</ele>
        <time>2019-06-12T07:52:36.000Z</time>
      </trkpt>
      <trkpt lat="42.9642" lon="0.22178">
        <ele>1393.5999755859</ele>
        <time>2019-06-12T07:52:52.000Z</time>
      </trkpt>
      <trkpt lat="42.96412" lon="0.22171">
        <ele>1395.4000244141</ele>
        <time>2019-06-12T07:53:10.000Z</time>
      </trkpt>
      <trkpt lat="42.96402" lon="0.22168">
        <ele>1398.4000244141</ele>
        <time>2019-06-12T07:53:30.000Z</time>
      </trkpt>
      <trkpt lat="42.96395" lon="0.22177">
        <ele>1402.1999511719</ele>
        <time>2019-06-12T07:53:56.000Z</time>
      </trkpt>
      <trkpt lat="42.9639" lon="0.22187">
        <ele>1403.4000244141</ele>
        <time>2019-06-12T07:54:14.000Z</time>
      </trkpt>
      <trkpt lat="42.96384" lon="0.22197">
        <ele>1403.1999511719</ele>
        <time>2019-06-12T07:54:38.000Z</time>
      </trkpt>
      <trkpt lat="42.96376" lon="0.22204">
        <ele>1403.4000244141</ele>
        <time>2019-06-12T07:55:00.000Z</time>
      </trkpt>
      <trkpt lat="42.96367" lon="0.22205">
        <ele>1404.1999511719</ele>
        <time>2019-06-12T07:55:24.000Z</time>
      </trkpt>
      <trkpt lat="42.96357" lon="0.22209">
        <ele>1404.8000488281</ele>
        <time>2019-06-12T07:55:46.000Z</time>
      </trkpt>
      <trkpt lat="42.96348" lon="0.22206">
        <ele>1405.8000488281</ele>
        <time>2019-06-12T07:56:08.000Z</time>
      </trkpt>
      <trkpt lat="42.96339" lon="0.22205">
        <ele>1406.1999511719</ele>
        <time>2019-06-12T07:56:32.000Z</time>
      </trkpt>
      <trkpt lat="42.96333" lon="0.22195">
        <ele>1406.1999511719</ele>
        <time>2019-06-12T07:56:54.000Z</time>
      </trkpt>
      <trkpt lat="42.96328" lon="0.22184">
        <ele>1406.4000244141</ele>
        <time>2019-06-12T07:57:44.000Z</time>
      </trkpt>
      <trkpt lat="42.96323" lon="0.22172">
        <ele>1406.5999755859</ele>
        <time>2019-06-12T07:58:02.000Z</time>
      </trkpt>
      <trkpt lat="42.96321" lon="0.22159">
        <ele>1407.5999755859</ele>
        <time>2019-06-12T07:58:30.000Z</time>
      </trkpt>
      <trkpt lat="42.96319" lon="0.22146">
        <ele>1408.4000244141</ele>
        <time>2019-06-12T07:58:42.000Z</time>
      </trkpt>
      <trkpt lat="42.96314" lon="0.22136">
        <ele>1408.4000244141</ele>
        <time>2019-06-12T07:58:56.000Z</time>
      </trkpt>
      <trkpt lat="42.96309" lon="0.22125">
        <ele>1409.4000244141</ele>
        <time>2019-06-12T07:59:24.000Z</time>
      </trkpt>
      <trkpt lat="42.96307" lon="0.22113">
        <ele>1411.8000488281</ele>
        <time>2019-06-12T07:59:36.000Z</time>
      </trkpt>
      <trkpt lat="42.96303" lon="0.22101">
        <ele>1414</ele>
        <time>2019-06-12T07:59:48.000Z</time>
      </trkpt>
      <trkpt lat="42.96297" lon="0.2209">
        <ele>1416</ele>
        <time>2019-06-12T08:00:04.000Z</time>
      </trkpt>
      <trkpt lat="42.96294" lon="0.22078">
        <ele>1417.1999511719</ele>
        <time>2019-06-12T08:00:18.000Z</time>
      </trkpt>
      <trkpt lat="42.9629" lon="0.22068">
        <ele>1417.4000244141</ele>
        <time>2019-06-12T08:00:34.000Z</time>
      </trkpt>
      <trkpt lat="42.96283" lon="0.22058">
        <ele>1418</ele>
        <time>2019-06-12T08:00:50.000Z</time>
      </trkpt>
      <trkpt lat="42.96278" lon="0.22047">
        <ele>1418.1999511719</ele>
        <time>2019-06-12T08:01:04.000Z</time>
      </trkpt>
      <trkpt lat="42.96275" lon="0.22034">
        <ele>1421</ele>
        <time>2019-06-12T08:01:22.000Z</time>
      </trkpt>
      <trkpt lat="42.96271" lon="0.22021">
        <ele>1424.5999755859</ele>
        <time>2019-06-12T08:01:36.000Z</time>
      </trkpt>
      <trkpt lat="42.96267" lon="0.22009">
        <ele>1428</ele>
        <time>2019-06-12T08:01:52.000Z</time>
      </trkpt>
      <trkpt lat="42.9626" lon="0.22002">
        <ele>1430.5999755859</ele>
        <time>2019-06-12T08:02:06.000Z</time>
      </trkpt>
      <trkpt lat="42.96251" lon="0.21999">
        <ele>1431</ele>
        <time>2019-06-12T08:02:22.000Z</time>
      </trkpt>
      <trkpt lat="42.96241" lon="0.21998">
        <ele>1430.5999755859</ele>
        <time>2019-06-12T08:04:06.000Z</time>
      </trkpt>
      <trkpt lat="42.96248" lon="0.22006">
        <ele>1429.1999511719</ele>
        <time>2019-06-12T08:07:22.000Z</time>
      </trkpt>
      <trkpt lat="42.96239" lon="0.21999">
        <ele>1430</ele>
        <time>2019-06-12T08:11:32.000Z</time>
      </trkpt>
      <trkpt lat="42.96241" lon="0.21986">
        <ele>1433</ele>
        <time>2019-06-12T08:13:24.000Z</time>
      </trkpt>
      <trkpt lat="42.96245" lon="0.21975">
        <ele>1436</ele>
        <time>2019-06-12T08:13:38.000Z</time>
      </trkpt>
      <trkpt lat="42.96246" lon="0.21962">
        <ele>1439</ele>
        <time>2019-06-12T08:13:54.000Z</time>
      </trkpt>
      <trkpt lat="42.96246" lon="0.21947">
        <ele>1444.4000244141</ele>
        <time>2019-06-12T08:14:06.000Z</time>
      </trkpt>
      <trkpt lat="42.96246" lon="0.21934">
        <ele>1446.8000488281</ele>
        <time>2019-06-12T08:14:20.000Z</time>
      </trkpt>
      <trkpt lat="42.96246" lon="0.21921">
        <ele>1449</ele>
        <time>2019-06-12T08:14:38.000Z</time>
      </trkpt>
      <trkpt lat="42.96245" lon="0.21909">
        <ele>1451.4000244141</ele>
        <time>2019-06-12T08:14:52.000Z</time>
      </trkpt>
      <trkpt lat="42.96242" lon="0.21897">
        <ele>1454</ele>
        <time>2019-06-12T08:15:08.000Z</time>
      </trkpt>
      <trkpt lat="42.96236" lon="0.21886">
        <ele>1456.8000488281</ele>
        <time>2019-06-12T08:15:28.000Z</time>
      </trkpt>
      <trkpt lat="42.96234" lon="0.21874">
        <ele>1460.5999755859</ele>
        <time>2019-06-12T08:15:46.000Z</time>
      </trkpt>
      <trkpt lat="42.96232" lon="0.21861">
        <ele>1466.4000244141</ele>
        <time>2019-06-12T08:16:04.000Z</time>
      </trkpt>
      <trkpt lat="42.96231" lon="0.21848">
        <ele>1470.8000488281</ele>
        <time>2019-06-12T08:16:20.000Z</time>
      </trkpt>
      <trkpt lat="42.96226" lon="0.21836">
        <ele>1474</ele>
        <time>2019-06-12T08:16:40.000Z</time>
      </trkpt>
      <trkpt lat="42.96222" lon="0.21824">
        <ele>1476.8000488281</ele>
        <time>2019-06-12T08:17:04.000Z</time>
      </trkpt>
      <trkpt lat="42.96219" lon="0.21812">
        <ele>1479.4000244141</ele>
        <time>2019-06-12T08:17:22.000Z</time>
      </trkpt>
      <trkpt lat="42.96216" lon="0.21799">
        <ele>1481.5999755859</ele>
        <time>2019-06-12T08:17:40.000Z</time>
      </trkpt>
      <trkpt lat="42.96214" lon="0.21786">
        <ele>1484.5999755859</ele>
        <time>2019-06-12T08:18:12.000Z</time>
      </trkpt>
      <trkpt lat="42.96205" lon="0.21784">
        <ele>1489.5999755859</ele>
        <time>2019-06-12T08:18:44.000Z</time>
      </trkpt>
      <trkpt lat="42.96198" lon="0.21793">
        <ele>1491.4000244141</ele>
        <time>2019-06-12T08:19:04.000Z</time>
      </trkpt>
      <trkpt lat="42.9619" lon="0.21802">
        <ele>1494.8000488281</ele>
        <time>2019-06-12T08:19:36.000Z</time>
      </trkpt>
      <trkpt lat="42.96182" lon="0.2181">
        <ele>1495.4000244141</ele>
        <time>2019-06-12T08:19:52.000Z</time>
      </trkpt>
      <trkpt lat="42.96176" lon="0.21819">
        <ele>1492.8000488281</ele>
        <time>2019-06-12T08:20:08.000Z</time>
      </trkpt>
      <trkpt lat="42.96167" lon="0.21825">
        <ele>1489.1999511719</ele>
        <time>2019-06-12T08:20:28.000Z</time>
      </trkpt>
      <trkpt lat="42.96158" lon="0.2183">
        <ele>1486</ele>
        <time>2019-06-12T08:20:44.000Z</time>
      </trkpt>
      <trkpt lat="42.96152" lon="0.21821">
        <ele>1489</ele>
        <time>2019-06-12T08:21:06.000Z</time>
      </trkpt>
      <trkpt lat="42.96147" lon="0.21809">
        <ele>1493.4000244141</ele>
        <time>2019-06-12T08:21:32.000Z</time>
      </trkpt>
      <trkpt lat="42.96143" lon="0.21798">
        <ele>1497.5999755859</ele>
        <time>2019-06-12T08:21:52.000Z</time>
      </trkpt>
      <trkpt lat="42.96143" lon="0.21785">
        <ele>1502.1999511719</ele>
        <time>2019-06-12T08:22:08.000Z</time>
      </trkpt>
      <trkpt lat="42.9614" lon="0.21773">
        <ele>1505.8000488281</ele>
        <time>2019-06-12T08:22:22.000Z</time>
      </trkpt>
      <trkpt lat="42.96143" lon="0.2176">
        <ele>1509.5999755859</ele>
        <time>2019-06-12T08:22:50.000Z</time>
      </trkpt>
      <trkpt lat="42.96142" lon="0.21748">
        <ele>1511.5999755859</ele>
        <time>2019-06-12T08:23:04.000Z</time>
      </trkpt>
      <trkpt lat="42.96142" lon="0.21735">
        <ele>1513.5999755859</ele>
        <time>2019-06-12T08:23:16.000Z</time>
      </trkpt>
      <trkpt lat="42.96141" lon="0.21722">
        <ele>1515.5999755859</ele>
        <time>2019-06-12T08:23:32.000Z</time>
      </trkpt>
      <trkpt lat="42.96139" lon="0.2171">
        <ele>1518</ele>
        <time>2019-06-12T08:23:54.000Z</time>
      </trkpt>
      <trkpt lat="42.9614" lon="0.21696">
        <ele>1522.1999511719</ele>
        <time>2019-06-12T08:24:10.000Z</time>
      </trkpt>
      <trkpt lat="42.96137" lon="0.21683">
        <ele>1526.8000488281</ele>
        <time>2019-06-12T08:24:24.000Z</time>
      </trkpt>
      <trkpt lat="42.96136" lon="0.2167">
        <ele>1530.8000488281</ele>
        <time>2019-06-12T08:24:48.000Z</time>
      </trkpt>
      <trkpt lat="42.96131" lon="0.21657">
        <ele>1534</ele>
        <time>2019-06-12T08:25:08.000Z</time>
      </trkpt>
      <trkpt lat="42.96128" lon="0.21646">
        <ele>1537.1999511719</ele>
        <time>2019-06-12T08:25:26.000Z</time>
      </trkpt>
      <trkpt lat="42.96128" lon="0.21633">
        <ele>1540.1999511719</ele>
        <time>2019-06-12T08:25:46.000Z</time>
      </trkpt>
      <trkpt lat="42.9612" lon="0.21627">
        <ele>1542.8000488281</ele>
        <time>2019-06-12T08:26:06.000Z</time>
      </trkpt>
      <trkpt lat="42.96118" lon="0.21614">
        <ele>1546.5999755859</ele>
        <time>2019-06-12T08:26:30.000Z</time>
      </trkpt>
      <trkpt lat="42.96118" lon="0.21602">
        <ele>1550.1999511719</ele>
        <time>2019-06-12T08:26:52.000Z</time>
      </trkpt>
      <trkpt lat="42.96115" lon="0.21589">
        <ele>1554.1999511719</ele>
        <time>2019-06-12T08:27:10.000Z</time>
      </trkpt>
      <trkpt lat="42.96113" lon="0.21577">
        <ele>1558</ele>
        <time>2019-06-12T08:27:28.000Z</time>
      </trkpt>
      <trkpt lat="42.96115" lon="0.21564">
        <ele>1561.1999511719</ele>
        <time>2019-06-12T08:27:46.000Z</time>
      </trkpt>
      <trkpt lat="42.96111" lon="0.21551">
        <ele>1565</ele>
        <time>2019-06-12T08:28:04.000Z</time>
      </trkpt>
      <trkpt lat="42.9611" lon="0.21538">
        <ele>1569.4000244141</ele>
        <time>2019-06-12T08:28:24.000Z</time>
      </trkpt>
      <trkpt lat="42.96104" lon="0.21529">
        <ele>1574</ele>
        <time>2019-06-12T08:28:42.000Z</time>
      </trkpt>
      <trkpt lat="42.96099" lon="0.21518">
        <ele>1579</ele>
        <time>2019-06-12T08:29:02.000Z</time>
      </trkpt>
      <trkpt lat="42.96105" lon="0.21506">
        <ele>1582.4000244141</ele>
        <time>2019-06-12T08:29:22.000Z</time>
      </trkpt>
      <trkpt lat="42.96106" lon="0.21494">
        <ele>1587</ele>
        <time>2019-06-12T08:29:40.000Z</time>
      </trkpt>
      <trkpt lat="42.961" lon="0.21484">
        <ele>1592</ele>
        <time>2019-06-12T08:30:04.000Z</time>
      </trkpt>
      <trkpt lat="42.96092" lon="0.21478">
        <ele>1595.8000488281</ele>
        <time>2019-06-12T08:30:28.000Z</time>
      </trkpt>
      <trkpt lat="42.96084" lon="0.2147">
        <ele>1599.5999755859</ele>
        <time>2019-06-12T08:30:54.000Z</time>
      </trkpt>
      <trkpt lat="42.96075" lon="0.21467">
        <ele>1602.1999511719</ele>
        <time>2019-06-12T08:31:16.000Z</time>
      </trkpt>
      <trkpt lat="42.96067" lon="0.21462">
        <ele>1605</ele>
        <time>2019-06-12T08:31:40.000Z</time>
      </trkpt>
      <trkpt lat="42.96059" lon="0.21455">
        <ele>1608.1999511719</ele>
        <time>2019-06-12T08:32:08.000Z</time>
      </trkpt>
      <trkpt lat="42.96052" lon="0.21449">
        <ele>1611.1999511719</ele>
        <time>2019-06-12T08:32:40.000Z</time>
      </trkpt>
      <trkpt lat="42.96043" lon="0.21447">
        <ele>1613</ele>
        <time>2019-06-12T08:33:02.000Z</time>
      </trkpt>
      <trkpt lat="42.96034" lon="0.2144">
        <ele>1616</ele>
        <time>2019-06-12T08:33:24.000Z</time>
      </trkpt>
      <trkpt lat="42.96027" lon="0.21432">
        <ele>1619.5999755859</ele>
        <time>2019-06-12T08:33:46.000Z</time>
      </trkpt>
      <trkpt lat="42.96023" lon="0.2142">
        <ele>1623.5999755859</ele>
        <time>2019-06-12T08:34:12.000Z</time>
      </trkpt>
      <trkpt lat="42.96027" lon="0.21408">
        <ele>1626.5999755859</ele>
        <time>2019-06-12T08:34:32.000Z</time>
      </trkpt>
      <trkpt lat="42.96023" lon="0.21396">
        <ele>1630.5999755859</ele>
        <time>2019-06-12T08:34:58.000Z</time>
      </trkpt>
      <trkpt lat="42.96016" lon="0.21386">
        <ele>1634.5999755859</ele>
        <time>2019-06-12T08:35:20.000Z</time>
      </trkpt>
      <trkpt lat="42.96011" lon="0.21374">
        <ele>1638.4000244141</ele>
        <time>2019-06-12T08:35:36.000Z</time>
      </trkpt>
      <trkpt lat="42.96008" lon="0.21361">
        <ele>1642.5999755859</ele>
        <time>2019-06-12T08:35:58.000Z</time>
      </trkpt>
      <trkpt lat="42.96007" lon="0.21348">
        <ele>1645.8000488281</ele>
        <time>2019-06-12T08:36:20.000Z</time>
      </trkpt>
      <trkpt lat="42.96003" lon="0.21337">
        <ele>1648.4000244141</ele>
        <time>2019-06-12T08:36:44.000Z</time>
      </trkpt>
      <trkpt lat="42.95999" lon="0.21325">
        <ele>1650.8000488281</ele>
        <time>2019-06-12T08:37:08.000Z</time>
      </trkpt>
      <trkpt lat="42.95999" lon="0.21312">
        <ele>1654</ele>
        <time>2019-06-12T08:37:28.000Z</time>
      </trkpt>
      <trkpt lat="42.96" lon="0.213">
        <ele>1657.4000244141</ele>
        <time>2019-06-12T08:37:52.000Z</time>
      </trkpt>
      <trkpt lat="42.95999" lon="0.21287">
        <ele>1661.1999511719</ele>
        <time>2019-06-12T08:38:12.000Z</time>
      </trkpt>
      <trkpt lat="42.95997" lon="0.21274">
        <ele>1664</ele>
        <time>2019-06-12T08:38:34.000Z</time>
      </trkpt>
      <trkpt lat="42.95994" lon="0.21261">
        <ele>1666.5999755859</ele>
        <time>2019-06-12T08:38:54.000Z</time>
      </trkpt>
      <trkpt lat="42.95989" lon="0.21251">
        <ele>1668.4000244141</ele>
        <time>2019-06-12T08:39:36.000Z</time>
      </trkpt>
      <trkpt lat="42.95984" lon="0.2124">
        <ele>1670.5999755859</ele>
        <time>2019-06-12T08:45:20.000Z</time>
      </trkpt>
      <trkpt lat="42.95978" lon="0.21229">
        <ele>1672.8000488281</ele>
        <time>2019-06-12T08:45:32.000Z</time>
      </trkpt>
      <trkpt lat="42.95974" lon="0.21216">
        <ele>1675.1999511719</ele>
        <time>2019-06-12T08:45:48.000Z</time>
      </trkpt>
      <trkpt lat="42.95969" lon="0.21203">
        <ele>1678.1999511719</ele>
        <time>2019-06-12T08:46:02.000Z</time>
      </trkpt>
      <trkpt lat="42.95963" lon="0.21194">
        <ele>1680.5999755859</ele>
        <time>2019-06-12T08:46:12.000Z</time>
      </trkpt>
      <trkpt lat="42.95957" lon="0.21184">
        <ele>1682.8000488281</ele>
        <time>2019-06-12T08:46:24.000Z</time>
      </trkpt>
      <trkpt lat="42.95953" lon="0.21171">
        <ele>1686</ele>
        <time>2019-06-12T08:46:38.000Z</time>
      </trkpt>
      <trkpt lat="42.9595" lon="0.2116">
        <ele>1689.1999511719</ele>
        <time>2019-06-12T08:46:50.000Z</time>
      </trkpt>
      <trkpt lat="42.95946" lon="0.21148">
        <ele>1691.8000488281</ele>
        <time>2019-06-12T08:47:02.000Z</time>
      </trkpt>
      <trkpt lat="42.95944" lon="0.21136">
        <ele>1693.4000244141</ele>
        <time>2019-06-12T08:47:12.000Z</time>
      </trkpt>
      <trkpt lat="42.95942" lon="0.21123">
        <ele>1695</ele>
        <time>2019-06-12T08:47:24.000Z</time>
      </trkpt>
      <trkpt lat="42.95936" lon="0.2111">
        <ele>1697</ele>
        <time>2019-06-12T08:47:36.000Z</time>
      </trkpt>
      <trkpt lat="42.95931" lon="0.21099">
        <ele>1698.5999755859</ele>
        <time>2019-06-12T08:47:46.000Z</time>
      </trkpt>
      <trkpt lat="42.9593" lon="0.21087">
        <ele>1700</ele>
        <time>2019-06-12T08:47:58.000Z</time>
      </trkpt>
      <trkpt lat="42.95926" lon="0.21073">
        <ele>1701.8000488281</ele>
        <time>2019-06-12T08:48:10.000Z</time>
      </trkpt>
      <trkpt lat="42.95925" lon="0.21059">
        <ele>1703.5999755859</ele>
        <time>2019-06-12T08:48:22.000Z</time>
      </trkpt>
      <trkpt lat="42.95928" lon="0.21045">
        <ele>1704.1999511719</ele>
        <time>2019-06-12T08:48:36.000Z</time>
      </trkpt>
      <trkpt lat="42.9593" lon="0.21031">
        <ele>1705.1999511719</ele>
        <time>2019-06-12T08:48:48.000Z</time>
      </trkpt>
      <trkpt lat="42.95933" lon="0.21018">
        <ele>1705.5999755859</ele>
        <time>2019-06-12T08:49:00.000Z</time>
      </trkpt>
      <trkpt lat="42.95937" lon="0.21005">
        <ele>1705.8000488281</ele>
        <time>2019-06-12T08:49:14.000Z</time>
      </trkpt>
      <trkpt lat="42.95938" lon="0.20992">
        <ele>1707</ele>
        <time>2019-06-12T08:49:26.000Z</time>
      </trkpt>
      <trkpt lat="42.95938" lon="0.20978">
        <ele>1708.1999511719</ele>
        <time>2019-06-12T08:49:40.000Z</time>
      </trkpt>
      <trkpt lat="42.95936" lon="0.20964">
        <ele>1709.1999511719</ele>
        <time>2019-06-12T08:49:52.000Z</time>
      </trkpt>
      <trkpt lat="42.95932" lon="0.20951">
        <ele>1711</ele>
        <time>2019-06-12T08:50:02.000Z</time>
      </trkpt>
      <trkpt lat="42.95931" lon="0.20938">
        <ele>1712.1999511719</ele>
        <time>2019-06-12T08:50:14.000Z</time>
      </trkpt>
      <trkpt lat="42.95936" lon="0.20927">
        <ele>1711.4000244141</ele>
        <time>2019-06-12T08:50:26.000Z</time>
      </trkpt>
      <trkpt lat="42.9594" lon="0.20914">
        <ele>1710.8000488281</ele>
        <time>2019-06-12T08:50:38.000Z</time>
      </trkpt>
      <trkpt lat="42.95942" lon="0.20901">
        <ele>1710.8000488281</ele>
        <time>2019-06-12T08:50:50.000Z</time>
      </trkpt>
      <trkpt lat="42.95942" lon="0.20889">
        <ele>1712.5999755859</ele>
        <time>2019-06-12T08:51:00.000Z</time>
      </trkpt>
      <trkpt lat="42.95943" lon="0.20876">
        <ele>1713.8000488281</ele>
        <time>2019-06-12T08:51:10.000Z</time>
      </trkpt>
      <trkpt lat="42.95945" lon="0.20863">
        <ele>1712.8000488281</ele>
        <time>2019-06-12T08:51:20.000Z</time>
      </trkpt>
      <trkpt lat="42.95949" lon="0.2085">
        <ele>1711.4000244141</ele>
        <time>2019-06-12T08:51:32.000Z</time>
      </trkpt>
      <trkpt lat="42.95953" lon="0.20839">
        <ele>1710</ele>
        <time>2019-06-12T08:51:42.000Z</time>
      </trkpt>
      <trkpt lat="42.95955" lon="0.20826">
        <ele>1709</ele>
        <time>2019-06-12T08:51:52.000Z</time>
      </trkpt>
      <trkpt lat="42.95957" lon="0.20813">
        <ele>1711</ele>
        <time>2019-06-12T08:52:02.000Z</time>
      </trkpt>
      <trkpt lat="42.95962" lon="0.20802">
        <ele>1712.8000488281</ele>
        <time>2019-06-12T08:52:12.000Z</time>
      </trkpt>
      <trkpt lat="42.95967" lon="0.2079">
        <ele>1713.5999755859</ele>
        <time>2019-06-12T08:52:22.000Z</time>
      </trkpt>
      <trkpt lat="42.95971" lon="0.20779">
        <ele>1712.5999755859</ele>
        <time>2019-06-12T08:52:32.000Z</time>
      </trkpt>
      <trkpt lat="42.95974" lon="0.20767">
        <ele>1711.5999755859</ele>
        <time>2019-06-12T08:52:42.000Z</time>
      </trkpt>
      <trkpt lat="42.95978" lon="0.20755">
        <ele>1713.5999755859</ele>
        <time>2019-06-12T08:52:52.000Z</time>
      </trkpt>
      <trkpt lat="42.95982" lon="0.20742">
        <ele>1717</ele>
        <time>2019-06-12T08:53:04.000Z</time>
      </trkpt>
      <trkpt lat="42.95984" lon="0.2073">
        <ele>1720</ele>
        <time>2019-06-12T08:53:14.000Z</time>
      </trkpt>
      <trkpt lat="42.95991" lon="0.20719">
        <ele>1724</ele>
        <time>2019-06-12T08:53:26.000Z</time>
      </trkpt>
      <trkpt lat="42.95993" lon="0.20707">
        <ele>1726</ele>
        <time>2019-06-12T08:53:36.000Z</time>
      </trkpt>
      <trkpt lat="42.95998" lon="0.20695">
        <ele>1727.8000488281</ele>
        <time>2019-06-12T08:53:48.000Z</time>
      </trkpt>
      <trkpt lat="42.96002" lon="0.20681">
        <ele>1729.5999755859</ele>
        <time>2019-06-12T08:53:58.000Z</time>
      </trkpt>
      <trkpt lat="42.96004" lon="0.20668">
        <ele>1731</ele>
        <time>2019-06-12T08:54:08.000Z</time>
      </trkpt>
      <trkpt lat="42.96007" lon="0.20655">
        <ele>1732.5999755859</ele>
        <time>2019-06-12T08:54:18.000Z</time>
      </trkpt>
      <trkpt lat="42.96009" lon="0.20641">
        <ele>1732.8000488281</ele>
        <time>2019-06-12T08:54:28.000Z</time>
      </trkpt>
      <trkpt lat="42.96011" lon="0.20628">
        <ele>1733.1999511719</ele>
        <time>2019-06-12T08:54:38.000Z</time>
      </trkpt>
      <trkpt lat="42.96013" lon="0.20615">
        <ele>1733</ele>
        <time>2019-06-12T08:54:48.000Z</time>
      </trkpt>
      <trkpt lat="42.96014" lon="0.20603">
        <ele>1732.8000488281</ele>
        <time>2019-06-12T08:54:58.000Z</time>
      </trkpt>
      <trkpt lat="42.96015" lon="0.20589">
        <ele>1732.8000488281</ele>
        <time>2019-06-12T08:55:10.000Z</time>
      </trkpt>
      <trkpt lat="42.96019" lon="0.20578">
        <ele>1732</ele>
        <time>2019-06-12T08:55:22.000Z</time>
      </trkpt>
      <trkpt lat="42.96023" lon="0.20566">
        <ele>1731.1999511719</ele>
        <time>2019-06-12T08:55:34.000Z</time>
      </trkpt>
      <trkpt lat="42.96027" lon="0.20554">
        <ele>1730.5999755859</ele>
        <time>2019-06-12T08:55:46.000Z</time>
      </trkpt>
      <trkpt lat="42.96028" lon="0.2054">
        <ele>1731</ele>
        <time>2019-06-12T08:55:56.000Z</time>
      </trkpt>
      <trkpt lat="42.96029" lon="0.20528">
        <ele>1733</ele>
        <time>2019-06-12T08:56:06.000Z</time>
      </trkpt>
      <trkpt lat="42.96029" lon="0.20515">
        <ele>1734.8000488281</ele>
        <time>2019-06-12T08:56:16.000Z</time>
      </trkpt>
      <trkpt lat="42.96027" lon="0.20502">
        <ele>1737.1999511719</ele>
        <time>2019-06-12T08:56:26.000Z</time>
      </trkpt>
      <trkpt lat="42.96026" lon="0.2049">
        <ele>1739.5999755859</ele>
        <time>2019-06-12T08:56:38.000Z</time>
      </trkpt>
      <trkpt lat="42.96022" lon="0.20478">
        <ele>1742.5999755859</ele>
        <time>2019-06-12T08:56:52.000Z</time>
      </trkpt>
      <trkpt lat="42.96016" lon="0.20467">
        <ele>1746.4000244141</ele>
        <time>2019-06-12T08:57:02.000Z</time>
      </trkpt>
      <trkpt lat="42.9601" lon="0.20456">
        <ele>1750.1999511719</ele>
        <time>2019-06-12T08:57:14.000Z</time>
      </trkpt>
      <trkpt lat="42.96005" lon="0.20445">
        <ele>1752.1999511719</ele>
        <time>2019-06-12T08:57:26.000Z</time>
      </trkpt>
      <trkpt lat="42.95999" lon="0.20434">
        <ele>1753.1999511719</ele>
        <time>2019-06-12T08:57:50.000Z</time>
      </trkpt>
      <trkpt lat="42.95992" lon="0.20425">
        <ele>1753.5999755859</ele>
        <time>2019-06-12T08:58:08.000Z</time>
      </trkpt>
      <trkpt lat="42.95987" lon="0.20415">
        <ele>1754.1999511719</ele>
        <time>2019-06-12T08:58:20.000Z</time>
      </trkpt>
      <trkpt lat="42.95985" lon="0.20403">
        <ele>1756.8000488281</ele>
        <time>2019-06-12T08:58:34.000Z</time>
      </trkpt>
      <trkpt lat="42.95981" lon="0.2039">
        <ele>1758.8000488281</ele>
        <time>2019-06-12T08:58:52.000Z</time>
      </trkpt>
      <trkpt lat="42.95977" lon="0.20378">
        <ele>1760.5999755859</ele>
        <time>2019-06-12T08:59:06.000Z</time>
      </trkpt>
      <trkpt lat="42.95971" lon="0.20367">
        <ele>1763</ele>
        <time>2019-06-12T08:59:18.000Z</time>
      </trkpt>
      <trkpt lat="42.95964" lon="0.20356">
        <ele>1765</ele>
        <time>2019-06-12T08:59:30.000Z</time>
      </trkpt>
      <trkpt lat="42.95958" lon="0.20345">
        <ele>1767.1999511719</ele>
        <time>2019-06-12T08:59:44.000Z</time>
      </trkpt>
      <trkpt lat="42.95952" lon="0.20336">
        <ele>1768.8000488281</ele>
        <time>2019-06-12T09:00:00.000Z</time>
      </trkpt>
      <trkpt lat="42.95946" lon="0.20325">
        <ele>1771.1999511719</ele>
        <time>2019-06-12T09:00:22.000Z</time>
      </trkpt>
      <trkpt lat="42.9594" lon="0.20315">
        <ele>1773.1999511719</ele>
        <time>2019-06-12T09:00:36.000Z</time>
      </trkpt>
      <trkpt lat="42.95932" lon="0.20307">
        <ele>1773.8000488281</ele>
        <time>2019-06-12T09:00:54.000Z</time>
      </trkpt>
      <trkpt lat="42.95925" lon="0.20299">
        <ele>1774.5999755859</ele>
        <time>2019-06-12T09:01:12.000Z</time>
      </trkpt>
      <trkpt lat="42.95917" lon="0.2029">
        <ele>1774.8000488281</ele>
        <time>2019-06-12T09:01:28.000Z</time>
      </trkpt>
      <trkpt lat="42.95909" lon="0.20282">
        <ele>1774.5999755859</ele>
        <time>2019-06-12T09:01:40.000Z</time>
      </trkpt>
      <trkpt lat="42.95903" lon="0.20272">
        <ele>1775.5999755859</ele>
        <time>2019-06-12T09:01:56.000Z</time>
      </trkpt>
      <trkpt lat="42.95897" lon="0.20262">
        <ele>1777.1999511719</ele>
        <time>2019-06-12T09:02:08.000Z</time>
      </trkpt>
      <trkpt lat="42.95892" lon="0.2025">
        <ele>1781</ele>
        <time>2019-06-12T09:02:28.000Z</time>
      </trkpt>
      <trkpt lat="42.9589" lon="0.20237">
        <ele>1786.4000244141</ele>
        <time>2019-06-12T09:02:46.000Z</time>
      </trkpt>
      <trkpt lat="42.95886" lon="0.20225">
        <ele>1790.5999755859</ele>
        <time>2019-06-12T09:03:02.000Z</time>
      </trkpt>
      <trkpt lat="42.95882" lon="0.20213">
        <ele>1794.4000244141</ele>
        <time>2019-06-12T09:03:22.000Z</time>
      </trkpt>
      <trkpt lat="42.95872" lon="0.20215">
        <ele>1788</ele>
        <time>2019-06-12T09:03:58.000Z</time>
      </trkpt>
      <trkpt lat="42.95863" lon="0.20211">
        <ele>1784.1999511719</ele>
        <time>2019-06-12T09:04:12.000Z</time>
      </trkpt>
      <trkpt lat="42.95858" lon="0.20199">
        <ele>1785.4000244141</ele>
        <time>2019-06-12T09:04:26.000Z</time>
      </trkpt>
      <trkpt lat="42.95852" lon="0.20187">
        <ele>1786.5999755859</ele>
        <time>2019-06-12T09:04:38.000Z</time>
      </trkpt>
      <trkpt lat="42.95849" lon="0.20175">
        <ele>1789.4000244141</ele>
        <time>2019-06-12T09:04:50.000Z</time>
      </trkpt>
      <trkpt lat="42.95847" lon="0.20162">
        <ele>1793.1999511719</ele>
        <time>2019-06-12T09:05:02.000Z</time>
      </trkpt>
      <trkpt lat="42.95845" lon="0.20149">
        <ele>1796.8000488281</ele>
        <time>2019-06-12T09:05:16.000Z</time>
      </trkpt>
      <trkpt lat="42.95841" lon="0.20138">
        <ele>1798.4000244141</ele>
        <time>2019-06-12T09:05:28.000Z</time>
      </trkpt>
      <trkpt lat="42.95835" lon="0.20128">
        <ele>1800.5999755859</ele>
        <time>2019-06-12T09:05:40.000Z</time>
      </trkpt>
      <trkpt lat="42.95828" lon="0.20118">
        <ele>1800.5999755859</ele>
        <time>2019-06-12T09:05:52.000Z</time>
      </trkpt>
      <trkpt lat="42.95821" lon="0.20108">
        <ele>1800.8000488281</ele>
        <time>2019-06-12T09:06:04.000Z</time>
      </trkpt>
      <trkpt lat="42.95815" lon="0.20098">
        <ele>1801.8000488281</ele>
        <time>2019-06-12T09:06:16.000Z</time>
      </trkpt>
      <trkpt lat="42.95809" lon="0.20089">
        <ele>1802.1999511719</ele>
        <time>2019-06-12T09:06:26.000Z</time>
      </trkpt>
      <trkpt lat="42.95805" lon="0.20076">
        <ele>1804.8000488281</ele>
        <time>2019-06-12T09:06:40.000Z</time>
      </trkpt>
      <trkpt lat="42.95799" lon="0.20066">
        <ele>1805.8000488281</ele>
        <time>2019-06-12T09:06:50.000Z</time>
      </trkpt>
      <trkpt lat="42.95799" lon="0.20052">
        <ele>1810.1999511719</ele>
        <time>2019-06-12T09:07:10.000Z</time>
      </trkpt>
      <trkpt lat="42.95798" lon="0.20039">
        <ele>1813.1999511719</ele>
        <time>2019-06-12T09:07:26.000Z</time>
      </trkpt>
      <trkpt lat="42.95798" lon="0.20026">
        <ele>1815.4000244141</ele>
        <time>2019-06-12T09:07:48.000Z</time>
      </trkpt>
      <trkpt lat="42.95798" lon="0.20012">
        <ele>1817.8000488281</ele>
        <time>2019-06-12T09:08:16.000Z</time>
      </trkpt>
      <trkpt lat="42.95798" lon="0.19998">
        <ele>1820.5999755859</ele>
        <time>2019-06-12T09:08:34.000Z</time>
      </trkpt>
      <trkpt lat="42.95798" lon="0.19985">
        <ele>1823.5999755859</ele>
        <time>2019-06-12T09:08:50.000Z</time>
      </trkpt>
      <trkpt lat="42.95798" lon="0.19972">
        <ele>1826.5999755859</ele>
        <time>2019-06-12T09:09:06.000Z</time>
      </trkpt>
      <trkpt lat="42.95799" lon="0.19958">
        <ele>1829.8000488281</ele>
        <time>2019-06-12T09:09:24.000Z</time>
      </trkpt>
      <trkpt lat="42.95802" lon="0.19946">
        <ele>1832.8000488281</ele>
        <time>2019-06-12T09:09:40.000Z</time>
      </trkpt>
      <trkpt lat="42.95802" lon="0.19934">
        <ele>1834.5999755859</ele>
        <time>2019-06-12T09:09:52.000Z</time>
      </trkpt>
      <trkpt lat="42.958" lon="0.1992">
        <ele>1835.8000488281</ele>
        <time>2019-06-12T09:10:04.000Z</time>
      </trkpt>
      <trkpt lat="42.95797" lon="0.19908">
        <ele>1836.4000244141</ele>
        <time>2019-06-12T09:10:18.000Z</time>
      </trkpt>
      <trkpt lat="42.95794" lon="0.19895">
        <ele>1837.1999511719</ele>
        <time>2019-06-12T09:10:32.000Z</time>
      </trkpt>
      <trkpt lat="42.95791" lon="0.19883">
        <ele>1837.8000488281</ele>
        <time>2019-06-12T09:10:44.000Z</time>
      </trkpt>
      <trkpt lat="42.95791" lon="0.1987">
        <ele>1839.8000488281</ele>
        <time>2019-06-12T09:11:00.000Z</time>
      </trkpt>
      <trkpt lat="42.95791" lon="0.19856">
        <ele>1841.5999755859</ele>
        <time>2019-06-12T09:11:16.000Z</time>
      </trkpt>
      <trkpt lat="42.95792" lon="0.19841">
        <ele>1844.1999511719</ele>
        <time>2019-06-12T09:11:34.000Z</time>
      </trkpt>
      <trkpt lat="42.95791" lon="0.19828">
        <ele>1845.5999755859</ele>
        <time>2019-06-12T09:11:48.000Z</time>
      </trkpt>
      <trkpt lat="42.95794" lon="0.19816">
        <ele>1848.4000244141</ele>
        <time>2019-06-12T09:12:10.000Z</time>
      </trkpt>
      <trkpt lat="42.95797" lon="0.19804">
        <ele>1850.8000488281</ele>
        <time>2019-06-12T09:12:28.000Z</time>
      </trkpt>
      <trkpt lat="42.95802" lon="0.19793">
        <ele>1854.4000244141</ele>
        <time>2019-06-12T09:12:48.000Z</time>
      </trkpt>
      <trkpt lat="42.95806" lon="0.19781">
        <ele>1857.4000244141</ele>
        <time>2019-06-12T09:13:12.000Z</time>
      </trkpt>
      <trkpt lat="42.95813" lon="0.19773">
        <ele>1861.4000244141</ele>
        <time>2019-06-12T09:13:38.000Z</time>
      </trkpt>
      <trkpt lat="42.95822" lon="0.1977">
        <ele>1865.1999511719</ele>
        <time>2019-06-12T09:13:56.000Z</time>
      </trkpt>
      <trkpt lat="42.95831" lon="0.19766">
        <ele>1869</ele>
        <time>2019-06-12T09:14:16.000Z</time>
      </trkpt>
      <trkpt lat="42.95841" lon="0.19764">
        <ele>1873</ele>
        <time>2019-06-12T09:14:48.000Z</time>
      </trkpt>
      <trkpt lat="42.95841" lon="0.19763">
        <ele>1873</ele>
        <time>2019-06-12T09:18:26.000Z</time>
      </trkpt>
      <trkpt lat="42.95851" lon="0.19761">
        <ele>1873</ele>
        <time>2019-06-12T09:19:46.000Z</time>
        <extensions>
          <gpxtpx:TrackPointExtension xmlns:gpxtpx="http://www.garmin.com/xmlschemas/TrackPointExtension/v1">
            <gpxtpx:hr>127</gpxtpx:hr>
          </gpxtpx:TrackPointExtension>
        </extensions>
      </trkpt>
      <trkpt lat="42.9586" lon="0.19764">
        <ele>1872.1999511719</ele>
        <time>2019-06-12T09:19:58.000Z</time>
      </trkpt>
      <trkpt lat="42.95869" lon="0.19762">
        <ele>1872.1999511719</ele>
        <time>2019-06-12T09:20:14.000Z</time>
      </trkpt>
      <trkpt lat="42.95878" lon="0.19761">
        <ele>1872</ele>
        <time>2019-06-12T09:22:04.000Z</time>
      </trkpt>
      <trkpt lat="42.9587" lon="0.19765">
        <ele>1871.8000488281</ele>
        <time>2019-06-12T09:25:14.000Z</time>
      </trkpt>
      <trkpt lat="42.95867" lon="0.19766">
        <ele>1871.8000488281</ele>
        <time>2019-06-12T09:55:02.000Z</time>
      </trkpt>
      <trkpt lat="42.95875" lon="0.19773">
        <ele>1871</ele>
        <time>2019-06-12T10:00:20.000Z</time>
        <extensions>
          <gpxtpx:TrackPointExtension xmlns:gpxtpx="http://www.garmin.com/xmlschemas/TrackPointExtension/v1">
            <gpxtpx:hr>92</gpxtpx:hr>
          </gpxtpx:TrackPointExtension>
        </extensions>
      </trkpt>
      <trkpt lat="42.95869" lon="0.19782">
        <ele>1870.1999511719</ele>
        <time>2019-06-12T10:00:46.000Z</time>
      </trkpt>
      <trkpt lat="42.95868" lon="0.19795">
        <ele>1869</ele>
        <time>2019-06-12T10:00:58.000Z</time>
      </trkpt>
      <trkpt lat="42.95864" lon="0.19808">
        <ele>1867.8000488281</ele>
        <time>2019-06-12T10:01:10.000Z</time>
      </trkpt>
      <trkpt lat="42.95865" lon="0.19822">
        <ele>1866.1999511719</ele>
        <time>2019-06-12T10:01:20.000Z</time>
      </trkpt>
      <trkpt lat="42.95863" lon="0.19835">
        <ele>1864.5999755859</ele>
        <time>2019-06-12T10:01:30.000Z</time>
      </trkpt>
      <trkpt lat="42.95862" lon="0.19848">
        <ele>1863.1999511719</ele>
        <time>2019-06-12T10:01:40.000Z</time>
      </trkpt>
      <trkpt lat="42.95864" lon="0.19862">
        <ele>1861.4000244141</ele>
        <time>2019-06-12T10:01:52.000Z</time>
      </trkpt>
      <trkpt lat="42.95863" lon="0.19876">
        <ele>1859.8000488281</ele>
        <time>2019-06-12T10:02:02.000Z</time>
      </trkpt>
      <trkpt lat="42.95863" lon="0.19888">
        <ele>1858.5999755859</ele>
        <time>2019-06-12T10:02:12.000Z</time>
      </trkpt>
      <trkpt lat="42.9586" lon="0.199">
        <ele>1857.1999511719</ele>
        <time>2019-06-12T10:02:20.000Z</time>
      </trkpt>
      <trkpt lat="42.95858" lon="0.19913">
        <ele>1855.1999511719</ele>
        <time>2019-06-12T10:02:34.000Z</time>
      </trkpt>
      <trkpt lat="42.95859" lon="0.19927">
        <ele>1853</ele>
        <time>2019-06-12T10:02:48.000Z</time>
      </trkpt>
      <trkpt lat="42.9586" lon="0.19941">
        <ele>1851</ele>
        <time>2019-06-12T10:03:00.000Z</time>
      </trkpt>
      <trkpt lat="42.95862" lon="0.19956">
        <ele>1848.8000488281</ele>
        <time>2019-06-12T10:03:14.000Z</time>
      </trkpt>
      <trkpt lat="42.95865" lon="0.19968">
        <ele>1847.5999755859</ele>
        <time>2019-06-12T10:03:30.000Z</time>
      </trkpt>
      <trkpt lat="42.95865" lon="0.19982">
        <ele>1847.1999511719</ele>
        <time>2019-06-12T10:03:44.000Z</time>
      </trkpt>
      <trkpt lat="42.95869" lon="0.19995">
        <ele>1846</ele>
        <time>2019-06-12T10:03:56.000Z</time>
      </trkpt>
      <trkpt lat="42.9587" lon="0.20008">
        <ele>1843</ele>
        <time>2019-06-12T10:04:14.000Z</time>
      </trkpt>
      <trkpt lat="42.95873" lon="0.20021">
        <ele>1840.8000488281</ele>
        <time>2019-06-12T10:04:32.000Z</time>
      </trkpt>
      <trkpt lat="42.95876" lon="0.20033">
        <ele>1838.5999755859</ele>
        <time>2019-06-12T10:04:40.000Z</time>
      </trkpt>
      <trkpt lat="42.95881" lon="0.20046">
        <ele>1837</ele>
        <time>2019-06-12T10:04:52.000Z</time>
      </trkpt>
      <trkpt lat="42.95883" lon="0.20058">
        <ele>1836</ele>
        <time>2019-06-12T10:05:06.000Z</time>
      </trkpt>
      <trkpt lat="42.95888" lon="0.2007">
        <ele>1835.8000488281</ele>
        <time>2019-06-12T10:05:16.000Z</time>
      </trkpt>
      <trkpt lat="42.95892" lon="0.20083">
        <ele>1835</ele>
        <time>2019-06-12T10:05:24.000Z</time>
      </trkpt>
      <trkpt lat="42.95894" lon="0.20096">
        <ele>1833.8000488281</ele>
        <time>2019-06-12T10:05:34.000Z</time>
      </trkpt>
      <trkpt lat="42.95893" lon="0.2011">
        <ele>1829.8000488281</ele>
        <time>2019-06-12T10:05:48.000Z</time>
      </trkpt>
      <trkpt lat="42.95897" lon="0.20123">
        <ele>1827.4000244141</ele>
        <time>2019-06-12T10:05:56.000Z</time>
      </trkpt>
      <trkpt lat="42.95899" lon="0.20136">
        <ele>1824.5999755859</ele>
        <time>2019-06-12T10:06:06.000Z</time>
      </trkpt>
      <trkpt lat="42.959" lon="0.20148">
        <ele>1822.5999755859</ele>
        <time>2019-06-12T10:06:16.000Z</time>
      </trkpt>
      <trkpt lat="42.95904" lon="0.20162">
        <ele>1821.4000244141</ele>
        <time>2019-06-12T10:06:28.000Z</time>
      </trkpt>
      <trkpt lat="42.95909" lon="0.20173">
        <ele>1821.4000244141</ele>
        <time>2019-06-12T10:06:40.000Z</time>
      </trkpt>
      <trkpt lat="42.95916" lon="0.20182">
        <ele>1822.5999755859</ele>
        <time>2019-06-12T10:06:50.000Z</time>
      </trkpt>
      <trkpt lat="42.95924" lon="0.20188">
        <ele>1824.8000488281</ele>
        <time>2019-06-12T10:07:00.000Z</time>
      </trkpt>
      <trkpt lat="42.95931" lon="0.20198">
        <ele>1822.5999755859</ele>
        <time>2019-06-12T10:07:10.000Z</time>
      </trkpt>
      <trkpt lat="42.9594" lon="0.20206">
        <ele>1820.5999755859</ele>
        <time>2019-06-12T10:07:20.000Z</time>
      </trkpt>
      <trkpt lat="42.95946" lon="0.20215">
        <ele>1818.8000488281</ele>
        <time>2019-06-12T10:07:30.000Z</time>
      </trkpt>
      <trkpt lat="42.95953" lon="0.20226">
        <ele>1816.4000244141</ele>
        <time>2019-06-12T10:07:42.000Z</time>
      </trkpt>
      <trkpt lat="42.95961" lon="0.20234">
        <ele>1814.5999755859</ele>
        <time>2019-06-12T10:07:52.000Z</time>
      </trkpt>
      <trkpt lat="42.95969" lon="0.20241">
        <ele>1812.8000488281</ele>
        <time>2019-06-12T10:08:02.000Z</time>
      </trkpt>
      <trkpt lat="42.95977" lon="0.20247">
        <ele>1811.5999755859</ele>
        <time>2019-06-12T10:08:12.000Z</time>
      </trkpt>
      <trkpt lat="42.95986" lon="0.20251">
        <ele>1810.5999755859</ele>
        <time>2019-06-12T10:08:22.000Z</time>
      </trkpt>
      <trkpt lat="42.95993" lon="0.20261">
        <ele>1808.4000244141</ele>
        <time>2019-06-12T10:08:34.000Z</time>
      </trkpt>
      <trkpt lat="42.95999" lon="0.20271">
        <ele>1806.1999511719</ele>
        <time>2019-06-12T10:08:42.000Z</time>
      </trkpt>
      <trkpt lat="42.96006" lon="0.20281">
        <ele>1803.8000488281</ele>
        <time>2019-06-12T10:08:52.000Z</time>
      </trkpt>
      <trkpt lat="42.96012" lon="0.20291">
        <ele>1801</ele>
        <time>2019-06-12T10:09:02.000Z</time>
      </trkpt>
      <trkpt lat="42.96017" lon="0.20302">
        <ele>1797.5999755859</ele>
        <time>2019-06-12T10:09:12.000Z</time>
      </trkpt>
      <trkpt lat="42.96024" lon="0.2031">
        <ele>1794</ele>
        <time>2019-06-12T10:09:38.000Z</time>
      </trkpt>
      <trkpt lat="42.96033" lon="0.20317">
        <ele>1790.8000488281</ele>
        <time>2019-06-12T10:09:54.000Z</time>
      </trkpt>
      <trkpt lat="42.96042" lon="0.20321">
        <ele>1788</ele>
        <time>2019-06-12T10:10:02.000Z</time>
      </trkpt>
      <trkpt lat="42.96051" lon="0.20323">
        <ele>1785.8000488281</ele>
        <time>2019-06-12T10:10:14.000Z</time>
      </trkpt>
      <trkpt lat="42.96061" lon="0.20325">
        <ele>1783.4000244141</ele>
        <time>2019-06-12T10:10:26.000Z</time>
      </trkpt>
      <trkpt lat="42.96073" lon="0.20326">
        <ele>1781</ele>
        <time>2019-06-12T10:10:36.000Z</time>
      </trkpt>
      <trkpt lat="42.96082" lon="0.20332">
        <ele>1778</ele>
        <time>2019-06-12T10:10:48.000Z</time>
      </trkpt>
      <trkpt lat="42.96091" lon="0.20335">
        <ele>1775.5999755859</ele>
        <time>2019-06-12T10:10:58.000Z</time>
      </trkpt>
      <trkpt lat="42.96101" lon="0.20337">
        <ele>1770.8000488281</ele>
        <time>2019-06-12T10:11:12.000Z</time>
      </trkpt>
      <trkpt lat="42.96111" lon="0.20342">
        <ele>1765.4000244141</ele>
        <time>2019-06-12T10:11:22.000Z</time>
      </trkpt>
      <trkpt lat="42.96122" lon="0.20342">
        <ele>1761</ele>
        <time>2019-06-12T10:11:30.000Z</time>
      </trkpt>
      <trkpt lat="42.9613" lon="0.20348">
        <ele>1756</ele>
        <time>2019-06-12T10:11:42.000Z</time>
      </trkpt>
      <trkpt lat="42.96138" lon="0.20356">
        <ele>1750.8000488281</ele>
        <time>2019-06-12T10:11:54.000Z</time>
      </trkpt>
      <trkpt lat="42.96147" lon="0.20357">
        <ele>1746.5999755859</ele>
        <time>2019-06-12T10:12:00.000Z</time>
      </trkpt>
      <trkpt lat="42.96157" lon="0.20356">
        <ele>1743</ele>
        <time>2019-06-12T10:12:06.000Z</time>
      </trkpt>
      <trkpt lat="42.96168" lon="0.20356">
        <ele>1738.5999755859</ele>
        <time>2019-06-12T10:12:14.000Z</time>
      </trkpt>
      <trkpt lat="42.96177" lon="0.20359">
        <ele>1734.8000488281</ele>
        <time>2019-06-12T10:12:26.000Z</time>
      </trkpt>
      <trkpt lat="42.96187" lon="0.20361">
        <ele>1732.5999755859</ele>
        <time>2019-06-12T10:12:34.000Z</time>
      </trkpt>
      <trkpt lat="42.96196" lon="0.20366">
        <ele>1729.5999755859</ele>
        <time>2019-06-12T10:12:44.000Z</time>
      </trkpt>
      <trkpt lat="42.96204" lon="0.20375">
        <ele>1725.4000244141</ele>
        <time>2019-06-12T10:12:56.000Z</time>
      </trkpt>
      <trkpt lat="42.96213" lon="0.20376">
        <ele>1723.5999755859</ele>
        <time>2019-06-12T10:13:04.000Z</time>
      </trkpt>
      <trkpt lat="42.96222" lon="0.20378">
        <ele>1721.4000244141</ele>
        <time>2019-06-12T10:13:12.000Z</time>
      </trkpt>
      <trkpt lat="42.96232" lon="0.20383">
        <ele>1718</ele>
        <time>2019-06-12T10:13:24.000Z</time>
      </trkpt>
      <trkpt lat="42.96241" lon="0.20389">
        <ele>1714.4000244141</ele>
        <time>2019-06-12T10:13:34.000Z</time>
      </trkpt>
      <trkpt lat="42.96251" lon="0.20393">
        <ele>1711.4000244141</ele>
        <time>2019-06-12T10:13:50.000Z</time>
      </trkpt>
      <trkpt lat="42.96259" lon="0.20399">
        <ele>1707.5999755859</ele>
        <time>2019-06-12T10:14:04.000Z</time>
      </trkpt>
      <trkpt lat="42.96269" lon="0.20403">
        <ele>1703.5999755859</ele>
        <time>2019-06-12T10:14:14.000Z</time>
      </trkpt>
      <trkpt lat="42.9628" lon="0.20408">
        <ele>1698.8000488281</ele>
        <time>2019-06-12T10:14:24.000Z</time>
      </trkpt>
      <trkpt lat="42.96289" lon="0.20413">
        <ele>1695</ele>
        <time>2019-06-12T10:14:34.000Z</time>
      </trkpt>
      <trkpt lat="42.96298" lon="0.20415">
        <ele>1692</ele>
        <time>2019-06-12T10:14:44.000Z</time>
      </trkpt>
      <trkpt lat="42.96308" lon="0.20413">
        <ele>1690.5999755859</ele>
        <time>2019-06-12T10:14:54.000Z</time>
      </trkpt>
      <trkpt lat="42.96318" lon="0.20417">
        <ele>1686.5999755859</ele>
        <time>2019-06-12T10:15:14.000Z</time>
      </trkpt>
      <trkpt lat="42.96328" lon="0.20419">
        <ele>1684</ele>
        <time>2019-06-12T10:15:24.000Z</time>
      </trkpt>
      <trkpt lat="42.96337" lon="0.2042">
        <ele>1681.4000244141</ele>
        <time>2019-06-12T10:15:36.000Z</time>
      </trkpt>
      <trkpt lat="42.96346" lon="0.20422">
        <ele>1678.4000244141</ele>
        <time>2019-06-12T10:15:46.000Z</time>
      </trkpt>
      <trkpt lat="42.96356" lon="0.20419">
        <ele>1676.8000488281</ele>
        <time>2019-06-12T10:15:56.000Z</time>
      </trkpt>
      <trkpt lat="42.96367" lon="0.2042">
        <ele>1673.4000244141</ele>
        <time>2019-06-12T10:16:14.000Z</time>
      </trkpt>
      <trkpt lat="42.96377" lon="0.20419">
        <ele>1671</ele>
        <time>2019-06-12T10:16:26.000Z</time>
      </trkpt>
      <trkpt lat="42.96387" lon="0.20425">
        <ele>1666</ele>
        <time>2019-06-12T10:16:36.000Z</time>
      </trkpt>
      <trkpt lat="42.96396" lon="0.20429">
        <ele>1661.4000244141</ele>
        <time>2019-06-12T10:16:52.000Z</time>
      </trkpt>
      <trkpt lat="42.96405" lon="0.20428">
        <ele>1658</ele>
        <time>2019-06-12T10:17:06.000Z</time>
      </trkpt>
      <trkpt lat="42.96414" lon="0.20434">
        <ele>1653</ele>
        <time>2019-06-12T10:17:16.000Z</time>
      </trkpt>
      <trkpt lat="42.96423" lon="0.20433">
        <ele>1649.5999755859</ele>
        <time>2019-06-12T10:20:12.000Z</time>
      </trkpt>
      <trkpt lat="42.96413" lon="0.20431">
        <ele>1654</ele>
        <time>2019-06-12T10:20:52.000Z</time>
      </trkpt>
      <trkpt lat="42.96423" lon="0.20436">
        <ele>1649.1999511719</ele>
        <time>2019-06-12T10:21:32.000Z</time>
      </trkpt>
      <trkpt lat="42.96434" lon="0.20441">
        <ele>1644.4000244141</ele>
        <time>2019-06-12T10:21:50.000Z</time>
      </trkpt>
      <trkpt lat="42.96441" lon="0.20449">
        <ele>1640</ele>
        <time>2019-06-12T10:22:10.000Z</time>
      </trkpt>
      <trkpt lat="42.96449" lon="0.20457">
        <ele>1635.5999755859</ele>
        <time>2019-06-12T10:22:20.000Z</time>
      </trkpt>
      <trkpt lat="42.96458" lon="0.20454">
        <ele>1633.5999755859</ele>
        <time>2019-06-12T10:22:46.000Z</time>
      </trkpt>
      <trkpt lat="42.96466" lon="0.20463">
        <ele>1628.8000488281</ele>
        <time>2019-06-12T10:23:04.000Z</time>
      </trkpt>
      <trkpt lat="42.96476" lon="0.20469">
        <ele>1623.4000244141</ele>
        <time>2019-06-12T10:23:36.000Z</time>
      </trkpt>
      <trkpt lat="42.96485" lon="0.20476">
        <ele>1618.4000244141</ele>
        <time>2019-06-12T10:23:52.000Z</time>
      </trkpt>
      <trkpt lat="42.96493" lon="0.20485">
        <ele>1613</ele>
        <time>2019-06-12T10:24:14.000Z</time>
      </trkpt>
      <trkpt lat="42.96499" lon="0.20495">
        <ele>1607.5999755859</ele>
        <time>2019-06-12T10:24:38.000Z</time>
      </trkpt>
      <trkpt lat="42.96504" lon="0.20505">
        <ele>1602.5999755859</ele>
        <time>2019-06-12T10:24:52.000Z</time>
      </trkpt>
      <trkpt lat="42.96509" lon="0.20517">
        <ele>1597</ele>
        <time>2019-06-12T10:25:08.000Z</time>
      </trkpt>
      <trkpt lat="42.96511" lon="0.2053">
        <ele>1592.4000244141</ele>
        <time>2019-06-12T10:26:58.000Z</time>
      </trkpt>
      <trkpt lat="42.96512" lon="0.20543">
        <ele>1587.8000488281</ele>
        <time>2019-06-12T10:27:36.000Z</time>
      </trkpt>
      <trkpt lat="42.96516" lon="0.20554">
        <ele>1584.5999755859</ele>
        <time>2019-06-12T10:28:00.000Z</time>
      </trkpt>
      <trkpt lat="42.96519" lon="0.20566">
        <ele>1579.8000488281</ele>
        <time>2019-06-12T10:28:12.000Z</time>
      </trkpt>
      <trkpt lat="42.96525" lon="0.20577">
        <ele>1575.8000488281</ele>
        <time>2019-06-12T10:28:30.000Z</time>
      </trkpt>
      <trkpt lat="42.96533" lon="0.20584">
        <ele>1572.8000488281</ele>
        <time>2019-06-12T10:28:42.000Z</time>
      </trkpt>
      <trkpt lat="42.9654" lon="0.20596">
        <ele>1568.4000244141</ele>
        <time>2019-06-12T10:29:00.000Z</time>
      </trkpt>
      <trkpt lat="42.96546" lon="0.20606">
        <ele>1564.4000244141</ele>
        <time>2019-06-12T10:29:12.000Z</time>
      </trkpt>
      <trkpt lat="42.96556" lon="0.20609">
        <ele>1563.4000244141</ele>
        <time>2019-06-12T10:29:22.000Z</time>
      </trkpt>
      <trkpt lat="42.96557" lon="0.20622">
        <ele>1558.4000244141</ele>
        <time>2019-06-12T10:29:38.000Z</time>
      </trkpt>
      <trkpt lat="42.96562" lon="0.20633">
        <ele>1554.5999755859</ele>
        <time>2019-06-12T10:29:54.000Z</time>
      </trkpt>
      <trkpt lat="42.96562" lon="0.20645">
        <ele>1550.8000488281</ele>
        <time>2019-06-12T10:30:08.000Z</time>
      </trkpt>
      <trkpt lat="42.96567" lon="0.20656">
        <ele>1547.5999755859</ele>
        <time>2019-06-12T10:30:20.000Z</time>
      </trkpt>
      <trkpt lat="42.96572" lon="0.20668">
        <ele>1544.1999511719</ele>
        <time>2019-06-12T10:30:32.000Z</time>
      </trkpt>
      <trkpt lat="42.96579" lon="0.20676">
        <ele>1541.5999755859</ele>
        <time>2019-06-12T10:30:42.000Z</time>
      </trkpt>
      <trkpt lat="42.96588" lon="0.2068">
        <ele>1540.4000244141</ele>
        <time>2019-06-12T10:30:50.000Z</time>
      </trkpt>
      <trkpt lat="42.96599" lon="0.20683">
        <ele>1540.1999511719</ele>
        <time>2019-06-12T10:30:58.000Z</time>
      </trkpt>
      <trkpt lat="42.96609" lon="0.20689">
        <ele>1539.4000244141</ele>
        <time>2019-06-12T10:31:08.000Z</time>
      </trkpt>
      <trkpt lat="42.96618" lon="0.20694">
        <ele>1538.5999755859</ele>
        <time>2019-06-12T10:31:16.000Z</time>
      </trkpt>
      <trkpt lat="42.96629" lon="0.20695">
        <ele>1539.1999511719</ele>
        <time>2019-06-12T10:31:24.000Z</time>
      </trkpt>
      <trkpt lat="42.96636" lon="0.20703">
        <ele>1537.4000244141</ele>
        <time>2019-06-12T10:31:34.000Z</time>
      </trkpt>
      <trkpt lat="42.96645" lon="0.20706">
        <ele>1537.1999511719</ele>
        <time>2019-06-12T10:31:44.000Z</time>
      </trkpt>
      <trkpt lat="42.96655" lon="0.20714">
        <ele>1535.5999755859</ele>
        <time>2019-06-12T10:31:54.000Z</time>
      </trkpt>
      <trkpt lat="42.96664" lon="0.20721">
        <ele>1534.1999511719</ele>
        <time>2019-06-12T10:32:04.000Z</time>
      </trkpt>
      <trkpt lat="42.96674" lon="0.20725">
        <ele>1533.5999755859</ele>
        <time>2019-06-12T10:32:20.000Z</time>
      </trkpt>
      <trkpt lat="42.96683" lon="0.20718">
        <ele>1536</ele>
        <time>2019-06-12T10:32:30.000Z</time>
      </trkpt>
      <trkpt lat="42.96694" lon="0.20718">
        <ele>1534</ele>
        <time>2019-06-12T10:32:38.000Z</time>
      </trkpt>
      <trkpt lat="42.96704" lon="0.20723">
        <ele>1531.8000488281</ele>
        <time>2019-06-12T10:32:48.000Z</time>
      </trkpt>
      <trkpt lat="42.96712" lon="0.20732">
        <ele>1529.8000488281</ele>
        <time>2019-06-12T10:33:00.000Z</time>
      </trkpt>
      <trkpt lat="42.96719" lon="0.20741">
        <ele>1528</ele>
        <time>2019-06-12T10:33:10.000Z</time>
      </trkpt>
      <trkpt lat="42.96726" lon="0.20752">
        <ele>1526.1999511719</ele>
        <time>2019-06-12T10:33:20.000Z</time>
      </trkpt>
      <trkpt lat="42.96732" lon="0.20763">
        <ele>1524.4000244141</ele>
        <time>2019-06-12T10:33:32.000Z</time>
      </trkpt>
      <trkpt lat="42.96737" lon="0.20774">
        <ele>1523</ele>
        <time>2019-06-12T10:33:44.000Z</time>
      </trkpt>
      <trkpt lat="42.96737" lon="0.20789">
        <ele>1518.1999511719</ele>
        <time>2019-06-12T10:34:02.000Z</time>
      </trkpt>
      <trkpt lat="42.96735" lon="0.20801">
        <ele>1514.1999511719</ele>
        <time>2019-06-12T10:34:12.000Z</time>
      </trkpt>
      <trkpt lat="42.96739" lon="0.20814">
        <ele>1511</ele>
        <time>2019-06-12T10:34:22.000Z</time>
      </trkpt>
      <trkpt lat="42.96745" lon="0.20828">
        <ele>1507.8000488281</ele>
        <time>2019-06-12T10:34:32.000Z</time>
      </trkpt>
      <trkpt lat="42.96748" lon="0.20841">
        <ele>1504.4000244141</ele>
        <time>2019-06-12T10:34:42.000Z</time>
      </trkpt>
      <trkpt lat="42.96757" lon="0.20843">
        <ele>1504.8000488281</ele>
        <time>2019-06-12T10:36:30.000Z</time>
      </trkpt>
      <trkpt lat="42.96768" lon="0.20848">
        <ele>1502.8000488281</ele>
        <time>2019-06-12T10:37:02.000Z</time>
      </trkpt>
      <trkpt lat="42.96778" lon="0.2085">
        <ele>1501.8000488281</ele>
        <time>2019-06-12T10:37:10.000Z</time>
      </trkpt>
      <trkpt lat="42.96788" lon="0.20853">
        <ele>1500.1999511719</ele>
        <time>2019-06-12T10:38:02.000Z</time>
      </trkpt>
      <trkpt lat="42.96795" lon="0.20861">
        <ele>1497.8000488281</ele>
        <time>2019-06-12T10:38:12.000Z</time>
      </trkpt>
      <trkpt lat="42.96805" lon="0.20863">
        <ele>1496.4000244141</ele>
        <time>2019-06-12T10:38:20.000Z</time>
      </trkpt>
      <trkpt lat="42.96815" lon="0.20864">
        <ele>1495.5999755859</ele>
        <time>2019-06-12T10:38:28.000Z</time>
      </trkpt>
      <trkpt lat="42.96825" lon="0.20859">
        <ele>1495.5999755859</ele>
        <time>2019-06-12T10:38:38.000Z</time>
      </trkpt>
      <trkpt lat="42.96833" lon="0.20852">
        <ele>1494.1999511719</ele>
        <time>2019-06-12T10:38:46.000Z</time>
      </trkpt>
      <trkpt lat="42.96843" lon="0.2085">
        <ele>1491.5999755859</ele>
        <time>2019-06-12T10:38:54.000Z</time>
      </trkpt>
      <trkpt lat="42.96852" lon="0.20846">
        <ele>1487.8000488281</ele>
        <time>2019-06-12T10:39:12.000Z</time>
      </trkpt>
      <trkpt lat="42.96862" lon="0.20843">
        <ele>1483.8000488281</ele>
        <time>2019-06-12T10:39:26.000Z</time>
      </trkpt>
      <trkpt lat="42.96872" lon="0.20841">
        <ele>1479.5999755859</ele>
        <time>2019-06-12T10:39:34.000Z</time>
      </trkpt>
      <trkpt lat="42.96881" lon="0.20841">
        <ele>1475.5999755859</ele>
        <time>2019-06-12T10:39:44.000Z</time>
      </trkpt>
      <trkpt lat="42.96891" lon="0.20843">
        <ele>1471.1999511719</ele>
        <time>2019-06-12T10:40:00.000Z</time>
      </trkpt>
      <trkpt lat="42.96902" lon="0.20842">
        <ele>1467.4000244141</ele>
        <time>2019-06-12T10:40:12.000Z</time>
      </trkpt>
      <trkpt lat="42.96912" lon="0.20837">
        <ele>1464.8000488281</ele>
        <time>2019-06-12T10:40:24.000Z</time>
      </trkpt>
      <trkpt lat="42.96922" lon="0.20837">
        <ele>1461.1999511719</ele>
        <time>2019-06-12T10:40:36.000Z</time>
      </trkpt>
      <trkpt lat="42.96932" lon="0.20838">
        <ele>1457.5999755859</ele>
        <time>2019-06-12T10:40:46.000Z</time>
      </trkpt>
      <trkpt lat="42.96941" lon="0.20841">
        <ele>1453.5999755859</ele>
        <time>2019-06-12T10:40:58.000Z</time>
      </trkpt>
      <trkpt lat="42.96951" lon="0.20842">
        <ele>1449.4000244141</ele>
        <time>2019-06-12T10:41:12.000Z</time>
      </trkpt>
      <trkpt lat="42.9696" lon="0.20838">
        <ele>1446.5999755859</ele>
        <time>2019-06-12T10:41:22.000Z</time>
      </trkpt>
      <trkpt lat="42.9697" lon="0.20838">
        <ele>1443</ele>
        <time>2019-06-12T10:41:36.000Z</time>
      </trkpt>
      <trkpt lat="42.96979" lon="0.2083">
        <ele>1442</ele>
        <time>2019-06-12T10:41:46.000Z</time>
      </trkpt>
      <trkpt lat="42.96988" lon="0.20826">
        <ele>1440</ele>
        <time>2019-06-12T10:42:04.000Z</time>
      </trkpt>
      <trkpt lat="42.96998" lon="0.20822">
        <ele>1437.8000488281</ele>
        <time>2019-06-12T10:42:14.000Z</time>
      </trkpt>
      <trkpt lat="42.97008" lon="0.20821">
        <ele>1434.5999755859</ele>
        <time>2019-06-12T10:42:24.000Z</time>
      </trkpt>
      <trkpt lat="42.97018" lon="0.20818">
        <ele>1432.1999511719</ele>
        <time>2019-06-12T10:42:46.000Z</time>
      </trkpt>
      <trkpt lat="42.97027" lon="0.20815">
        <ele>1429.4000244141</ele>
        <time>2019-06-12T10:42:56.000Z</time>
      </trkpt>
      <trkpt lat="42.97036" lon="0.20814">
        <ele>1426.5999755859</ele>
        <time>2019-06-12T10:43:08.000Z</time>
      </trkpt>
      <trkpt lat="42.97047" lon="0.20813">
        <ele>1423.5999755859</ele>
        <time>2019-06-12T10:43:20.000Z</time>
      </trkpt>
      <trkpt lat="42.97057" lon="0.20813">
        <ele>1420.1999511719</ele>
        <time>2019-06-12T10:43:28.000Z</time>
      </trkpt>
      <trkpt lat="42.97066" lon="0.20818">
        <ele>1415.8000488281</ele>
        <time>2019-06-12T10:43:38.000Z</time>
      </trkpt>
      <trkpt lat="42.97076" lon="0.20822">
        <ele>1411.5999755859</ele>
        <time>2019-06-12T10:43:48.000Z</time>
      </trkpt>
      <trkpt lat="42.97086" lon="0.20822">
        <ele>1408.1999511719</ele>
        <time>2019-06-12T10:43:58.000Z</time>
      </trkpt>
      <trkpt lat="42.97095" lon="0.20827">
        <ele>1404.8000488281</ele>
        <time>2019-06-12T10:44:08.000Z</time>
      </trkpt>
      <trkpt lat="42.97104" lon="0.20826">
        <ele>1403.8000488281</ele>
        <time>2019-06-12T10:44:16.000Z</time>
      </trkpt>
      <trkpt lat="42.97113" lon="0.20825">
        <ele>1402.8000488281</ele>
        <time>2019-06-12T10:44:28.000Z</time>
      </trkpt>
      <trkpt lat="42.97122" lon="0.20829">
        <ele>1400.5999755859</ele>
        <time>2019-06-12T10:44:42.000Z</time>
      </trkpt>
      <trkpt lat="42.97131" lon="0.20831">
        <ele>1398.8000488281</ele>
        <time>2019-06-12T10:44:52.000Z</time>
      </trkpt>
      <trkpt lat="42.9714" lon="0.20836">
        <ele>1396.4000244141</ele>
        <time>2019-06-12T10:45:00.000Z</time>
      </trkpt>
      <trkpt lat="42.97148" lon="0.20842">
        <ele>1393.4000244141</ele>
        <time>2019-06-12T10:45:08.000Z</time>
      </trkpt>
      <trkpt lat="42.97158" lon="0.20846">
        <ele>1391</ele>
        <time>2019-06-12T10:45:16.000Z</time>
      </trkpt>
      <trkpt lat="42.97167" lon="0.20854">
        <ele>1387.5999755859</ele>
        <time>2019-06-12T10:45:28.000Z</time>
      </trkpt>
      <trkpt lat="42.97176" lon="0.20859">
        <ele>1385</ele>
        <time>2019-06-12T10:45:38.000Z</time>
      </trkpt>
      <trkpt lat="42.97186" lon="0.20862">
        <ele>1383.8000488281</ele>
        <time>2019-06-12T10:45:46.000Z</time>
      </trkpt>
      <trkpt lat="42.97195" lon="0.20869">
        <ele>1381.5999755859</ele>
        <time>2019-06-12T10:45:56.000Z</time>
      </trkpt>
      <trkpt lat="42.97203" lon="0.20876">
        <ele>1379.1999511719</ele>
        <time>2019-06-12T10:46:06.000Z</time>
      </trkpt>
      <trkpt lat="42.97211" lon="0.20883">
        <ele>1376.8000488281</ele>
        <time>2019-06-12T10:46:16.000Z</time>
      </trkpt>
      <trkpt lat="42.97219" lon="0.20889">
        <ele>1374.5999755859</ele>
        <time>2019-06-12T10:46:26.000Z</time>
      </trkpt>
      <trkpt lat="42.97227" lon="0.20897">
        <ele>1372</ele>
        <time>2019-06-12T10:46:36.000Z</time>
      </trkpt>
      <trkpt lat="42.97235" lon="0.20905">
        <ele>1369</ele>
        <time>2019-06-12T10:46:48.000Z</time>
      </trkpt>
      <trkpt lat="42.97241" lon="0.20914">
        <ele>1366.1999511719</ele>
        <time>2019-06-12T10:46:56.000Z</time>
      </trkpt>
      <trkpt lat="42.97249" lon="0.20923">
        <ele>1363.1999511719</ele>
        <time>2019-06-12T10:47:08.000Z</time>
      </trkpt>
      <trkpt lat="42.97256" lon="0.20931">
        <ele>1360.1999511719</ele>
        <time>2019-06-12T10:47:20.000Z</time>
      </trkpt>
      <trkpt lat="42.97262" lon="0.2094">
        <ele>1357.5999755859</ele>
        <time>2019-06-12T10:47:30.000Z</time>
      </trkpt>
      <trkpt lat="42.97269" lon="0.20951">
        <ele>1354.4000244141</ele>
        <time>2019-06-12T10:47:40.000Z</time>
      </trkpt>
      <trkpt lat="42.97276" lon="0.20959">
        <ele>1352</ele>
        <time>2019-06-12T10:47:48.000Z</time>
      </trkpt>
      <trkpt lat="42.97283" lon="0.20968">
        <ele>1350.5999755859</ele>
        <time>2019-06-12T10:47:56.000Z</time>
      </trkpt>
      <trkpt lat="42.97292" lon="0.20977">
        <ele>1350</ele>
        <time>2019-06-12T10:48:08.000Z</time>
      </trkpt>
      <trkpt lat="42.97299" lon="0.20986">
        <ele>1349.1999511719</ele>
        <time>2019-06-12T10:48:18.000Z</time>
      </trkpt>
      <trkpt lat="42.97307" lon="0.20994">
        <ele>1348.4000244141</ele>
        <time>2019-06-12T10:48:26.000Z</time>
      </trkpt>
      <trkpt lat="42.97315" lon="0.21003">
        <ele>1347.8000488281</ele>
        <time>2019-06-12T10:48:38.000Z</time>
      </trkpt>
      <trkpt lat="42.97321" lon="0.21014">
        <ele>1346.8000488281</ele>
        <time>2019-06-12T10:48:48.000Z</time>
      </trkpt>
      <trkpt lat="42.97328" lon="0.21024">
        <ele>1345.8000488281</ele>
        <time>2019-06-12T10:48:56.000Z</time>
      </trkpt>
      <trkpt lat="42.97335" lon="0.21032">
        <ele>1345.1999511719</ele>
        <time>2019-06-12T10:49:06.000Z</time>
      </trkpt>
      <trkpt lat="42.97339" lon="0.21043">
        <ele>1344</ele>
        <time>2019-06-12T10:49:16.000Z</time>
      </trkpt>
      <trkpt lat="42.97345" lon="0.21056">
        <ele>1342.8000488281</ele>
        <time>2019-06-12T10:49:26.000Z</time>
      </trkpt>
      <trkpt lat="42.97349" lon="0.21068">
        <ele>1341.4000244141</ele>
        <time>2019-06-12T10:49:36.000Z</time>
      </trkpt>
      <trkpt lat="42.97354" lon="0.21081">
        <ele>1339.8000488281</ele>
        <time>2019-06-12T10:49:46.000Z</time>
      </trkpt>
      <trkpt lat="42.97358" lon="0.21093">
        <ele>1338.4000244141</ele>
        <time>2019-06-12T10:49:54.000Z</time>
      </trkpt>
      <trkpt lat="42.97361" lon="0.21105">
        <ele>1336.8000488281</ele>
        <time>2019-06-12T10:50:02.000Z</time>
      </trkpt>
      <trkpt lat="42.97365" lon="0.21119">
        <ele>1335</ele>
        <time>2019-06-12T10:50:12.000Z</time>
      </trkpt>
      <trkpt lat="42.97369" lon="0.21132">
        <ele>1332.8000488281</ele>
        <time>2019-06-12T10:50:24.000Z</time>
      </trkpt>
      <trkpt lat="42.97373" lon="0.21146">
        <ele>1328.8000488281</ele>
        <time>2019-06-12T10:50:38.000Z</time>
      </trkpt>
      <trkpt lat="42.97379" lon="0.21156">
        <ele>1326</ele>
        <time>2019-06-12T10:50:56.000Z</time>
      </trkpt>
      <trkpt lat="42.97389" lon="0.21148">
        <ele>1329.4000244141</ele>
        <time>2019-06-12T10:51:04.000Z</time>
      </trkpt>
      <trkpt lat="42.97382" lon="0.21158">
        <ele>1325.5999755859</ele>
        <time>2019-06-12T10:52:14.000Z</time>
      </trkpt>
      <trkpt lat="42.9739" lon="0.21149">
        <ele>1329</ele>
        <time>2019-06-12T10:55:20.000Z</time>
      </trkpt>
      <trkpt lat="42.97399" lon="0.21148">
        <ele>1330</ele>
        <time>2019-06-12T10:55:38.000Z</time>
      </trkpt>
      <trkpt lat="42.97408" lon="0.21146">
        <ele>1331.4000244141</ele>
        <time>2019-06-12T10:55:50.000Z</time>
      </trkpt>
      <trkpt lat="42.97415" lon="0.2114">
        <ele>1333.8000488281</ele>
        <time>2019-06-12T10:55:58.000Z</time>
      </trkpt>
      <trkpt lat="42.97424" lon="0.21134">
        <ele>1336.1999511719</ele>
        <time>2019-06-12T10:56:10.000Z</time>
      </trkpt>
      <trkpt lat="42.97433" lon="0.21138">
        <ele>1332.1999511719</ele>
        <time>2019-06-12T10:56:22.000Z</time>
      </trkpt>
      <trkpt lat="42.97442" lon="0.21143">
        <ele>1327.5999755859</ele>
        <time>2019-06-12T10:56:46.000Z</time>
      </trkpt>
      <trkpt lat="42.97451" lon="0.2114">
        <ele>1325.1999511719</ele>
        <time>2019-06-12T10:56:56.000Z</time>
      </trkpt>
      <trkpt lat="42.97461" lon="0.21138">
        <ele>1322.1999511719</ele>
        <time>2019-06-12T10:57:06.000Z</time>
      </trkpt>
      <trkpt lat="42.97471" lon="0.21142">
        <ele>1317.4000244141</ele>
        <time>2019-06-12T10:57:18.000Z</time>
      </trkpt>
      <trkpt lat="42.97481" lon="0.21142">
        <ele>1314</ele>
        <time>2019-06-12T10:57:30.000Z</time>
      </trkpt>
      <trkpt lat="42.97489" lon="0.21134">
        <ele>1314</ele>
        <time>2019-06-12T10:57:42.000Z</time>
      </trkpt>
      <trkpt lat="42.97498" lon="0.21125">
        <ele>1312.1999511719</ele>
        <time>2019-06-12T10:57:52.000Z</time>
      </trkpt>
      <trkpt lat="42.97507" lon="0.21118">
        <ele>1309.1999511719</ele>
        <time>2019-06-12T10:58:00.000Z</time>
      </trkpt>
      <trkpt lat="42.97516" lon="0.21123">
        <ele>1307.1999511719</ele>
        <time>2019-06-12T10:58:10.000Z</time>
      </trkpt>
      <trkpt lat="42.97525" lon="0.21129">
        <ele>1305.1999511719</ele>
        <time>2019-06-12T10:58:20.000Z</time>
      </trkpt>
      <trkpt lat="42.97537" lon="0.21128">
        <ele>1302.8000488281</ele>
        <time>2019-06-12T10:58:30.000Z</time>
      </trkpt>
      <trkpt lat="42.97546" lon="0.21128">
        <ele>1300.8000488281</ele>
        <time>2019-06-12T10:58:38.000Z</time>
      </trkpt>
      <trkpt lat="42.97555" lon="0.21133">
        <ele>1297.1999511719</ele>
        <time>2019-06-12T10:58:48.000Z</time>
      </trkpt>
      <trkpt lat="42.97564" lon="0.21137">
        <ele>1294</ele>
        <time>2019-06-12T10:58:58.000Z</time>
      </trkpt>
      <trkpt lat="42.97575" lon="0.21138">
        <ele>1291.8000488281</ele>
        <time>2019-06-12T10:59:08.000Z</time>
      </trkpt>
      <trkpt lat="42.97585" lon="0.21138">
        <ele>1289.4000244141</ele>
        <time>2019-06-12T10:59:16.000Z</time>
      </trkpt>
      <trkpt lat="42.97594" lon="0.21145">
        <ele>1285.8000488281</ele>
        <time>2019-06-12T10:59:28.000Z</time>
      </trkpt>
      <trkpt lat="42.97601" lon="0.21153">
        <ele>1283.4000244141</ele>
        <time>2019-06-12T10:59:36.000Z</time>
      </trkpt>
      <trkpt lat="42.97608" lon="0.21162">
        <ele>1280.5999755859</ele>
        <time>2019-06-12T10:59:44.000Z</time>
      </trkpt>
      <trkpt lat="42.97617" lon="0.21166">
        <ele>1279.4000244141</ele>
        <time>2019-06-12T10:59:52.000Z</time>
      </trkpt>
      <trkpt lat="42.97625" lon="0.2117">
        <ele>1278</ele>
        <time>2019-06-12T11:00:00.000Z</time>
      </trkpt>
      <trkpt lat="42.97634" lon="0.21177">
        <ele>1276</ele>
        <time>2019-06-12T11:00:08.000Z</time>
      </trkpt>
      <trkpt lat="42.97644" lon="0.21181">
        <ele>1274.8000488281</ele>
        <time>2019-06-12T11:00:16.000Z</time>
      </trkpt>
      <trkpt lat="42.97653" lon="0.21185">
        <ele>1272.8000488281</ele>
        <time>2019-06-12T11:00:24.000Z</time>
      </trkpt>
      <trkpt lat="42.97663" lon="0.2119">
        <ele>1270.8000488281</ele>
        <time>2019-06-12T11:00:34.000Z</time>
      </trkpt>
      <trkpt lat="42.97672" lon="0.21196">
        <ele>1268.8000488281</ele>
        <time>2019-06-12T11:00:44.000Z</time>
      </trkpt>
      <trkpt lat="42.97677" lon="0.21207">
        <ele>1265.8000488281</ele>
        <time>2019-06-12T11:00:54.000Z</time>
      </trkpt>
      <trkpt lat="42.97687" lon="0.21217">
        <ele>1262.5999755859</ele>
        <time>2019-06-12T11:01:02.000Z</time>
      </trkpt>
      <trkpt lat="42.97693" lon="0.21226">
        <ele>1260.1999511719</ele>
        <time>2019-06-12T11:01:10.000Z</time>
      </trkpt>
      <trkpt lat="42.97699" lon="0.21237">
        <ele>1257.5999755859</ele>
        <time>2019-06-12T11:01:22.000Z</time>
      </trkpt>
      <trkpt lat="42.97709" lon="0.21239">
        <ele>1255.8000488281</ele>
        <time>2019-06-12T11:01:28.000Z</time>
      </trkpt>
      <trkpt lat="42.97721" lon="0.21242">
        <ele>1254</ele>
        <time>2019-06-12T11:01:34.000Z</time>
      </trkpt>
      <trkpt lat="42.97713" lon="0.21247">
        <ele>1254.1999511719</ele>
        <time>2019-06-12T11:03:26.000Z</time>
      </trkpt>
      <trkpt lat="42.97723" lon="0.21248">
        <ele>1252.8000488281</ele>
        <time>2019-06-12T11:03:32.000Z</time>
      </trkpt>
      <trkpt lat="42.97725" lon="0.2126">
        <ele>1250.1999511719</ele>
        <time>2019-06-12T11:05:02.000Z</time>
      </trkpt>
      <trkpt lat="42.97733" lon="0.21267">
        <ele>1248.1999511719</ele>
        <time>2019-06-12T11:05:16.000Z</time>
      </trkpt>
      <trkpt lat="42.97741" lon="0.21272">
        <ele>1246.1999511719</ele>
        <time>2019-06-12T11:05:26.000Z</time>
      </trkpt>
      <trkpt lat="42.97748" lon="0.2128">
        <ele>1243.8000488281</ele>
        <time>2019-06-12T11:05:36.000Z</time>
      </trkpt>
      <trkpt lat="42.97755" lon="0.21288">
        <ele>1241.5999755859</ele>
        <time>2019-06-12T11:05:46.000Z</time>
      </trkpt>
      <trkpt lat="42.97763" lon="0.21297">
        <ele>1239.4000244141</ele>
        <time>2019-06-12T11:06:04.000Z</time>
      </trkpt>
      <trkpt lat="42.97772" lon="0.21301">
        <ele>1238.1999511719</ele>
        <time>2019-06-12T11:06:10.000Z</time>
      </trkpt>
      <trkpt lat="42.9778" lon="0.21308">
        <ele>1236.4000244141</ele>
        <time>2019-06-12T11:06:22.000Z</time>
      </trkpt>
      <trkpt lat="42.97789" lon="0.21312">
        <ele>1235.1999511719</ele>
        <time>2019-06-12T11:06:32.000Z</time>
      </trkpt>
      <trkpt lat="42.97797" lon="0.21322">
        <ele>1232.8000488281</ele>
        <time>2019-06-12T11:06:46.000Z</time>
      </trkpt>
      <trkpt lat="42.97805" lon="0.2133">
        <ele>1230.8000488281</ele>
        <time>2019-06-12T11:06:58.000Z</time>
      </trkpt>
      <trkpt lat="42.97814" lon="0.21336">
        <ele>1229.1999511719</ele>
        <time>2019-06-12T11:07:10.000Z</time>
      </trkpt>
      <trkpt lat="42.97822" lon="0.2134">
        <ele>1228</ele>
        <time>2019-06-12T11:07:18.000Z</time>
      </trkpt>
      <trkpt lat="42.97831" lon="0.21346">
        <ele>1226.4000244141</ele>
        <time>2019-06-12T11:07:28.000Z</time>
      </trkpt>
      <trkpt lat="42.97838" lon="0.21354">
        <ele>1224.4000244141</ele>
        <time>2019-06-12T11:07:42.000Z</time>
      </trkpt>
      <trkpt lat="42.9783" lon="0.2136">
        <ele>1223.4000244141</ele>
        <time>2019-06-12T11:08:36.000Z</time>
      </trkpt>
      <trkpt lat="42.97821" lon="0.21365">
        <ele>1221.8000488281</ele>
        <time>2019-06-12T11:09:04.000Z</time>
      </trkpt>
      <trkpt lat="42.97822" lon="0.21351">
        <ele>1225.5999755859</ele>
        <time>2019-06-12T11:10:00.000Z</time>
      </trkpt>
      <trkpt lat="42.97826" lon="0.21363">
        <ele>1222.8000488281</ele>
        <time>2019-06-12T11:11:10.000Z</time>
      </trkpt>
      <trkpt lat="42.97835" lon="0.21358">
        <ele>1223.8000488281</ele>
        <time>2019-06-12T11:11:34.000Z</time>
      </trkpt>
      <trkpt lat="42.97825" lon="0.21358">
        <ele>1224</ele>
        <time>2019-06-12T11:12:26.000Z</time>
      </trkpt>
      <trkpt lat="42.97829" lon="0.21361">
        <ele>1223.1999511719</ele>
        <time>2019-06-12T11:12:57.000Z</time>
      </trkpt>
      <trkpt lat="42.97816" lon="0.21363">
        <ele>1222.1999511719</ele>
        <time>2019-06-12T11:15:35.000Z</time>
        <extensions>
          <gpxtpx:TrackPointExtension xmlns:gpxtpx="http://www.garmin.com/xmlschemas/TrackPointExtension/v1">
            <gpxtpx:hr>100</gpxtpx:hr>
          </gpxtpx:TrackPointExtension>
        </extensions>
      </trkpt>
      <trkpt lat="42.97827" lon="0.2136">
        <ele>1223.5999755859</ele>
        <time>2019-06-12T11:15:53.000Z</time>
      </trkpt>
      <trkpt lat="42.97819" lon="0.2137">
        <ele>1219.8000488281</ele>
        <time>2019-06-12T11:20:25.000Z</time>
      </trkpt>
      <trkpt lat="42.97822" lon="0.21383">
        <ele>1216.1999511719</ele>
        <time>2019-06-12T11:20:59.000Z</time>
      </trkpt>
      <trkpt lat="42.97831" lon="0.21391">
        <ele>1215</ele>
        <time>2019-06-12T11:21:11.000Z</time>
      </trkpt>
      <trkpt lat="42.97835" lon="0.21403">
        <ele>1212.1999511719</ele>
        <time>2019-06-12T11:21:23.000Z</time>
      </trkpt>
      <trkpt lat="42.9784" lon="0.21415">
        <ele>1209.5999755859</ele>
        <time>2019-06-12T11:21:35.000Z</time>
      </trkpt>
      <trkpt lat="42.97846" lon="0.21426">
        <ele>1206.8000488281</ele>
        <time>2019-06-12T11:21:51.000Z</time>
      </trkpt>
      <trkpt lat="42.9785" lon="0.21437">
        <ele>1203.8000488281</ele>
        <time>2019-06-12T11:22:01.000Z</time>
      </trkpt>
      <trkpt lat="42.97854" lon="0.2145">
        <ele>1200.4000244141</ele>
        <time>2019-06-12T11:22:09.000Z</time>
      </trkpt>
      <trkpt lat="42.97862" lon="0.21458">
        <ele>1198</ele>
        <time>2019-06-12T11:22:35.000Z</time>
      </trkpt>
      <trkpt lat="42.97858" lon="0.2147">
        <ele>1193.8000488281</ele>
        <time>2019-06-12T11:22:51.000Z</time>
      </trkpt>
      <trkpt lat="42.97847" lon="0.21473">
        <ele>1193.1999511719</ele>
        <time>2019-06-12T11:23:11.000Z</time>
      </trkpt>
      <trkpt lat="42.97837" lon="0.21475">
        <ele>1191.8000488281</ele>
        <time>2019-06-12T11:23:19.000Z</time>
      </trkpt>
      <trkpt lat="42.9783" lon="0.21464">
        <ele>1195</ele>
        <time>2019-06-12T11:23:25.000Z</time>
      </trkpt>
      <trkpt lat="42.97824" lon="0.21454">
        <ele>1197.4000244141</ele>
        <time>2019-06-12T11:23:35.000Z</time>
      </trkpt>
      <trkpt lat="42.97812" lon="0.2145">
        <ele>1196.5999755859</ele>
        <time>2019-06-12T11:23:49.000Z</time>
      </trkpt>
      <trkpt lat="42.97804" lon="0.21444">
        <ele>1197.1999511719</ele>
        <time>2019-06-12T11:23:57.000Z</time>
      </trkpt>
      <trkpt lat="42.97796" lon="0.21436">
        <ele>1198.4000244141</ele>
        <time>2019-06-12T11:24:09.000Z</time>
      </trkpt>
      <trkpt lat="42.97786" lon="0.21439">
        <ele>1195.1999511719</ele>
        <time>2019-06-12T11:24:19.000Z</time>
      </trkpt>
      <trkpt lat="42.97776" lon="0.21437">
        <ele>1194</ele>
        <time>2019-06-12T11:24:33.000Z</time>
      </trkpt>
      <trkpt lat="42.97765" lon="0.21439">
        <ele>1191</ele>
        <time>2019-06-12T11:24:55.000Z</time>
      </trkpt>
      <trkpt lat="42.97755" lon="0.21436">
        <ele>1190.1999511719</ele>
        <time>2019-06-12T11:25:09.000Z</time>
      </trkpt>
      <trkpt lat="42.97747" lon="0.21427">
        <ele>1191.8000488281</ele>
        <time>2019-06-12T11:25:17.000Z</time>
      </trkpt>
      <trkpt lat="42.97742" lon="0.21438">
        <ele>1186.8000488281</ele>
        <time>2019-06-12T11:25:41.000Z</time>
      </trkpt>
      <trkpt lat="42.97732" lon="0.21436">
        <ele>1185.5999755859</ele>
        <time>2019-06-12T11:25:51.000Z</time>
      </trkpt>
      <trkpt lat="42.97725" lon="0.21446">
        <ele>1179.8000488281</ele>
        <time>2019-06-12T11:26:01.000Z</time>
      </trkpt>
      <trkpt lat="42.97715" lon="0.21445">
        <ele>1178</ele>
        <time>2019-06-12T11:26:21.000Z</time>
      </trkpt>
      <trkpt lat="42.97709" lon="0.21454">
        <ele>1172.5999755859</ele>
        <time>2019-06-12T11:26:39.000Z</time>
      </trkpt>
      <trkpt lat="42.97699" lon="0.21459">
        <ele>1168</ele>
        <time>2019-06-12T11:26:45.000Z</time>
      </trkpt>
      <trkpt lat="42.97687" lon="0.21456">
        <ele>1166.5999755859</ele>
        <time>2019-06-12T11:26:53.000Z</time>
      </trkpt>
      <trkpt lat="42.97677" lon="0.2146">
        <ele>1162.1999511719</ele>
        <time>2019-06-12T11:27:09.000Z</time>
      </trkpt>
      <trkpt lat="42.97668" lon="0.21461">
        <ele>1161.1999511719</ele>
        <time>2019-06-12T11:27:23.000Z</time>
      </trkpt>
      <trkpt lat="42.97658" lon="0.21463">
        <ele>1160.4000244141</ele>
        <time>2019-06-12T11:27:33.000Z</time>
      </trkpt>
      <trkpt lat="42.97648" lon="0.21469">
        <ele>1158.1999511719</ele>
        <time>2019-06-12T11:27:43.000Z</time>
      </trkpt>
      <trkpt lat="42.97642" lon="0.2146">
        <ele>1161.5999755859</ele>
        <time>2019-06-12T11:28:01.000Z</time>
      </trkpt>
      <trkpt lat="42.97633" lon="0.21464">
        <ele>1160</ele>
        <time>2019-06-12T11:28:11.000Z</time>
      </trkpt>
      <trkpt lat="42.9764" lon="0.21474">
        <ele>1156.4000244141</ele>
        <time>2019-06-12T11:28:31.000Z</time>
      </trkpt>
      <trkpt lat="42.97632" lon="0.21482">
        <ele>1153.4000244141</ele>
        <time>2019-06-12T11:28:43.000Z</time>
      </trkpt>
      <trkpt lat="42.97623" lon="0.21483">
        <ele>1153.1999511719</ele>
        <time>2019-06-12T11:28:51.000Z</time>
      </trkpt>
      <trkpt lat="42.97614" lon="0.21486">
        <ele>1152</ele>
        <time>2019-06-12T11:28:57.000Z</time>
      </trkpt>
      <trkpt lat="42.97607" lon="0.21495">
        <ele>1150</ele>
        <time>2019-06-12T11:29:19.000Z</time>
      </trkpt>
      <trkpt lat="42.97603" lon="0.21508">
        <ele>1146.8000488281</ele>
        <time>2019-06-12T11:29:41.000Z</time>
      </trkpt>
      <trkpt lat="42.97597" lon="0.21517">
        <ele>1144.5999755859</ele>
        <time>2019-06-12T11:30:05.000Z</time>
      </trkpt>
      <trkpt lat="42.97594" lon="0.21531">
        <ele>1140.8000488281</ele>
        <time>2019-06-12T11:30:15.000Z</time>
      </trkpt>
      <trkpt lat="42.97592" lon="0.21546">
        <ele>1136.8000488281</ele>
        <time>2019-06-12T11:30:23.000Z</time>
      </trkpt>
      <trkpt lat="42.97587" lon="0.21561">
        <ele>1132.4000244141</ele>
        <time>2019-06-12T11:30:31.000Z</time>
      </trkpt>
      <trkpt lat="42.97586" lon="0.21573">
        <ele>1128</ele>
        <time>2019-06-12T11:30:39.000Z</time>
      </trkpt>
      <trkpt lat="42.97575" lon="0.21578">
        <ele>1128.8000488281</ele>
        <time>2019-06-12T11:31:03.000Z</time>
      </trkpt>
      <trkpt lat="42.97568" lon="0.21587">
        <ele>1127</ele>
        <time>2019-06-12T11:31:11.000Z</time>
      </trkpt>
      <trkpt lat="42.97559" lon="0.21591">
        <ele>1127.5999755859</ele>
        <time>2019-06-12T11:31:21.000Z</time>
      </trkpt>
      <trkpt lat="42.97551" lon="0.21601">
        <ele>1127</ele>
        <time>2019-06-12T11:31:39.000Z</time>
      </trkpt>
      <trkpt lat="42.97544" lon="0.21614">
        <ele>1125.4000244141</ele>
        <time>2019-06-12T11:31:47.000Z</time>
      </trkpt>
      <trkpt lat="42.97537" lon="0.21623">
        <ele>1125.1999511719</ele>
        <time>2019-06-12T11:31:59.000Z</time>
      </trkpt>
      <trkpt lat="42.97533" lon="0.21637">
        <ele>1122.5999755859</ele>
        <time>2019-06-12T11:32:05.000Z</time>
      </trkpt>
      <trkpt lat="42.97526" lon="0.21645">
        <ele>1122</ele>
        <time>2019-06-12T11:32:15.000Z</time>
      </trkpt>
      <trkpt lat="42.97519" lon="0.21652">
        <ele>1121.8000488281</ele>
        <time>2019-06-12T11:32:27.000Z</time>
      </trkpt>
      <trkpt lat="42.97509" lon="0.21656">
        <ele>1122.8000488281</ele>
        <time>2019-06-12T11:32:43.000Z</time>
      </trkpt>
      <trkpt lat="42.97509" lon="0.21671">
        <ele>1117.5999755859</ele>
        <time>2019-06-12T11:32:59.000Z</time>
      </trkpt>
      <trkpt lat="42.97499" lon="0.21676">
        <ele>1116.5999755859</ele>
        <time>2019-06-12T11:33:11.000Z</time>
      </trkpt>
      <trkpt lat="42.97492" lon="0.21687">
        <ele>1112.8000488281</ele>
        <time>2019-06-12T11:33:23.000Z</time>
      </trkpt>
      <trkpt lat="42.97485" lon="0.21698">
        <ele>1108.8000488281</ele>
        <time>2019-06-12T11:33:31.000Z</time>
      </trkpt>
      <trkpt lat="42.97478" lon="0.21708">
        <ele>1104.4000244141</ele>
        <time>2019-06-12T11:33:47.000Z</time>
      </trkpt>
      <trkpt lat="42.97474" lon="0.21721">
        <ele>1099.4000244141</ele>
        <time>2019-06-12T11:33:57.000Z</time>
      </trkpt>
      <trkpt lat="42.97467" lon="0.21731">
        <ele>1095.8000488281</ele>
        <time>2019-06-12T11:34:05.000Z</time>
      </trkpt>
      <trkpt lat="42.97461" lon="0.21742">
        <ele>1092</ele>
        <time>2019-06-12T11:34:25.000Z</time>
      </trkpt>
      <trkpt lat="42.97457" lon="0.21753">
        <ele>1087.5999755859</ele>
        <time>2019-06-12T11:34:39.000Z</time>
      </trkpt>
      <trkpt lat="42.9745" lon="0.21761">
        <ele>1083.4000244141</ele>
        <time>2019-06-12T11:34:51.000Z</time>
        <extensions>
          <gpxtpx:TrackPointExtension xmlns:gpxtpx="http://www.garmin.com/xmlschemas/TrackPointExtension/v1">
            <gpxtpx:hr>107</gpxtpx:hr>
          </gpxtpx:TrackPointExtension>
        </extensions>
      </trkpt>
      <trkpt lat="42.9744" lon="0.21763">
        <ele>1082</ele>
        <time>2019-06-12T11:35:07.000Z</time>
        <extensions>
          <gpxtpx:TrackPointExtension xmlns:gpxtpx="http://www.garmin.com/xmlschemas/TrackPointExtension/v1">
            <gpxtpx:hr>107</gpxtpx:hr>
          </gpxtpx:TrackPointExtension>
        </extensions>
      </trkpt>
      <trkpt lat="42.97429" lon="0.21777">
        <ele>1074.8000488281</ele>
        <time>2019-06-12T11:35:25.000Z</time>
        <extensions>
          <gpxtpx:TrackPointExtension xmlns:gpxtpx="http://www.garmin.com/xmlschemas/TrackPointExtension/v1">
            <gpxtpx:hr>107</gpxtpx:hr>
          </gpxtpx:TrackPointExtension>
        </extensions>
      </trkpt>
      <trkpt lat="42.97449" lon="0.21766">
        <ele>1081.4000244141</ele>
        <time>2019-06-12T11:35:33.000Z</time>
        <extensions>
          <gpxtpx:TrackPointExtension xmlns:gpxtpx="http://www.garmin.com/xmlschemas/TrackPointExtension/v1">
            <gpxtpx:hr>107</gpxtpx:hr>
          </gpxtpx:TrackPointExtension>
        </extensions>
      </trkpt>
      <trkpt lat="42.97436" lon="0.21773">
        <ele>1077.4000244141</ele>
        <time>2019-06-12T11:35:39.000Z</time>
        <extensions>
          <gpxtpx:TrackPointExtension xmlns:gpxtpx="http://www.garmin.com/xmlschemas/TrackPointExtension/v1">
            <gpxtpx:hr>107</gpxtpx:hr>
          </gpxtpx:TrackPointExtension>
        </extensions>
      </trkpt>
      <trkpt lat="42.97436" lon="0.21758">
        <ele>1083.4000244141</ele>
        <time>2019-06-12T11:36:03.000Z</time>
        <extensions>
          <gpxtpx:TrackPointExtension xmlns:gpxtpx="http://www.garmin.com/xmlschemas/TrackPointExtension/v1">
            <gpxtpx:hr>107</gpxtpx:hr>
          </gpxtpx:TrackPointExtension>
        </extensions>
      </trkpt>
      <trkpt lat="42.97425" lon="0.21762">
        <ele>1080.8000488281</ele>
        <time>2019-06-12T11:36:15.000Z</time>
      </trkpt>
      <trkpt lat="42.97416" lon="0.21766">
        <ele>1078.1999511719</ele>
        <time>2019-06-12T11:36:35.000Z</time>
      </trkpt>
      <trkpt lat="42.97422" lon="0.21776">
        <ele>1074.8000488281</ele>
        <time>2019-06-12T11:36:49.000Z</time>
      </trkpt>
      <trkpt lat="42.97415" lon="0.21786">
        <ele>1069.5999755859</ele>
        <time>2019-06-12T11:37:23.000Z</time>
      </trkpt>
      <trkpt lat="42.97405" lon="0.21793">
        <ele>1065.5999755859</ele>
        <time>2019-06-12T11:37:41.000Z</time>
      </trkpt>
      <trkpt lat="42.97396" lon="0.21788">
        <ele>1066.1999511719</ele>
        <time>2019-06-12T11:38:03.000Z</time>
      </trkpt>
      <trkpt lat="42.9739" lon="0.21779">
        <ele>1069</ele>
        <time>2019-06-12T11:38:17.000Z</time>
      </trkpt>
      <trkpt lat="42.97378" lon="0.2178">
        <ele>1067.4000244141</ele>
        <time>2019-06-12T11:38:23.000Z</time>
      </trkpt>
      <trkpt lat="42.97369" lon="0.2178">
        <ele>1066</ele>
        <time>2019-06-12T11:38:33.000Z</time>
      </trkpt>
      <trkpt lat="42.97361" lon="0.21773">
        <ele>1067.5999755859</ele>
        <time>2019-06-12T11:38:39.000Z</time>
      </trkpt>
      <trkpt lat="42.97354" lon="0.21771">
        <ele>1067.4000244141</ele>
        <time>2019-06-12T11:38:47.000Z</time>
      </trkpt>
      <trkpt lat="42.9735" lon="0.21756">
        <ele>1073.1999511719</ele>
        <time>2019-06-12T11:38:57.000Z</time>
        <extensions>
          <gpxtpx:TrackPointExtension xmlns:gpxtpx="http://www.garmin.com/xmlschemas/TrackPointExtension/v1">
            <gpxtpx:hr>119</gpxtpx:hr>
          </gpxtpx:TrackPointExtension>
        </extensions>
      </trkpt>
      <trkpt lat="42.97343" lon="0.21745">
        <ele>1076.8000488281</ele>
        <time>2019-06-12T11:39:03.000Z</time>
        <extensions>
          <gpxtpx:TrackPointExtension xmlns:gpxtpx="http://www.garmin.com/xmlschemas/TrackPointExtension/v1">
            <gpxtpx:hr>119</gpxtpx:hr>
          </gpxtpx:TrackPointExtension>
        </extensions>
      </trkpt>
      <trkpt lat="42.97329" lon="0.21744">
        <ele>1076.8000488281</ele>
        <time>2019-06-12T11:39:09.000Z</time>
        <extensions>
          <gpxtpx:TrackPointExtension xmlns:gpxtpx="http://www.garmin.com/xmlschemas/TrackPointExtension/v1">
            <gpxtpx:hr>119</gpxtpx:hr>
          </gpxtpx:TrackPointExtension>
        </extensions>
      </trkpt>
      <trkpt lat="42.97328" lon="0.2173">
        <ele>1082.5999755859</ele>
        <time>2019-06-12T11:39:15.000Z</time>
        <extensions>
          <gpxtpx:TrackPointExtension xmlns:gpxtpx="http://www.garmin.com/xmlschemas/TrackPointExtension/v1">
            <gpxtpx:hr>119</gpxtpx:hr>
          </gpxtpx:TrackPointExtension>
        </extensions>
      </trkpt>
      <trkpt lat="42.97319" lon="0.21736">
        <ele>1080.1999511719</ele>
        <time>2019-06-12T11:39:25.000Z</time>
        <extensions>
          <gpxtpx:TrackPointExtension xmlns:gpxtpx="http://www.garmin.com/xmlschemas/TrackPointExtension/v1">
            <gpxtpx:hr>119</gpxtpx:hr>
          </gpxtpx:TrackPointExtension>
        </extensions>
      </trkpt>
      <trkpt lat="42.9731" lon="0.2174">
        <ele>1078.5999755859</ele>
        <time>2019-06-12T11:39:47.000Z</time>
        <extensions>
          <gpxtpx:TrackPointExtension xmlns:gpxtpx="http://www.garmin.com/xmlschemas/TrackPointExtension/v1">
            <gpxtpx:hr>119</gpxtpx:hr>
          </gpxtpx:TrackPointExtension>
        </extensions>
      </trkpt>
      <trkpt lat="42.97301" lon="0.21745">
        <ele>1076.5999755859</ele>
        <time>2019-06-12T11:39:55.000Z</time>
        <extensions>
          <gpxtpx:TrackPointExtension xmlns:gpxtpx="http://www.garmin.com/xmlschemas/TrackPointExtension/v1">
            <gpxtpx:hr>119</gpxtpx:hr>
          </gpxtpx:TrackPointExtension>
        </extensions>
      </trkpt>
      <trkpt lat="42.97297" lon="0.21756">
        <ele>1071.8000488281</ele>
        <time>2019-06-12T11:40:17.000Z</time>
        <extensions>
          <gpxtpx:TrackPointExtension xmlns:gpxtpx="http://www.garmin.com/xmlschemas/TrackPointExtension/v1">
            <gpxtpx:hr>119</gpxtpx:hr>
          </gpxtpx:TrackPointExtension>
        </extensions>
      </trkpt>
      <trkpt lat="42.97287" lon="0.21748">
        <ele>1075.1999511719</ele>
        <time>2019-06-12T11:40:25.000Z</time>
      </trkpt>
      <trkpt lat="42.97278" lon="0.21739">
        <ele>1078.8000488281</ele>
        <time>2019-06-12T11:40:35.000Z</time>
      </trkpt>
      <trkpt lat="42.97268" lon="0.21738">
        <ele>1079</ele>
        <time>2019-06-12T11:40:45.000Z</time>
      </trkpt>
      <trkpt lat="42.97258" lon="0.21734">
        <ele>1080.8000488281</ele>
        <time>2019-06-12T11:40:57.000Z</time>
      </trkpt>
      <trkpt lat="42.97248" lon="0.2174">
        <ele>1078.4000244141</ele>
        <time>2019-06-12T11:41:05.000Z</time>
      </trkpt>
      <trkpt lat="42.97239" lon="0.21738">
        <ele>1079.1999511719</ele>
        <time>2019-06-12T11:41:11.000Z</time>
      </trkpt>
      <trkpt lat="42.9723" lon="0.21738">
        <ele>1079</ele>
        <time>2019-06-12T11:41:17.000Z</time>
      </trkpt>
      <trkpt lat="42.97221" lon="0.21742">
        <ele>1077.1999511719</ele>
        <time>2019-06-12T11:41:23.000Z</time>
      </trkpt>
      <trkpt lat="42.97217" lon="0.21729">
        <ele>1082.5999755859</ele>
        <time>2019-06-12T11:41:37.000Z</time>
      </trkpt>
      <trkpt lat="42.97194" lon="0.21733">
        <ele>1081.4000244141</ele>
        <time>2019-06-12T11:41:43.000Z</time>
      </trkpt>
      <trkpt lat="42.97181" lon="0.2173">
        <ele>1083.8000488281</ele>
        <time>2019-06-12T11:41:49.000Z</time>
      </trkpt>
      <trkpt lat="42.97174" lon="0.21722">
        <ele>1087.1999511719</ele>
        <time>2019-06-12T11:42:01.000Z</time>
      </trkpt>
      <trkpt lat="42.97172" lon="0.21709">
        <ele>1091.8000488281</ele>
        <time>2019-06-12T11:42:11.000Z</time>
      </trkpt>
      <trkpt lat="42.97163" lon="0.217">
        <ele>1096.8000488281</ele>
        <time>2019-06-12T11:42:17.000Z</time>
      </trkpt>
      <trkpt lat="42.9717" lon="0.21684">
        <ele>1097.8000488281</ele>
        <time>2019-06-12T11:42:23.000Z</time>
      </trkpt>
      <trkpt lat="42.97158" lon="0.21697">
        <ele>1099.5999755859</ele>
        <time>2019-06-12T11:42:29.000Z</time>
      </trkpt>
      <trkpt lat="42.97149" lon="0.21693">
        <ele>1103.5999755859</ele>
        <time>2019-06-12T11:42:37.000Z</time>
      </trkpt>
      <trkpt lat="42.97146" lon="0.21706">
        <ele>1101.5999755859</ele>
        <time>2019-06-12T11:43:39.000Z</time>
      </trkpt>
      <trkpt lat="42.97143" lon="0.21719">
        <ele>1098.8000488281</ele>
        <time>2019-06-12T11:43:47.000Z</time>
      </trkpt>
      <trkpt lat="42.97144" lon="0.21733">
        <ele>1094.1999511719</ele>
        <time>2019-06-12T11:43:59.000Z</time>
      </trkpt>
      <trkpt lat="42.97141" lon="0.21745">
        <ele>1091.1999511719</ele>
        <time>2019-06-12T11:44:07.000Z</time>
      </trkpt>
      <trkpt lat="42.97135" lon="0.21754">
        <ele>1090.5999755859</ele>
        <time>2019-06-12T11:44:19.000Z</time>
      </trkpt>
      <trkpt lat="42.97131" lon="0.21766">
        <ele>1089</ele>
        <time>2019-06-12T11:44:39.000Z</time>
      </trkpt>
      <trkpt lat="42.97126" lon="0.21777">
        <ele>1088</ele>
        <time>2019-06-12T11:44:49.000Z</time>
      </trkpt>
      <trkpt lat="42.9712" lon="0.21788">
        <ele>1087.4000244141</ele>
        <time>2019-06-12T11:44:55.000Z</time>
      </trkpt>
      <trkpt lat="42.97109" lon="0.21799">
        <ele>1089.4000244141</ele>
        <time>2019-06-12T11:45:01.000Z</time>
      </trkpt>
      <trkpt lat="42.97105" lon="0.2181">
        <ele>1090</ele>
        <time>2019-06-12T11:45:17.000Z</time>
      </trkpt>
      <trkpt lat="42.97098" lon="0.21819">
        <ele>1089.4000244141</ele>
        <time>2019-06-12T11:45:27.000Z</time>
      </trkpt>
      <trkpt lat="42.97091" lon="0.2183">
        <ele>1088.1999511719</ele>
        <time>2019-06-12T11:45:37.000Z</time>
      </trkpt>
      <trkpt lat="42.97084" lon="0.2184">
        <ele>1086.4000244141</ele>
        <time>2019-06-12T11:45:51.000Z</time>
      </trkpt>
      <trkpt lat="42.97077" lon="0.2185">
        <ele>1084.8000488281</ele>
        <time>2019-06-12T11:45:57.000Z</time>
      </trkpt>
      <trkpt lat="42.97068" lon="0.21858">
        <ele>1083.8000488281</ele>
        <time>2019-06-12T11:46:05.000Z</time>
      </trkpt>
      <trkpt lat="42.97059" lon="0.21866">
        <ele>1084</ele>
        <time>2019-06-12T11:46:13.000Z</time>
      </trkpt>
      <trkpt lat="42.9705" lon="0.21872">
        <ele>1084.5999755859</ele>
        <time>2019-06-12T11:46:29.000Z</time>
      </trkpt>
      <trkpt lat="42.97042" lon="0.21881">
        <ele>1085.1999511719</ele>
        <time>2019-06-12T11:46:35.000Z</time>
      </trkpt>
      <trkpt lat="42.97037" lon="0.21894">
        <ele>1088.1999511719</ele>
        <time>2019-06-12T11:46:43.000Z</time>
      </trkpt>
      <trkpt lat="42.97038" lon="0.21908">
        <ele>1090.1999511719</ele>
        <time>2019-06-12T11:47:07.000Z</time>
      </trkpt>
      <trkpt lat="42.97034" lon="0.21922">
        <ele>1093.8000488281</ele>
        <time>2019-06-12T11:47:17.000Z</time>
      </trkpt>
      <trkpt lat="42.97035" lon="0.21938">
        <ele>1097</ele>
        <time>2019-06-12T11:47:25.000Z</time>
      </trkpt>
      <trkpt lat="42.97045" lon="0.21936">
        <ele>1094.1999511719</ele>
        <time>2019-06-12T11:48:13.000Z</time>
      </trkpt>
      <trkpt lat="42.97055" lon="0.2194">
        <ele>1092.5999755859</ele>
        <time>2019-06-12T11:48:19.000Z</time>
      </trkpt>
      <trkpt lat="42.9706" lon="0.21952">
        <ele>1094</ele>
        <time>2019-06-12T11:48:41.000Z</time>
      </trkpt>
      <trkpt lat="42.97068" lon="0.21961">
        <ele>1094</ele>
        <time>2019-06-12T11:48:47.000Z</time>
      </trkpt>
      <trkpt lat="42.97077" lon="0.21962">
        <ele>1092.4000244141</ele>
        <time>2019-06-12T11:48:59.000Z</time>
      </trkpt>
      <trkpt lat="42.97085" lon="0.21956">
        <ele>1089.1999511719</ele>
        <time>2019-06-12T11:49:09.000Z</time>
      </trkpt>
      <trkpt lat="42.97095" lon="0.21951">
        <ele>1087.4000244141</ele>
        <time>2019-06-12T11:49:17.000Z</time>
      </trkpt>
      <trkpt lat="42.97106" lon="0.2195">
        <ele>1087.1999511719</ele>
        <time>2019-06-12T11:49:29.000Z</time>
      </trkpt>
      <trkpt lat="42.97118" lon="0.21949">
        <ele>1087</ele>
        <time>2019-06-12T11:49:39.000Z</time>
      </trkpt>
      <trkpt lat="42.97128" lon="0.21944">
        <ele>1086.1999511719</ele>
        <time>2019-06-12T11:49:45.000Z</time>
      </trkpt>
      <trkpt lat="42.97137" lon="0.2194">
        <ele>1085.5999755859</ele>
        <time>2019-06-12T11:50:11.000Z</time>
      </trkpt>
      <trkpt lat="42.97146" lon="0.21944">
        <ele>1086.1999511719</ele>
        <time>2019-06-12T11:50:19.000Z</time>
      </trkpt>
      <trkpt lat="42.97157" lon="0.2194">
        <ele>1084.5999755859</ele>
        <time>2019-06-12T11:50:25.000Z</time>
      </trkpt>
      <trkpt lat="42.97169" lon="0.21931">
        <ele>1078</ele>
        <time>2019-06-12T11:50:35.000Z</time>
      </trkpt>
      <trkpt lat="42.97175" lon="0.21946">
        <ele>1082.5999755859</ele>
        <time>2019-06-12T11:50:41.000Z</time>
      </trkpt>
      <trkpt lat="42.97184" lon="0.21945">
        <ele>1080</ele>
        <time>2019-06-12T11:50:59.000Z</time>
      </trkpt>
      <trkpt lat="42.97194" lon="0.2194">
        <ele>1075.5999755859</ele>
        <time>2019-06-12T11:51:11.000Z</time>
      </trkpt>
      <trkpt lat="42.97204" lon="0.2194">
        <ele>1072.5999755859</ele>
        <time>2019-06-12T11:51:27.000Z</time>
      </trkpt>
      <trkpt lat="42.97215" lon="0.21943">
        <ele>1071.4000244141</ele>
        <time>2019-06-12T11:51:41.000Z</time>
      </trkpt>
      <trkpt lat="42.97223" lon="0.21951">
        <ele>1072.4000244141</ele>
        <time>2019-06-12T11:51:53.000Z</time>
      </trkpt>
      <trkpt lat="42.97232" lon="0.21949">
        <ele>1069.4000244141</ele>
        <time>2019-06-12T11:51:59.000Z</time>
      </trkpt>
      <trkpt lat="42.97241" lon="0.21949">
        <ele>1067.1999511719</ele>
        <time>2019-06-12T11:52:05.000Z</time>
      </trkpt>
      <trkpt lat="42.97251" lon="0.21951">
        <ele>1065.5999755859</ele>
        <time>2019-06-12T11:52:15.000Z</time>
      </trkpt>
      <trkpt lat="42.97261" lon="0.21958">
        <ele>1065.4000244141</ele>
        <time>2019-06-12T11:52:53.000Z</time>
      </trkpt>
      <trkpt lat="42.97271" lon="0.21963">
        <ele>1062.5999755859</ele>
        <time>2019-06-12T11:53:03.000Z</time>
      </trkpt>
      <trkpt lat="42.97281" lon="0.21967">
        <ele>1059.5999755859</ele>
        <time>2019-06-12T11:53:11.000Z</time>
      </trkpt>
      <trkpt lat="42.97288" lon="0.21974">
        <ele>1058.8000488281</ele>
        <time>2019-06-12T11:53:19.000Z</time>
      </trkpt>
      <trkpt lat="42.97296" lon="0.21981">
        <ele>1057.5999755859</ele>
        <time>2019-06-12T11:53:35.000Z</time>
      </trkpt>
      <trkpt lat="42.97305" lon="0.21987">
        <ele>1055.1999511719</ele>
        <time>2019-06-12T11:53:43.000Z</time>
      </trkpt>
      <trkpt lat="42.97316" lon="0.21991">
        <ele>1051.8000488281</ele>
        <time>2019-06-12T11:53:49.000Z</time>
      </trkpt>
      <trkpt lat="42.97318" lon="0.22003">
        <ele>1054.5999755859</ele>
        <time>2019-06-12T11:53:59.000Z</time>
      </trkpt>
      <trkpt lat="42.97322" lon="0.22015">
        <ele>1056.4000244141</ele>
        <time>2019-06-12T11:54:09.000Z</time>
      </trkpt>
      <trkpt lat="42.97322" lon="0.22028">
        <ele>1060.4000244141</ele>
        <time>2019-06-12T11:54:19.000Z</time>
      </trkpt>
      <trkpt lat="42.9733" lon="0.22034">
        <ele>1058.5999755859</ele>
        <time>2019-06-12T11:54:27.000Z</time>
      </trkpt>
      <trkpt lat="42.97343" lon="0.22044">
        <ele>1056</ele>
        <time>2019-06-12T11:54:39.000Z</time>
      </trkpt>
      <trkpt lat="42.9735" lon="0.22051">
        <ele>1055.8000488281</ele>
        <time>2019-06-12T11:54:46.000Z</time>
      </trkpt>
      <trkpt lat="42.97357" lon="0.2206">
        <ele>1055.8000488281</ele>
        <time>2019-06-12T11:54:55.000Z</time>
      </trkpt>
      <trkpt lat="42.97355" lon="0.22072">
        <ele>1059.5999755859</ele>
        <time>2019-06-12T11:55:07.000Z</time>
      </trkpt>
      <trkpt lat="42.97365" lon="0.22075">
        <ele>1057</ele>
        <time>2019-06-12T11:55:14.000Z</time>
      </trkpt>
      <trkpt lat="42.9737" lon="0.22085">
        <ele>1057.8000488281</ele>
        <time>2019-06-12T11:55:31.000Z</time>
      </trkpt>
      <trkpt lat="42.97372" lon="0.22098">
        <ele>1060.8000488281</ele>
        <time>2019-06-12T11:55:40.000Z</time>
      </trkpt>
      <trkpt lat="42.97382" lon="0.22101">
        <ele>1058.1999511719</ele>
        <time>2019-06-12T11:55:47.000Z</time>
      </trkpt>
      <trkpt lat="42.9739" lon="0.22109">
        <ele>1057.8000488281</ele>
        <time>2019-06-12T11:55:59.000Z</time>
      </trkpt>
      <trkpt lat="42.97401" lon="0.22112">
        <ele>1054.5999755859</ele>
        <time>2019-06-12T11:56:05.000Z</time>
      </trkpt>
      <trkpt lat="42.97404" lon="0.22125">
        <ele>1057.1999511719</ele>
        <time>2019-06-12T11:56:16.000Z</time>
      </trkpt>
      <trkpt lat="42.97412" lon="0.22128">
        <ele>1055.1999511719</ele>
        <time>2019-06-12T11:56:22.000Z</time>
      </trkpt>
      <trkpt lat="42.97421" lon="0.22133">
        <ele>1053.8000488281</ele>
        <time>2019-06-12T11:56:34.000Z</time>
      </trkpt>
      <trkpt lat="42.97429" lon="0.2214">
        <ele>1052.8000488281</ele>
        <time>2019-06-12T11:56:46.000Z</time>
      </trkpt>
      <trkpt lat="42.97436" lon="0.22149">
        <ele>1053.1999511719</ele>
        <time>2019-06-12T11:56:55.000Z</time>
      </trkpt>
      <trkpt lat="42.97443" lon="0.22158">
        <ele>1053.8000488281</ele>
        <time>2019-06-12T11:57:04.000Z</time>
      </trkpt>
      <trkpt lat="42.97452" lon="0.22166">
        <ele>1053.4000244141</ele>
        <time>2019-06-12T11:57:15.000Z</time>
      </trkpt>
      <trkpt lat="42.97462" lon="0.2217">
        <ele>1051.4000244141</ele>
        <time>2019-06-12T11:57:22.000Z</time>
      </trkpt>
      <trkpt lat="42.9747" lon="0.22176">
        <ele>1050.4000244141</ele>
        <time>2019-06-12T11:57:30.000Z</time>
      </trkpt>
      <trkpt lat="42.97478" lon="0.22185">
        <ele>1050.5999755859</ele>
        <time>2019-06-12T11:57:39.000Z</time>
      </trkpt>
      <trkpt lat="42.97485" lon="0.22193">
        <ele>1050.8000488281</ele>
        <time>2019-06-12T11:57:57.000Z</time>
      </trkpt>
      <trkpt lat="42.97493" lon="0.222">
        <ele>1050</ele>
        <time>2019-06-12T11:58:05.000Z</time>
      </trkpt>
      <trkpt lat="42.97497" lon="0.22211">
        <ele>1052.1999511719</ele>
        <time>2019-06-12T11:58:15.000Z</time>
      </trkpt>
      <trkpt lat="42.97506" lon="0.22215">
        <ele>1050.5999755859</ele>
        <time>2019-06-12T11:58:25.000Z</time>
      </trkpt>
      <trkpt lat="42.97515" lon="0.22222">
        <ele>1049.4000244141</ele>
        <time>2019-06-12T11:58:34.000Z</time>
      </trkpt>
      <trkpt lat="42.97523" lon="0.22228">
        <ele>1048</ele>
        <time>2019-06-12T11:58:40.000Z</time>
      </trkpt>
      <trkpt lat="42.97532" lon="0.22233">
        <ele>1046.5999755859</ele>
        <time>2019-06-12T11:58:49.000Z</time>
      </trkpt>
      <trkpt lat="42.97549" lon="0.22243">
        <ele>1043.8000488281</ele>
        <time>2019-06-12T11:59:39.000Z</time>
      </trkpt>
      <trkpt lat="42.97558" lon="0.22246">
        <ele>1041.5999755859</ele>
        <time>2019-06-12T11:59:50.000Z</time>
      </trkpt>
      <trkpt lat="42.97567" lon="0.22249">
        <ele>1039.5999755859</ele>
        <time>2019-06-12T11:59:58.000Z</time>
      </trkpt>
      <trkpt lat="42.97577" lon="0.22252">
        <ele>1037.4000244141</ele>
        <time>2019-06-12T12:00:03.000Z</time>
      </trkpt>
      <trkpt lat="42.97587" lon="0.22257">
        <ele>1035.4000244141</ele>
        <time>2019-06-12T12:00:08.000Z</time>
      </trkpt>
      <trkpt lat="42.97576" lon="0.22263">
        <ele>1040.1999511719</ele>
        <time>2019-06-12T12:00:17.000Z</time>
      </trkpt>
      <trkpt lat="42.97586" lon="0.22271">
        <ele>1038.8000488281</ele>
        <time>2019-06-12T12:00:28.000Z</time>
      </trkpt>
      <trkpt lat="42.97594" lon="0.2228">
        <ele>1038.1999511719</ele>
        <time>2019-06-12T12:00:38.000Z</time>
      </trkpt>
      <trkpt lat="42.97602" lon="0.22287">
        <ele>1036.5999755859</ele>
        <time>2019-06-12T12:00:44.000Z</time>
      </trkpt>
      <trkpt lat="42.97611" lon="0.22295">
        <ele>1034.8000488281</ele>
        <time>2019-06-12T12:00:51.000Z</time>
      </trkpt>
      <trkpt lat="42.97611" lon="0.22308">
        <ele>1037.1999511719</ele>
        <time>2019-06-12T12:01:02.000Z</time>
      </trkpt>
      <trkpt lat="42.9762" lon="0.22313">
        <ele>1034.4000244141</ele>
        <time>2019-06-12T12:01:07.000Z</time>
      </trkpt>
      <trkpt lat="42.97624" lon="0.22325">
        <ele>1034.8000488281</ele>
        <time>2019-06-12T12:01:18.000Z</time>
      </trkpt>
      <trkpt lat="42.97631" lon="0.22334">
        <ele>1033.1999511719</ele>
        <time>2019-06-12T12:01:27.000Z</time>
      </trkpt>
      <trkpt lat="42.97639" lon="0.22343">
        <ele>1031.4000244141</ele>
        <time>2019-06-12T12:01:39.000Z</time>
      </trkpt>
      <trkpt lat="42.9765" lon="0.22344">
        <ele>1027.4000244141</ele>
        <time>2019-06-12T12:01:44.000Z</time>
      </trkpt>
      <trkpt lat="42.97654" lon="0.22356">
        <ele>1027.4000244141</ele>
        <time>2019-06-12T12:02:03.000Z</time>
      </trkpt>
      <trkpt lat="42.97658" lon="0.22367">
        <ele>1028.1999511719</ele>
        <time>2019-06-12T12:02:13.000Z</time>
      </trkpt>
      <trkpt lat="42.97664" lon="0.22376">
        <ele>1027.4000244141</ele>
        <time>2019-06-12T12:02:22.000Z</time>
      </trkpt>
      <trkpt lat="42.97674" lon="0.22379">
        <ele>1023.200012207</ele>
        <time>2019-06-12T12:02:29.000Z</time>
      </trkpt>
      <trkpt lat="42.97681" lon="0.22387">
        <ele>1021.200012207</ele>
        <time>2019-06-12T12:03:45.000Z</time>
      </trkpt>
      <trkpt lat="42.9769" lon="0.22389">
        <ele>1018</ele>
        <time>2019-06-12T12:03:57.000Z</time>
      </trkpt>
      <trkpt lat="42.97698" lon="0.22396">
        <ele>1015.5999755859</ele>
        <time>2019-06-12T12:04:17.000Z</time>
      </trkpt>
      <trkpt lat="42.97708" lon="0.22395">
        <ele>1011.5999755859</ele>
        <time>2019-06-12T12:04:26.000Z</time>
      </trkpt>
      <trkpt lat="42.97718" lon="0.22391">
        <ele>1007.4000244141</ele>
        <time>2019-06-12T12:04:33.000Z</time>
      </trkpt>
      <trkpt lat="42.97717" lon="0.22403">
        <ele>1009</ele>
        <time>2019-06-12T12:04:40.000Z</time>
      </trkpt>
      <trkpt lat="42.97723" lon="0.22416">
        <ele>1008</ele>
        <time>2019-06-12T12:04:47.000Z</time>
      </trkpt>
      <trkpt lat="42.97741" lon="0.22419">
        <ele>1001.4000244141</ele>
        <time>2019-06-12T12:04:53.000Z</time>
      </trkpt>
      <trkpt lat="42.97737" lon="0.22419">
        <ele>1003</ele>
        <time>2019-06-12T12:04:59.000Z</time>
      </trkpt>
      <trkpt lat="42.97746" lon="0.22427">
        <ele>1000.4000244141</ele>
        <time>2019-06-12T12:05:04.000Z</time>
      </trkpt>
      <trkpt lat="42.97756" lon="0.22426">
        <ele>996.40002441406</ele>
        <time>2019-06-12T12:05:09.000Z</time>
      </trkpt>
      <trkpt lat="42.97768" lon="0.22433">
        <ele>993.40002441406</ele>
        <time>2019-06-12T12:05:28.000Z</time>
      </trkpt>
      <trkpt lat="42.97761" lon="0.22442">
        <ele>996.20001220703</ele>
        <time>2019-06-12T12:05:34.000Z</time>
      </trkpt>
      <trkpt lat="42.97771" lon="0.22441">
        <ele>993.20001220703</ele>
        <time>2019-06-12T12:05:50.000Z</time>
      </trkpt>
      <trkpt lat="42.9779" lon="0.22441">
        <ele>987.59997558594</ele>
        <time>2019-06-12T12:05:57.000Z</time>
      </trkpt>
      <trkpt lat="42.97799" lon="0.22446">
        <ele>985.59997558594</ele>
        <time>2019-06-12T12:06:03.000Z</time>
      </trkpt>
      <trkpt lat="42.97809" lon="0.22448">
        <ele>983</ele>
        <time>2019-06-12T12:06:09.000Z</time>
      </trkpt>
      <trkpt lat="42.97806" lon="0.22455">
        <ele>984.59997558594</ele>
        <time>2019-06-12T12:06:24.000Z</time>
      </trkpt>
      <trkpt lat="42.97817" lon="0.22461">
        <ele>982</ele>
        <time>2019-06-12T12:06:37.000Z</time>
      </trkpt>
      <trkpt lat="42.9783" lon="0.22468">
        <ele>976.40002441406</ele>
        <time>2019-06-12T12:06:47.000Z</time>
      </trkpt>
      <trkpt lat="42.9784" lon="0.22469">
        <ele>973.40002441406</ele>
        <time>2019-06-12T12:06:52.000Z</time>
      </trkpt>
      <trkpt lat="42.97838" lon="0.2248">
        <ele>970.59997558594</ele>
        <time>2019-06-12T12:07:01.000Z</time>
      </trkpt>
      <trkpt lat="42.97846" lon="0.22492">
        <ele>965</ele>
        <time>2019-06-12T12:07:09.000Z</time>
      </trkpt>
      <trkpt lat="42.97867" lon="0.22501">
        <ele>957.59997558594</ele>
        <time>2019-06-12T12:07:14.000Z</time>
      </trkpt>
      <trkpt lat="42.97881" lon="0.22503">
        <ele>953.40002441406</ele>
        <time>2019-06-12T12:07:22.000Z</time>
      </trkpt>
      <trkpt lat="42.97871" lon="0.22506">
        <ele>954.79998779297</ele>
        <time>2019-06-12T12:07:28.000Z</time>
      </trkpt>
      <trkpt lat="42.97853" lon="0.22511">
        <ele>957.59997558594</ele>
        <time>2019-06-12T12:07:36.000Z</time>
      </trkpt>
      <trkpt lat="42.97861" lon="0.22503">
        <ele>958</ele>
        <time>2019-06-12T12:07:59.000Z</time>
      </trkpt>
      <trkpt lat="42.97871" lon="0.22499">
        <ele>957.20001220703</ele>
        <time>2019-06-12T12:08:21.000Z</time>
      </trkpt>
      <trkpt lat="42.9788" lon="0.22496">
        <ele>956.20001220703</ele>
        <time>2019-06-12T12:08:26.000Z</time>
      </trkpt>
      <trkpt lat="42.97887" lon="0.22488">
        <ele>957.79998779297</ele>
        <time>2019-06-12T12:08:34.000Z</time>
      </trkpt>
      <trkpt lat="42.97898" lon="0.22484">
        <ele>957.59997558594</ele>
        <time>2019-06-12T12:08:49.000Z</time>
      </trkpt>
      <trkpt lat="42.97898" lon="0.22484">
        <ele>957.59997558594</ele>
        <time>2019-06-12T12:08:52.000Z</time>
      </trkpt>
      <trkpt lat="42.97907" lon="0.22481">
        <ele>957.40002441406</ele>
        <time>2019-06-12T12:08:56.000Z</time>
        <extensions>
          <gpxtpx:TrackPointExtension xmlns:gpxtpx="http://www.garmin.com/xmlschemas/TrackPointExtension/v1">
            <gpxtpx:hr>105</gpxtpx:hr>
          </gpxtpx:TrackPointExtension>
        </extensions>
      </trkpt>
      <trkpt lat="42.97916" lon="0.22482">
        <ele>955.20001220703</ele>
        <time>2019-06-12T12:09:03.000Z</time>
        <extensions>
          <gpxtpx:TrackPointExtension xmlns:gpxtpx="http://www.garmin.com/xmlschemas/TrackPointExtension/v1">
            <gpxtpx:hr>105</gpxtpx:hr>
          </gpxtpx:TrackPointExtension>
        </extensions>
      </trkpt>
      <trkpt lat="42.97926" lon="0.22483">
        <ele>953.40002441406</ele>
        <time>2019-06-12T12:09:15.000Z</time>
        <extensions>
          <gpxtpx:TrackPointExtension xmlns:gpxtpx="http://www.garmin.com/xmlschemas/TrackPointExtension/v1">
            <gpxtpx:hr>105</gpxtpx:hr>
          </gpxtpx:TrackPointExtension>
        </extensions>
      </trkpt>
      <trkpt lat="42.97934" lon="0.22477">
        <ele>955</ele>
        <time>2019-06-12T12:09:27.000Z</time>
        <extensions>
          <gpxtpx:TrackPointExtension xmlns:gpxtpx="http://www.garmin.com/xmlschemas/TrackPointExtension/v1">
            <gpxtpx:hr>105</gpxtpx:hr>
          </gpxtpx:TrackPointExtension>
        </extensions>
      </trkpt>
      <trkpt lat="42.97942" lon="0.22483">
        <ele>952.20001220703</ele>
        <time>2019-06-12T12:09:34.000Z</time>
        <extensions>
          <gpxtpx:TrackPointExtension xmlns:gpxtpx="http://www.garmin.com/xmlschemas/TrackPointExtension/v1">
            <gpxtpx:hr>105</gpxtpx:hr>
          </gpxtpx:TrackPointExtension>
        </extensions>
      </trkpt>
      <trkpt lat="42.9795" lon="0.22476">
        <ele>954.40002441406</ele>
        <time>2019-06-12T12:09:46.000Z</time>
        <extensions>
          <gpxtpx:TrackPointExtension xmlns:gpxtpx="http://www.garmin.com/xmlschemas/TrackPointExtension/v1">
            <gpxtpx:hr>105</gpxtpx:hr>
          </gpxtpx:TrackPointExtension>
        </extensions>
      </trkpt>
      <trkpt lat="42.97959" lon="0.2248">
        <ele>952.59997558594</ele>
        <time>2019-06-12T12:09:58.000Z</time>
        <extensions>
          <gpxtpx:TrackPointExtension xmlns:gpxtpx="http://www.garmin.com/xmlschemas/TrackPointExtension/v1">
            <gpxtpx:hr>105</gpxtpx:hr>
          </gpxtpx:TrackPointExtension>
        </extensions>
      </trkpt>
      <trkpt lat="42.97968" lon="0.22479">
        <ele>952.79998779297</ele>
        <time>2019-06-12T12:10:06.000Z</time>
      </trkpt>
      <trkpt lat="42.97988" lon="0.22476">
        <ele>953.40002441406</ele>
        <time>2019-06-12T12:10:14.000Z</time>
      </trkpt>
      <trkpt lat="42.97998" lon="0.22479">
        <ele>951.79998779297</ele>
        <time>2019-06-12T12:10:31.000Z</time>
      </trkpt>
      <trkpt lat="42.98031" lon="0.22474">
        <ele>949.59997558594</ele>
        <time>2019-06-12T12:11:06.000Z</time>
      </trkpt>
      <trkpt lat="42.98041" lon="0.22471">
        <ele>949</ele>
        <time>2019-06-12T12:11:17.000Z</time>
      </trkpt>
      <trkpt lat="42.98051" lon="0.22469">
        <ele>948.59997558594</ele>
        <time>2019-06-12T12:11:22.000Z</time>
      </trkpt>
      <trkpt lat="42.9806" lon="0.22466">
        <ele>948.20001220703</ele>
        <time>2019-06-12T12:11:32.000Z</time>
      </trkpt>
      <trkpt lat="42.9807" lon="0.22465">
        <ele>947</ele>
        <time>2019-06-12T12:11:50.000Z</time>
      </trkpt>
      <trkpt lat="42.98079" lon="0.22466">
        <ele>945.20001220703</ele>
        <time>2019-06-12T12:12:02.000Z</time>
      </trkpt>
      <trkpt lat="42.98088" lon="0.22465">
        <ele>944.40002441406</ele>
        <time>2019-06-12T12:12:10.000Z</time>
      </trkpt>
      <trkpt lat="42.98108" lon="0.22462">
        <ele>943.59997558594</ele>
        <time>2019-06-12T12:12:20.000Z</time>
      </trkpt>
      <trkpt lat="42.98117" lon="0.22462">
        <ele>942.79998779297</ele>
        <time>2019-06-12T12:12:39.000Z</time>
      </trkpt>
      <trkpt lat="42.98126" lon="0.22461">
        <ele>942.20001220703</ele>
        <time>2019-06-12T12:12:47.000Z</time>
      </trkpt>
      <trkpt lat="42.98135" lon="0.22458">
        <ele>941.59997558594</ele>
        <time>2019-06-12T12:12:53.000Z</time>
      </trkpt>
      <trkpt lat="42.98144" lon="0.22456">
        <ele>941</ele>
        <time>2019-06-12T12:12:59.000Z</time>
      </trkpt>
      <trkpt lat="42.98144" lon="0.22456">
        <ele>941</ele>
        <time>2019-06-12T12:13:03.000Z</time>
      </trkpt>
      <trkpt lat="42.98155" lon="0.22453">
        <ele>940.40002441406</ele>
        <time>2019-06-12T12:13:05.000Z</time>
        <extensions>
          <gpxtpx:TrackPointExtension xmlns:gpxtpx="http://www.garmin.com/xmlschemas/TrackPointExtension/v1">
            <gpxtpx:hr>112</gpxtpx:hr>
          </gpxtpx:TrackPointExtension>
        </extensions>
      </trkpt>
      <trkpt lat="42.98165" lon="0.22453">
        <ele>939.40002441406</ele>
        <time>2019-06-12T12:13:16.000Z</time>
        <extensions>
          <gpxtpx:TrackPointExtension xmlns:gpxtpx="http://www.garmin.com/xmlschemas/TrackPointExtension/v1">
            <gpxtpx:hr>112</gpxtpx:hr>
          </gpxtpx:TrackPointExtension>
        </extensions>
      </trkpt>
      <trkpt lat="42.98175" lon="0.22452">
        <ele>939</ele>
        <time>2019-06-12T12:13:29.000Z</time>
        <extensions>
          <gpxtpx:TrackPointExtension xmlns:gpxtpx="http://www.garmin.com/xmlschemas/TrackPointExtension/v1">
            <gpxtpx:hr>112</gpxtpx:hr>
          </gpxtpx:TrackPointExtension>
        </extensions>
      </trkpt>
      <trkpt lat="42.98186" lon="0.22448">
        <ele>938.79998779297</ele>
        <time>2019-06-12T12:13:34.000Z</time>
        <extensions>
          <gpxtpx:TrackPointExtension xmlns:gpxtpx="http://www.garmin.com/xmlschemas/TrackPointExtension/v1">
            <gpxtpx:hr>112</gpxtpx:hr>
          </gpxtpx:TrackPointExtension>
        </extensions>
      </trkpt>
      <trkpt lat="42.98208" lon="0.22443">
        <ele>938.20001220703</ele>
        <time>2019-06-12T12:13:42.000Z</time>
        <extensions>
          <gpxtpx:TrackPointExtension xmlns:gpxtpx="http://www.garmin.com/xmlschemas/TrackPointExtension/v1">
            <gpxtpx:hr>112</gpxtpx:hr>
          </gpxtpx:TrackPointExtension>
        </extensions>
      </trkpt>
      <trkpt lat="42.98217" lon="0.22444">
        <ele>937.40002441406</ele>
        <time>2019-06-12T12:13:50.000Z</time>
        <extensions>
          <gpxtpx:TrackPointExtension xmlns:gpxtpx="http://www.garmin.com/xmlschemas/TrackPointExtension/v1">
            <gpxtpx:hr>112</gpxtpx:hr>
          </gpxtpx:TrackPointExtension>
        </extensions>
      </trkpt>
      <trkpt lat="42.98227" lon="0.22444">
        <ele>936.79998779297</ele>
        <time>2019-06-12T12:14:05.000Z</time>
        <extensions>
          <gpxtpx:TrackPointExtension xmlns:gpxtpx="http://www.garmin.com/xmlschemas/TrackPointExtension/v1">
            <gpxtpx:hr>112</gpxtpx:hr>
          </gpxtpx:TrackPointExtension>
        </extensions>
      </trkpt>
      <trkpt lat="42.98237" lon="0.22441">
        <ele>936.59997558594</ele>
        <time>2019-06-12T12:14:15.000Z</time>
        <extensions>
          <gpxtpx:TrackPointExtension xmlns:gpxtpx="http://www.garmin.com/xmlschemas/TrackPointExtension/v1">
            <gpxtpx:hr>112</gpxtpx:hr>
          </gpxtpx:TrackPointExtension>
        </extensions>
      </trkpt>
      <trkpt lat="42.98246" lon="0.22438">
        <ele>935.59997558594</ele>
        <time>2019-06-12T12:14:24.000Z</time>
      </trkpt>
      <trkpt lat="42.98256" lon="0.2244">
        <ele>934.40002441406</ele>
        <time>2019-06-12T12:15:09.000Z</time>
      </trkpt>
      <trkpt lat="42.98265" lon="0.22437">
        <ele>932.20001220703</ele>
        <time>2019-06-12T12:15:17.000Z</time>
      </trkpt>
      <trkpt lat="42.98274" lon="0.22435">
        <ele>930</ele>
        <time>2019-06-12T12:15:31.000Z</time>
      </trkpt>
      <trkpt lat="42.98284" lon="0.22435">
        <ele>927.40002441406</ele>
        <time>2019-06-12T12:15:38.000Z</time>
      </trkpt>
      <trkpt lat="42.98294" lon="0.22434">
        <ele>924.79998779297</ele>
        <time>2019-06-12T12:15:45.000Z</time>
      </trkpt>
      <trkpt lat="42.98303" lon="0.22432">
        <ele>922.40002441406</ele>
        <time>2019-06-12T12:15:52.000Z</time>
      </trkpt>
      <trkpt lat="42.98312" lon="0.22429">
        <ele>921</ele>
        <time>2019-06-12T12:15:59.000Z</time>
      </trkpt>
      <trkpt lat="42.98322" lon="0.22425">
        <ele>921.59997558594</ele>
        <time>2019-06-12T12:16:07.000Z</time>
      </trkpt>
      <trkpt lat="42.98332" lon="0.22423">
        <ele>921.79998779297</ele>
        <time>2019-06-12T12:16:21.000Z</time>
      </trkpt>
      <trkpt lat="42.98344" lon="0.22421">
        <ele>921.59997558594</ele>
        <time>2019-06-12T12:16:27.000Z</time>
      </trkpt>
      <trkpt lat="42.98353" lon="0.22422">
        <ele>920.59997558594</ele>
        <time>2019-06-12T12:16:35.000Z</time>
      </trkpt>
      <trkpt lat="42.98362" lon="0.22417">
        <ele>921.20001220703</ele>
        <time>2019-06-12T12:16:45.000Z</time>
      </trkpt>
      <trkpt lat="42.98371" lon="0.22414">
        <ele>921.59997558594</ele>
        <time>2019-06-12T12:16:55.000Z</time>
      </trkpt>
      <trkpt lat="42.98378" lon="0.22422">
        <ele>918.79998779297</ele>
        <time>2019-06-12T12:17:31.000Z</time>
      </trkpt>
      <trkpt lat="42.98382" lon="0.22411">
        <ele>922.59997558594</ele>
        <time>2019-06-12T12:17:47.000Z</time>
      </trkpt>
      <trkpt lat="42.98391" lon="0.22416">
        <ele>920.59997558594</ele>
        <time>2019-06-12T12:17:55.000Z</time>
      </trkpt>
      <trkpt lat="42.984" lon="0.2242">
        <ele>919.40002441406</ele>
        <time>2019-06-12T12:18:05.000Z</time>
      </trkpt>
      <trkpt lat="42.98409" lon="0.22421">
        <ele>919.20001220703</ele>
        <time>2019-06-12T12:18:14.000Z</time>
      </trkpt>
      <trkpt lat="42.98418" lon="0.22417">
        <ele>921.20001220703</ele>
        <time>2019-06-12T12:18:31.000Z</time>
      </trkpt>
      <trkpt lat="42.98428" lon="0.22414">
        <ele>922.40002441406</ele>
        <time>2019-06-12T12:18:38.000Z</time>
      </trkpt>
      <trkpt lat="42.98437" lon="0.2241">
        <ele>923.79998779297</ele>
        <time>2019-06-12T12:18:44.000Z</time>
      </trkpt>
      <trkpt lat="42.98447" lon="0.22408">
        <ele>924.59997558594</ele>
        <time>2019-06-12T12:18:53.000Z</time>
      </trkpt>
      <trkpt lat="42.98457" lon="0.22406">
        <ele>925.40002441406</ele>
        <time>2019-06-12T12:19:04.000Z</time>
      </trkpt>
      <trkpt lat="42.98466" lon="0.22403">
        <ele>925.59997558594</ele>
        <time>2019-06-12T12:19:12.000Z</time>
      </trkpt>
      <trkpt lat="42.98476" lon="0.22405">
        <ele>924.59997558594</ele>
        <time>2019-06-12T12:19:21.000Z</time>
      </trkpt>
      <trkpt lat="42.98485" lon="0.22407">
        <ele>923.59997558594</ele>
        <time>2019-06-12T12:19:29.000Z</time>
      </trkpt>
      <trkpt lat="42.98496" lon="0.22409">
        <ele>922.40002441406</ele>
        <time>2019-06-12T12:19:40.000Z</time>
      </trkpt>
      <trkpt lat="42.98514" lon="0.22407">
        <ele>921</ele>
        <time>2019-06-12T12:19:58.000Z</time>
      </trkpt>
      <trkpt lat="42.98522" lon="0.22404">
        <ele>919.59997558594</ele>
        <time>2019-06-12T12:20:04.000Z</time>
      </trkpt>
      <trkpt lat="42.98532" lon="0.22404">
        <ele>917</ele>
        <time>2019-06-12T12:20:15.000Z</time>
      </trkpt>
      <trkpt lat="42.98542" lon="0.22406">
        <ele>913.40002441406</ele>
        <time>2019-06-12T12:20:20.000Z</time>
      </trkpt>
      <trkpt lat="42.98552" lon="0.22407">
        <ele>909.40002441406</ele>
        <time>2019-06-12T12:20:29.000Z</time>
      </trkpt>
      <trkpt lat="42.98544" lon="0.22397">
        <ele>914.40002441406</ele>
        <time>2019-06-12T12:20:40.000Z</time>
      </trkpt>
      <trkpt lat="42.98537" lon="0.22405">
        <ele>915</ele>
        <time>2019-06-12T12:20:54.000Z</time>
      </trkpt>
      <trkpt lat="42.98541" lon="0.22417">
        <ele>910.59997558594</ele>
        <time>2019-06-12T12:21:10.000Z</time>
      </trkpt>
      <trkpt lat="42.98548" lon="0.22426">
        <ele>906.20001220703</ele>
        <time>2019-06-12T12:21:29.000Z</time>
      </trkpt>
      <trkpt lat="42.98552" lon="0.22438">
        <ele>901.79998779297</ele>
        <time>2019-06-12T12:21:42.000Z</time>
      </trkpt>
      <trkpt lat="42.98557" lon="0.22448">
        <ele>897.20001220703</ele>
        <time>2019-06-12T12:21:53.000Z</time>
      </trkpt>
      <trkpt lat="42.98566" lon="0.22452">
        <ele>893.59997558594</ele>
        <time>2019-06-12T12:21:58.000Z</time>
      </trkpt>
      <trkpt lat="42.98558" lon="0.22459">
        <ele>894</ele>
        <time>2019-06-12T12:22:05.000Z</time>
      </trkpt>
      <trkpt lat="42.98549" lon="0.22464">
        <ele>894.59997558594</ele>
        <time>2019-06-12T12:22:10.000Z</time>
      </trkpt>
      <trkpt lat="42.98541" lon="0.22472">
        <ele>894.20001220703</ele>
        <time>2019-06-12T12:22:17.000Z</time>
      </trkpt>
      <trkpt lat="42.98535" lon="0.22482">
        <ele>892.79998779297</ele>
        <time>2019-06-12T12:22:23.000Z</time>
      </trkpt>
      <trkpt lat="42.98528" lon="0.22491">
        <ele>890.40002441406</ele>
        <time>2019-06-12T12:22:30.000Z</time>
      </trkpt>
      <trkpt lat="42.9852" lon="0.22496">
        <ele>888</ele>
        <time>2019-06-12T12:22:39.000Z</time>
      </trkpt>
      <trkpt lat="42.98511" lon="0.22503">
        <ele>885.20001220703</ele>
        <time>2019-06-12T12:22:45.000Z</time>
      </trkpt>
      <trkpt lat="42.98504" lon="0.22514">
        <ele>879.79998779297</ele>
        <time>2019-06-12T12:22:59.000Z</time>
      </trkpt>
      <trkpt lat="42.98492" lon="0.22531">
        <ele>871.40002441406</ele>
        <time>2019-06-12T12:23:04.000Z</time>
      </trkpt>
      <trkpt lat="42.98481" lon="0.22533">
        <ele>871.79998779297</ele>
        <time>2019-06-12T12:23:25.000Z</time>
      </trkpt>
      <trkpt lat="42.98473" lon="0.22539">
        <ele>870.20001220703</ele>
        <time>2019-06-12T12:23:32.000Z</time>
      </trkpt>
      <trkpt lat="42.98466" lon="0.22549">
        <ele>868</ele>
        <time>2019-06-12T12:23:39.000Z</time>
      </trkpt>
      <trkpt lat="42.98457" lon="0.22555">
        <ele>868.20001220703</ele>
        <time>2019-06-12T12:23:49.000Z</time>
      </trkpt>
      <trkpt lat="42.98449" lon="0.22562">
        <ele>868.20001220703</ele>
        <time>2019-06-12T12:23:59.000Z</time>
      </trkpt>
      <trkpt lat="42.98442" lon="0.22571">
        <ele>867.79998779297</ele>
        <time>2019-06-12T12:24:10.000Z</time>
      </trkpt>
      <trkpt lat="42.98437" lon="0.22581">
        <ele>866.79998779297</ele>
        <time>2019-06-12T12:24:22.000Z</time>
      </trkpt>
      <trkpt lat="42.98437" lon="0.22594">
        <ele>865.40002441406</ele>
        <time>2019-06-12T12:24:34.000Z</time>
      </trkpt>
      <trkpt lat="42.98442" lon="0.22603">
        <ele>863.40002441406</ele>
        <time>2019-06-12T12:25:15.000Z</time>
      </trkpt>
      <trkpt lat="42.98446" lon="0.22615">
        <ele>861.40002441406</ele>
        <time>2019-06-12T12:25:30.000Z</time>
      </trkpt>
      <trkpt lat="42.98444" lon="0.22627">
        <ele>860.20001220703</ele>
        <time>2019-06-12T12:25:42.000Z</time>
      </trkpt>
      <trkpt lat="42.98444" lon="0.22627">
        <ele>860.20001220703</ele>
        <time>2019-06-12T12:25:58.000Z</time>
      </trkpt>
      <trkpt lat="42.98444" lon="0.22627">
        <ele>860.20001220703</ele>
        <time>2019-06-12T12:25:58.000Z</time>
      </trkpt>
    </trkseg>
  </trk>
</gpx>